<?xml version="1.0" encoding="UTF-8" standalone="no" ?>
<gpx xmlns="http://www.topografix.com/GPX/1/1" xmlns:xsi="http://www.w3.org/2001/XMLSchema-instance" xsi:schemaLocation="http://www.topografix.com/GPX/1/1 http://www.topografix.com/GPX/1/1/gpx.xsd" version="1.1" creator="VisuGPX - https://www.visugpx.com">
  <metadata>
    <name>2024-05-08 - Tour sur la Planèze de St Flour </name>
    <desc><![CDATA[Bel itinéraire sur la Planèze de Saint-Flour. Au départ de Coltine, on se dirige vers l'ouest pour passer à Lachamp puis à Ussel (belle église typique de la région). Poursuivre vers Valuejols, revenir plein est pour traverser la zone humide de Nouvialle, continuer vers l'est pour atteindre Rouffiac (belle église + tour..) et passer la rivière l'Ander soit par un gué soit par un pont pour monter sur Andelat. Remonter plein nord jusqu'à Pierrefite puis Rezentières. Basculer vers l'ouest jusqu'à aller faire le tour du site de Montlouby (passage trialisant sur un bon kilomètre vers le 48ème km). Revenir sur Coltines en repiquant vers le sud.]]></desc>
  </metadata>
  <trk>
    <name><![CDATA[Circuit sur la Planèze au nord de Saint-Flour - 43611 - UtagawaVTT.com]]></name>
    <trkseg>
      <trkpt lat="45.09411" lon="2.98783">
        <ele>969</ele>
        <time>2024-05-08T16:40:58Z</time>
      </trkpt>
      <trkpt lat="45.09391" lon="2.98792">
        <ele>969</ele>
        <time>2024-05-08T16:41:03Z</time>
      </trkpt>
      <trkpt lat="45.09345" lon="2.98807">
        <ele>967</ele>
        <time>2024-05-08T16:41:14Z</time>
      </trkpt>
      <trkpt lat="45.09316" lon="2.98804">
        <ele>965</ele>
        <time>2024-05-08T16:41:21Z</time>
      </trkpt>
      <trkpt lat="45.09311" lon="2.98809">
        <ele>965</ele>
        <time>2024-05-08T16:41:22Z</time>
      </trkpt>
      <trkpt lat="45.09302" lon="2.98831">
        <ele>964</ele>
        <time>2024-05-08T16:41:26Z</time>
      </trkpt>
      <trkpt lat="45.09292" lon="2.98836">
        <ele>962</ele>
        <time>2024-05-08T16:41:29Z</time>
      </trkpt>
      <trkpt lat="45.09273" lon="2.98817">
        <ele>961</ele>
        <time>2024-05-08T16:41:34Z</time>
      </trkpt>
      <trkpt lat="45.09246" lon="2.9881">
        <ele>958</ele>
        <time>2024-05-08T16:41:41Z</time>
      </trkpt>
      <trkpt lat="45.09235" lon="2.98804">
        <ele>958</ele>
        <time>2024-05-08T16:41:43Z</time>
      </trkpt>
      <trkpt lat="45.09207" lon="2.98775">
        <ele>957</ele>
        <time>2024-05-08T16:41:52Z</time>
      </trkpt>
      <trkpt lat="45.0914" lon="2.98715">
        <ele>957</ele>
        <time>2024-05-08T16:42:10Z</time>
      </trkpt>
      <trkpt lat="45.09135" lon="2.98709">
        <ele>957</ele>
        <time>2024-05-08T16:42:12Z</time>
      </trkpt>
      <trkpt lat="45.09133" lon="2.98701">
        <ele>958</ele>
        <time>2024-05-08T16:42:13Z</time>
      </trkpt>
      <trkpt lat="45.09129" lon="2.98702">
        <ele>958</ele>
        <time>2024-05-08T16:42:14Z</time>
      </trkpt>
      <trkpt lat="45.09128" lon="2.98705">
        <ele>958</ele>
        <time>2024-05-08T16:42:14Z</time>
      </trkpt>
      <trkpt lat="45.0913" lon="2.98712">
        <ele>958</ele>
        <time>2024-05-08T16:42:16Z</time>
      </trkpt>
      <trkpt lat="45.09145" lon="2.98722">
        <ele>957</ele>
        <time>2024-05-08T16:42:20Z</time>
      </trkpt>
      <trkpt lat="45.09191" lon="2.98762">
        <ele>956</ele>
        <time>2024-05-08T16:42:32Z</time>
      </trkpt>
      <trkpt lat="45.09197" lon="2.98762">
        <ele>956</ele>
        <time>2024-05-08T16:42:34Z</time>
      </trkpt>
      <trkpt lat="45.09201" lon="2.98754">
        <ele>957</ele>
        <time>2024-05-08T16:42:35Z</time>
      </trkpt>
      <trkpt lat="45.0921" lon="2.98701">
        <ele>957</ele>
        <time>2024-05-08T16:42:44Z</time>
      </trkpt>
      <trkpt lat="45.09221" lon="2.98661">
        <ele>957</ele>
        <time>2024-05-08T16:42:51Z</time>
      </trkpt>
      <trkpt lat="45.09228" lon="2.98607">
        <ele>958</ele>
        <time>2024-05-08T16:43:00Z</time>
      </trkpt>
      <trkpt lat="45.09233" lon="2.9859">
        <ele>959</ele>
        <time>2024-05-08T16:43:03Z</time>
      </trkpt>
      <trkpt lat="45.09249" lon="2.98557">
        <ele>959</ele>
        <time>2024-05-08T16:43:10Z</time>
      </trkpt>
      <trkpt lat="45.09253" lon="2.98544">
        <ele>959</ele>
        <time>2024-05-08T16:43:12Z</time>
      </trkpt>
      <trkpt lat="45.09255" lon="2.98477">
        <ele>960</ele>
        <time>2024-05-08T16:43:23Z</time>
      </trkpt>
      <trkpt lat="45.09273" lon="2.98426">
        <ele>961</ele>
        <time>2024-05-08T16:43:33Z</time>
      </trkpt>
      <trkpt lat="45.09278" lon="2.98384">
        <ele>961</ele>
        <time>2024-05-08T16:43:40Z</time>
      </trkpt>
      <trkpt lat="45.09289" lon="2.98339">
        <ele>962</ele>
        <time>2024-05-08T16:43:48Z</time>
      </trkpt>
      <trkpt lat="45.09315" lon="2.98295">
        <ele>963</ele>
        <time>2024-05-08T16:43:57Z</time>
      </trkpt>
      <trkpt lat="45.09344" lon="2.98227">
        <ele>965</ele>
        <time>2024-05-08T16:44:10Z</time>
      </trkpt>
      <trkpt lat="45.09351" lon="2.98197">
        <ele>965</ele>
        <time>2024-05-08T16:44:15Z</time>
      </trkpt>
      <trkpt lat="45.0936" lon="2.98172">
        <ele>966</ele>
        <time>2024-05-08T16:44:20Z</time>
      </trkpt>
      <trkpt lat="45.09389" lon="2.98127">
        <ele>967</ele>
        <time>2024-05-08T16:44:30Z</time>
      </trkpt>
      <trkpt lat="45.09401" lon="2.98099">
        <ele>967</ele>
        <time>2024-05-08T16:44:35Z</time>
      </trkpt>
      <trkpt lat="45.09411" lon="2.98059">
        <ele>967</ele>
        <time>2024-05-08T16:44:42Z</time>
      </trkpt>
      <trkpt lat="45.09418" lon="2.98049">
        <ele>967</ele>
        <time>2024-05-08T16:44:45Z</time>
      </trkpt>
      <trkpt lat="45.09442" lon="2.98">
        <ele>967</ele>
        <time>2024-05-08T16:44:55Z</time>
      </trkpt>
      <trkpt lat="45.09456" lon="2.97967">
        <ele>967</ele>
        <time>2024-05-08T16:45:01Z</time>
      </trkpt>
      <trkpt lat="45.0946" lon="2.97963">
        <ele>967</ele>
        <time>2024-05-08T16:45:02Z</time>
      </trkpt>
      <trkpt lat="45.0948" lon="2.97892">
        <ele>968</ele>
        <time>2024-05-08T16:45:15Z</time>
      </trkpt>
      <trkpt lat="45.09488" lon="2.97871">
        <ele>968</ele>
        <time>2024-05-08T16:45:19Z</time>
      </trkpt>
      <trkpt lat="45.09508" lon="2.97839">
        <ele>968</ele>
        <time>2024-05-08T16:45:26Z</time>
      </trkpt>
      <trkpt lat="45.09525" lon="2.97783">
        <ele>970</ele>
        <time>2024-05-08T16:45:36Z</time>
      </trkpt>
      <trkpt lat="45.09534" lon="2.97778">
        <ele>970</ele>
        <time>2024-05-08T16:45:38Z</time>
      </trkpt>
      <trkpt lat="45.09556" lon="2.97776">
        <ele>970</ele>
        <time>2024-05-08T16:45:43Z</time>
      </trkpt>
      <trkpt lat="45.09587" lon="2.97777">
        <ele>970</ele>
        <time>2024-05-08T16:45:50Z</time>
      </trkpt>
      <trkpt lat="45.09613" lon="2.97783">
        <ele>971</ele>
        <time>2024-05-08T16:45:57Z</time>
      </trkpt>
      <trkpt lat="45.0962" lon="2.97789">
        <ele>971</ele>
        <time>2024-05-08T16:45:58Z</time>
      </trkpt>
      <trkpt lat="45.09633" lon="2.97866">
        <ele>972</ele>
        <time>2024-05-08T16:46:11Z</time>
      </trkpt>
      <trkpt lat="45.09639" lon="2.97865">
        <ele>972</ele>
        <time>2024-05-08T16:46:13Z</time>
      </trkpt>
      <trkpt lat="45.09727" lon="2.97907">
        <ele>975</ele>
        <time>2024-05-08T16:46:35Z</time>
      </trkpt>
      <trkpt lat="45.09777" lon="2.97932">
        <ele>977</ele>
        <time>2024-05-08T16:46:47Z</time>
      </trkpt>
      <trkpt lat="45.09791" lon="2.97943">
        <ele>977</ele>
        <time>2024-05-08T16:46:51Z</time>
      </trkpt>
      <trkpt lat="45.09801" lon="2.97943">
        <ele>977</ele>
        <time>2024-05-08T16:46:53Z</time>
      </trkpt>
      <trkpt lat="45.09814" lon="2.97935">
        <ele>978</ele>
        <time>2024-05-08T16:46:56Z</time>
      </trkpt>
      <trkpt lat="45.09825" lon="2.97933">
        <ele>978</ele>
        <time>2024-05-08T16:46:59Z</time>
      </trkpt>
      <trkpt lat="45.09847" lon="2.97924">
        <ele>979</ele>
        <time>2024-05-08T16:47:04Z</time>
      </trkpt>
      <trkpt lat="45.09856" lon="2.97925">
        <ele>979</ele>
        <time>2024-05-08T16:47:06Z</time>
      </trkpt>
      <trkpt lat="45.09864" lon="2.97931">
        <ele>980</ele>
        <time>2024-05-08T16:47:08Z</time>
      </trkpt>
      <trkpt lat="45.09875" lon="2.97946">
        <ele>979</ele>
        <time>2024-05-08T16:47:12Z</time>
      </trkpt>
      <trkpt lat="45.09883" lon="2.97934">
        <ele>980</ele>
        <time>2024-05-08T16:47:15Z</time>
      </trkpt>
      <trkpt lat="45.09889" lon="2.97887">
        <ele>982</ele>
        <time>2024-05-08T16:47:23Z</time>
      </trkpt>
      <trkpt lat="45.09922" lon="2.97812">
        <ele>984</ele>
        <time>2024-05-08T16:47:37Z</time>
      </trkpt>
      <trkpt lat="45.0995" lon="2.97698">
        <ele>984</ele>
        <time>2024-05-08T16:47:57Z</time>
      </trkpt>
      <trkpt lat="45.10007" lon="2.97494">
        <ele>986</ele>
        <time>2024-05-08T16:48:33Z</time>
      </trkpt>
      <trkpt lat="45.10106" lon="2.97065">
        <ele>991</ele>
        <time>2024-05-08T16:49:48Z</time>
      </trkpt>
      <trkpt lat="45.10142" lon="2.96879">
        <ele>992</ele>
        <time>2024-05-08T16:50:19Z</time>
      </trkpt>
      <trkpt lat="45.1016" lon="2.96798">
        <ele>993</ele>
        <time>2024-05-08T16:50:33Z</time>
      </trkpt>
      <trkpt lat="45.10223" lon="2.9661">
        <ele>996</ele>
        <time>2024-05-08T16:51:08Z</time>
      </trkpt>
      <trkpt lat="45.10344" lon="2.96322">
        <ele>1005</ele>
        <time>2024-05-08T16:52:03Z</time>
      </trkpt>
      <trkpt lat="45.10353" lon="2.96296">
        <ele>1006</ele>
        <time>2024-05-08T16:52:08Z</time>
      </trkpt>
      <trkpt lat="45.10356" lon="2.96271">
        <ele>1006</ele>
        <time>2024-05-08T16:52:12Z</time>
      </trkpt>
      <trkpt lat="45.10354" lon="2.96231">
        <ele>1007</ele>
        <time>2024-05-08T16:52:19Z</time>
      </trkpt>
      <trkpt lat="45.1033" lon="2.96105">
        <ele>1007</ele>
        <time>2024-05-08T16:52:40Z</time>
      </trkpt>
      <trkpt lat="45.10319" lon="2.96005">
        <ele>1008</ele>
        <time>2024-05-08T16:52:57Z</time>
      </trkpt>
      <trkpt lat="45.10312" lon="2.95908">
        <ele>1010</ele>
        <time>2024-05-08T16:53:13Z</time>
      </trkpt>
      <trkpt lat="45.10305" lon="2.95876">
        <ele>1011</ele>
        <time>2024-05-08T16:53:18Z</time>
      </trkpt>
      <trkpt lat="45.10295" lon="2.95869">
        <ele>1011</ele>
        <time>2024-05-08T16:53:21Z</time>
      </trkpt>
      <trkpt lat="45.10286" lon="2.9587">
        <ele>1011</ele>
        <time>2024-05-08T16:53:23Z</time>
      </trkpt>
      <trkpt lat="45.10277" lon="2.95873">
        <ele>1010</ele>
        <time>2024-05-08T16:53:25Z</time>
      </trkpt>
      <trkpt lat="45.10249" lon="2.9589">
        <ele>1009</ele>
        <time>2024-05-08T16:53:32Z</time>
      </trkpt>
      <trkpt lat="45.10152" lon="2.95921">
        <ele>1003</ele>
        <time>2024-05-08T16:53:56Z</time>
      </trkpt>
      <trkpt lat="45.10108" lon="2.95939">
        <ele>1000</ele>
        <time>2024-05-08T16:54:06Z</time>
      </trkpt>
      <trkpt lat="45.10069" lon="2.95963">
        <ele>997</ele>
        <time>2024-05-08T16:54:16Z</time>
      </trkpt>
      <trkpt lat="45.1004" lon="2.95988">
        <ele>994</ele>
        <time>2024-05-08T16:54:24Z</time>
      </trkpt>
      <trkpt lat="45.10004" lon="2.96024">
        <ele>991</ele>
        <time>2024-05-08T16:54:34Z</time>
      </trkpt>
      <trkpt lat="45.09984" lon="2.96036">
        <ele>991</ele>
        <time>2024-05-08T16:54:40Z</time>
      </trkpt>
      <trkpt lat="45.09921" lon="2.96051">
        <ele>990</ele>
        <time>2024-05-08T16:54:54Z</time>
      </trkpt>
      <trkpt lat="45.09892" lon="2.96052">
        <ele>991</ele>
        <time>2024-05-08T16:55:01Z</time>
      </trkpt>
      <trkpt lat="45.09883" lon="2.96055">
        <ele>991</ele>
        <time>2024-05-08T16:55:03Z</time>
      </trkpt>
      <trkpt lat="45.09841" lon="2.96086">
        <ele>991</ele>
        <time>2024-05-08T16:55:14Z</time>
      </trkpt>
      <trkpt lat="45.09668" lon="2.96224">
        <ele>996</ele>
        <time>2024-05-08T16:56:01Z</time>
      </trkpt>
      <trkpt lat="45.09604" lon="2.9627">
        <ele>999</ele>
        <time>2024-05-08T16:56:18Z</time>
      </trkpt>
      <trkpt lat="45.09592" lon="2.96276">
        <ele>999</ele>
        <time>2024-05-08T16:56:21Z</time>
      </trkpt>
      <trkpt lat="45.09556" lon="2.96282">
        <ele>1000</ele>
        <time>2024-05-08T16:56:29Z</time>
      </trkpt>
      <trkpt lat="45.09511" lon="2.96283">
        <ele>1000</ele>
        <time>2024-05-08T16:56:39Z</time>
      </trkpt>
      <trkpt lat="45.09416" lon="2.96272">
        <ele>1003</ele>
        <time>2024-05-08T16:57:02Z</time>
      </trkpt>
      <trkpt lat="45.09333" lon="2.9627">
        <ele>1003</ele>
        <time>2024-05-08T16:57:21Z</time>
      </trkpt>
      <trkpt lat="45.09216" lon="2.96255">
        <ele>1006</ele>
        <time>2024-05-08T16:57:49Z</time>
      </trkpt>
      <trkpt lat="45.09126" lon="2.96248">
        <ele>1008</ele>
        <time>2024-05-08T16:58:10Z</time>
      </trkpt>
      <trkpt lat="45.09091" lon="2.96241">
        <ele>1009</ele>
        <time>2024-05-08T16:58:18Z</time>
      </trkpt>
      <trkpt lat="45.0906" lon="2.96233">
        <ele>1009</ele>
        <time>2024-05-08T16:58:25Z</time>
      </trkpt>
      <trkpt lat="45.08998" lon="2.9621">
        <ele>1010</ele>
        <time>2024-05-08T16:58:40Z</time>
      </trkpt>
      <trkpt lat="45.08929" lon="2.96172">
        <ele>1007</ele>
        <time>2024-05-08T16:58:57Z</time>
      </trkpt>
      <trkpt lat="45.08911" lon="2.96167">
        <ele>1007</ele>
        <time>2024-05-08T16:59:02Z</time>
      </trkpt>
      <trkpt lat="45.08871" lon="2.96163">
        <ele>1007</ele>
        <time>2024-05-08T16:59:11Z</time>
      </trkpt>
      <trkpt lat="45.08851" lon="2.96158">
        <ele>1007</ele>
        <time>2024-05-08T16:59:16Z</time>
      </trkpt>
      <trkpt lat="45.0879" lon="2.96124">
        <ele>1008</ele>
        <time>2024-05-08T16:59:31Z</time>
      </trkpt>
      <trkpt lat="45.08748" lon="2.96097">
        <ele>1008</ele>
        <time>2024-05-08T16:59:42Z</time>
      </trkpt>
      <trkpt lat="45.08735" lon="2.96092">
        <ele>1008</ele>
        <time>2024-05-08T16:59:45Z</time>
      </trkpt>
      <trkpt lat="45.08567" lon="2.96054">
        <ele>1005</ele>
        <time>2024-05-08T17:00:25Z</time>
      </trkpt>
      <trkpt lat="45.08507" lon="2.96047">
        <ele>1007</ele>
        <time>2024-05-08T17:00:39Z</time>
      </trkpt>
      <trkpt lat="45.08479" lon="2.96049">
        <ele>1006</ele>
        <time>2024-05-08T17:00:45Z</time>
      </trkpt>
      <trkpt lat="45.08408" lon="2.9602">
        <ele>1004</ele>
        <time>2024-05-08T17:01:03Z</time>
      </trkpt>
      <trkpt lat="45.08378" lon="2.96016">
        <ele>1002</ele>
        <time>2024-05-08T17:01:10Z</time>
      </trkpt>
      <trkpt lat="45.08372" lon="2.96004">
        <ele>1002</ele>
        <time>2024-05-08T17:01:12Z</time>
      </trkpt>
      <trkpt lat="45.0837" lon="2.9599">
        <ele>1002</ele>
        <time>2024-05-08T17:01:15Z</time>
      </trkpt>
      <trkpt lat="45.08367" lon="2.9585">
        <ele>999</ele>
        <time>2024-05-08T17:01:38Z</time>
      </trkpt>
      <trkpt lat="45.08373" lon="2.95767">
        <ele>999</ele>
        <time>2024-05-08T17:01:51Z</time>
      </trkpt>
      <trkpt lat="45.08386" lon="2.95665">
        <ele>999</ele>
        <time>2024-05-08T17:02:08Z</time>
      </trkpt>
      <trkpt lat="45.08368" lon="2.95489">
        <ele>1002</ele>
        <time>2024-05-08T17:02:38Z</time>
      </trkpt>
      <trkpt lat="45.08363" lon="2.95329">
        <ele>1004</ele>
        <time>2024-05-08T17:03:04Z</time>
      </trkpt>
      <trkpt lat="45.08367" lon="2.95309">
        <ele>1004</ele>
        <time>2024-05-08T17:03:08Z</time>
      </trkpt>
      <trkpt lat="45.08413" lon="2.95223">
        <ele>1006</ele>
        <time>2024-05-08T17:03:25Z</time>
      </trkpt>
      <trkpt lat="45.08462" lon="2.95103">
        <ele>1009</ele>
        <time>2024-05-08T17:03:48Z</time>
      </trkpt>
      <trkpt lat="45.08468" lon="2.95083">
        <ele>1009</ele>
        <time>2024-05-08T17:03:52Z</time>
      </trkpt>
      <trkpt lat="45.08472" lon="2.95057">
        <ele>1009</ele>
        <time>2024-05-08T17:03:56Z</time>
      </trkpt>
      <trkpt lat="45.08468" lon="2.95008">
        <ele>1010</ele>
        <time>2024-05-08T17:04:04Z</time>
      </trkpt>
      <trkpt lat="45.08471" lon="2.94924">
        <ele>1011</ele>
        <time>2024-05-08T17:04:18Z</time>
      </trkpt>
      <trkpt lat="45.08465" lon="2.94911">
        <ele>1011</ele>
        <time>2024-05-08T17:04:21Z</time>
      </trkpt>
      <trkpt lat="45.08451" lon="2.94898">
        <ele>1011</ele>
        <time>2024-05-08T17:04:25Z</time>
      </trkpt>
      <trkpt lat="45.08396" lon="2.94867">
        <ele>1010</ele>
        <time>2024-05-08T17:04:39Z</time>
      </trkpt>
      <trkpt lat="45.08385" lon="2.94857">
        <ele>1010</ele>
        <time>2024-05-08T17:04:42Z</time>
      </trkpt>
      <trkpt lat="45.08337" lon="2.94788">
        <ele>1012</ele>
        <time>2024-05-08T17:04:58Z</time>
      </trkpt>
      <trkpt lat="45.08319" lon="2.94754">
        <ele>1013</ele>
        <time>2024-05-08T17:05:05Z</time>
      </trkpt>
      <trkpt lat="45.08296" lon="2.9472">
        <ele>1013</ele>
        <time>2024-05-08T17:05:12Z</time>
      </trkpt>
      <trkpt lat="45.08289" lon="2.94658">
        <ele>1015</ele>
        <time>2024-05-08T17:05:23Z</time>
      </trkpt>
      <trkpt lat="45.0826" lon="2.94566">
        <ele>1016</ele>
        <time>2024-05-08T17:05:39Z</time>
      </trkpt>
      <trkpt lat="45.08238" lon="2.94438">
        <ele>1022</ele>
        <time>2024-05-08T17:06:01Z</time>
      </trkpt>
      <trkpt lat="45.08202" lon="2.9434">
        <ele>1026</ele>
        <time>2024-05-08T17:06:19Z</time>
      </trkpt>
      <trkpt lat="45.08202" lon="2.94324">
        <ele>1027</ele>
        <time>2024-05-08T17:06:22Z</time>
      </trkpt>
      <trkpt lat="45.08213" lon="2.94283">
        <ele>1029</ele>
        <time>2024-05-08T17:06:29Z</time>
      </trkpt>
      <trkpt lat="45.08213" lon="2.94276">
        <ele>1029</ele>
        <time>2024-05-08T17:06:30Z</time>
      </trkpt>
      <trkpt lat="45.08203" lon="2.94253">
        <ele>1030</ele>
        <time>2024-05-08T17:06:35Z</time>
      </trkpt>
      <trkpt lat="45.08188" lon="2.94234">
        <ele>1030</ele>
        <time>2024-05-08T17:06:39Z</time>
      </trkpt>
      <trkpt lat="45.08158" lon="2.94216">
        <ele>1029</ele>
        <time>2024-05-08T17:06:47Z</time>
      </trkpt>
      <trkpt lat="45.08138" lon="2.94195">
        <ele>1028</ele>
        <time>2024-05-08T17:06:53Z</time>
      </trkpt>
      <trkpt lat="45.08112" lon="2.94177">
        <ele>1027</ele>
        <time>2024-05-08T17:07:00Z</time>
      </trkpt>
      <trkpt lat="45.08068" lon="2.94161">
        <ele>1025</ele>
        <time>2024-05-08T17:07:10Z</time>
      </trkpt>
      <trkpt lat="45.08034" lon="2.94152">
        <ele>1023</ele>
        <time>2024-05-08T17:07:18Z</time>
      </trkpt>
      <trkpt lat="45.08015" lon="2.94141">
        <ele>1022</ele>
        <time>2024-05-08T17:07:23Z</time>
      </trkpt>
      <trkpt lat="45.08002" lon="2.94129">
        <ele>1021</ele>
        <time>2024-05-08T17:07:27Z</time>
      </trkpt>
      <trkpt lat="45.07979" lon="2.94125">
        <ele>1020</ele>
        <time>2024-05-08T17:07:32Z</time>
      </trkpt>
      <trkpt lat="45.07961" lon="2.94114">
        <ele>1020</ele>
        <time>2024-05-08T17:07:37Z</time>
      </trkpt>
      <trkpt lat="45.07949" lon="2.941">
        <ele>1019</ele>
        <time>2024-05-08T17:07:40Z</time>
      </trkpt>
      <trkpt lat="45.07907" lon="2.9401">
        <ele>1018</ele>
        <time>2024-05-08T17:07:58Z</time>
      </trkpt>
      <trkpt lat="45.07902" lon="2.93993">
        <ele>1017</ele>
        <time>2024-05-08T17:08:01Z</time>
      </trkpt>
      <trkpt lat="45.079" lon="2.93975">
        <ele>1018</ele>
        <time>2024-05-08T17:08:04Z</time>
      </trkpt>
      <trkpt lat="45.07905" lon="2.93918">
        <ele>1019</ele>
        <time>2024-05-08T17:08:14Z</time>
      </trkpt>
      <trkpt lat="45.07901" lon="2.93909">
        <ele>1018</ele>
        <time>2024-05-08T17:08:15Z</time>
      </trkpt>
      <trkpt lat="45.07882" lon="2.93886">
        <ele>1016</ele>
        <time>2024-05-08T17:08:21Z</time>
      </trkpt>
      <trkpt lat="45.07878" lon="2.93873">
        <ele>1015</ele>
        <time>2024-05-08T17:08:24Z</time>
      </trkpt>
      <trkpt lat="45.07879" lon="2.93841">
        <ele>1014</ele>
        <time>2024-05-08T17:08:29Z</time>
      </trkpt>
      <trkpt lat="45.07885" lon="2.9379">
        <ele>1012</ele>
        <time>2024-05-08T17:08:37Z</time>
      </trkpt>
      <trkpt lat="45.07881" lon="2.93769">
        <ele>1011</ele>
        <time>2024-05-08T17:08:41Z</time>
      </trkpt>
      <trkpt lat="45.07882" lon="2.93756">
        <ele>1010</ele>
        <time>2024-05-08T17:08:43Z</time>
      </trkpt>
      <trkpt lat="45.07889" lon="2.93745">
        <ele>1011</ele>
        <time>2024-05-08T17:08:46Z</time>
      </trkpt>
      <trkpt lat="45.07897" lon="2.93739">
        <ele>1011</ele>
        <time>2024-05-08T17:08:48Z</time>
      </trkpt>
      <trkpt lat="45.08047" lon="2.93677">
        <ele>1016</ele>
        <time>2024-05-08T17:09:24Z</time>
      </trkpt>
      <trkpt lat="45.08049" lon="2.93666">
        <ele>1016</ele>
        <time>2024-05-08T17:09:26Z</time>
      </trkpt>
      <trkpt lat="45.08033" lon="2.9362">
        <ele>1019</ele>
        <time>2024-05-08T17:09:34Z</time>
      </trkpt>
      <trkpt lat="45.08025" lon="2.93612">
        <ele>1020</ele>
        <time>2024-05-08T17:09:37Z</time>
      </trkpt>
      <trkpt lat="45.07995" lon="2.93612">
        <ele>1021</ele>
        <time>2024-05-08T17:09:44Z</time>
      </trkpt>
      <trkpt lat="45.07981" lon="2.93607">
        <ele>1021</ele>
        <time>2024-05-08T17:09:47Z</time>
      </trkpt>
      <trkpt lat="45.0796" lon="2.93595">
        <ele>1021</ele>
        <time>2024-05-08T17:09:52Z</time>
      </trkpt>
      <trkpt lat="45.07949" lon="2.9358">
        <ele>1022</ele>
        <time>2024-05-08T17:09:56Z</time>
      </trkpt>
      <trkpt lat="45.07938" lon="2.93539">
        <ele>1024</ele>
        <time>2024-05-08T17:10:03Z</time>
      </trkpt>
      <trkpt lat="45.0794" lon="2.93556">
        <ele>1023</ele>
        <time>2024-05-08T17:10:06Z</time>
      </trkpt>
      <trkpt lat="45.07939" lon="2.93532">
        <ele>1024</ele>
        <time>2024-05-08T17:10:10Z</time>
      </trkpt>
      <trkpt lat="45.07933" lon="2.93514">
        <ele>1025</ele>
        <time>2024-05-08T17:10:13Z</time>
      </trkpt>
      <trkpt lat="45.07925" lon="2.93499">
        <ele>1026</ele>
        <time>2024-05-08T17:10:16Z</time>
      </trkpt>
      <trkpt lat="45.0791" lon="2.93479">
        <ele>1026</ele>
        <time>2024-05-08T17:10:21Z</time>
      </trkpt>
      <trkpt lat="45.0788" lon="2.93456">
        <ele>1027</ele>
        <time>2024-05-08T17:10:29Z</time>
      </trkpt>
      <trkpt lat="45.07866" lon="2.93441">
        <ele>1027</ele>
        <time>2024-05-08T17:10:33Z</time>
      </trkpt>
      <trkpt lat="45.07859" lon="2.93427">
        <ele>1027</ele>
        <time>2024-05-08T17:10:36Z</time>
      </trkpt>
      <trkpt lat="45.07854" lon="2.93422">
        <ele>1028</ele>
        <time>2024-05-08T17:10:38Z</time>
      </trkpt>
      <trkpt lat="45.07762" lon="2.93361">
        <ele>1026</ele>
        <time>2024-05-08T17:11:01Z</time>
      </trkpt>
      <trkpt lat="45.07741" lon="2.9335">
        <ele>1025</ele>
        <time>2024-05-08T17:11:07Z</time>
      </trkpt>
      <trkpt lat="45.077" lon="2.93334">
        <ele>1024</ele>
        <time>2024-05-08T17:11:16Z</time>
      </trkpt>
      <trkpt lat="45.07671" lon="2.93328">
        <ele>1023</ele>
        <time>2024-05-08T17:11:23Z</time>
      </trkpt>
      <trkpt lat="45.07637" lon="2.9333">
        <ele>1022</ele>
        <time>2024-05-08T17:11:31Z</time>
      </trkpt>
      <trkpt lat="45.07601" lon="2.93341">
        <ele>1021</ele>
        <time>2024-05-08T17:11:40Z</time>
      </trkpt>
      <trkpt lat="45.07578" lon="2.93344">
        <ele>1020</ele>
        <time>2024-05-08T17:11:45Z</time>
      </trkpt>
      <trkpt lat="45.07553" lon="2.93341">
        <ele>1021</ele>
        <time>2024-05-08T17:11:51Z</time>
      </trkpt>
      <trkpt lat="45.07487" lon="2.93324">
        <ele>1021</ele>
        <time>2024-05-08T17:12:07Z</time>
      </trkpt>
      <trkpt lat="45.0734" lon="2.93314">
        <ele>1023</ele>
        <time>2024-05-08T17:12:41Z</time>
      </trkpt>
      <trkpt lat="45.07331" lon="2.93316">
        <ele>1023</ele>
        <time>2024-05-08T17:12:43Z</time>
      </trkpt>
      <trkpt lat="45.07313" lon="2.93323">
        <ele>1024</ele>
        <time>2024-05-08T17:12:48Z</time>
      </trkpt>
      <trkpt lat="45.07304" lon="2.93332">
        <ele>1025</ele>
        <time>2024-05-08T17:12:50Z</time>
      </trkpt>
      <trkpt lat="45.07262" lon="2.93409">
        <ele>1027</ele>
        <time>2024-05-08T17:13:06Z</time>
      </trkpt>
      <trkpt lat="45.07232" lon="2.93447">
        <ele>1029</ele>
        <time>2024-05-08T17:13:16Z</time>
      </trkpt>
      <trkpt lat="45.07186" lon="2.93497">
        <ele>1033</ele>
        <time>2024-05-08T17:13:29Z</time>
      </trkpt>
      <trkpt lat="45.07163" lon="2.93512">
        <ele>1035</ele>
        <time>2024-05-08T17:13:35Z</time>
      </trkpt>
      <trkpt lat="45.07099" lon="2.93535">
        <ele>1037</ele>
        <time>2024-05-08T17:13:50Z</time>
      </trkpt>
      <trkpt lat="45.07026" lon="2.93593">
        <ele>1039</ele>
        <time>2024-05-08T17:14:10Z</time>
      </trkpt>
      <trkpt lat="45.0699" lon="2.93613">
        <ele>1040</ele>
        <time>2024-05-08T17:14:19Z</time>
      </trkpt>
      <trkpt lat="45.06957" lon="2.93626">
        <ele>1039</ele>
        <time>2024-05-08T17:14:27Z</time>
      </trkpt>
      <trkpt lat="45.06905" lon="2.93651">
        <ele>1039</ele>
        <time>2024-05-08T17:14:40Z</time>
      </trkpt>
      <trkpt lat="45.06866" lon="2.9368">
        <ele>1038</ele>
        <time>2024-05-08T17:14:50Z</time>
      </trkpt>
      <trkpt lat="45.0686" lon="2.93678">
        <ele>1038</ele>
        <time>2024-05-08T17:14:52Z</time>
      </trkpt>
      <trkpt lat="45.06855" lon="2.93668">
        <ele>1039</ele>
        <time>2024-05-08T17:14:54Z</time>
      </trkpt>
      <trkpt lat="45.06808" lon="2.93467">
        <ele>1047</ele>
        <time>2024-05-08T17:15:29Z</time>
      </trkpt>
      <trkpt lat="45.06801" lon="2.93454">
        <ele>1048</ele>
        <time>2024-05-08T17:15:31Z</time>
      </trkpt>
      <trkpt lat="45.06792" lon="2.93453">
        <ele>1048</ele>
        <time>2024-05-08T17:15:33Z</time>
      </trkpt>
      <trkpt lat="45.0675" lon="2.93474">
        <ele>1049</ele>
        <time>2024-05-08T17:15:44Z</time>
      </trkpt>
      <trkpt lat="45.06747" lon="2.93478">
        <ele>1049</ele>
        <time>2024-05-08T17:15:45Z</time>
      </trkpt>
      <trkpt lat="45.06746" lon="2.93486">
        <ele>1049</ele>
        <time>2024-05-08T17:15:46Z</time>
      </trkpt>
      <trkpt lat="45.0677" lon="2.93611">
        <ele>1043</ele>
        <time>2024-05-08T17:16:07Z</time>
      </trkpt>
      <trkpt lat="45.06795" lon="2.9371">
        <ele>1037</ele>
        <time>2024-05-08T17:16:25Z</time>
      </trkpt>
      <trkpt lat="45.06813" lon="2.93793">
        <ele>1033</ele>
        <time>2024-05-08T17:16:39Z</time>
      </trkpt>
      <trkpt lat="45.06813" lon="2.93808">
        <ele>1033</ele>
        <time>2024-05-08T17:16:42Z</time>
      </trkpt>
      <trkpt lat="45.0681" lon="2.93814">
        <ele>1032</ele>
        <time>2024-05-08T17:16:43Z</time>
      </trkpt>
      <trkpt lat="45.06801" lon="2.93816">
        <ele>1032</ele>
        <time>2024-05-08T17:16:45Z</time>
      </trkpt>
      <trkpt lat="45.06784" lon="2.93808">
        <ele>1032</ele>
        <time>2024-05-08T17:16:49Z</time>
      </trkpt>
      <trkpt lat="45.06761" lon="2.93802">
        <ele>1033</ele>
        <time>2024-05-08T17:16:55Z</time>
      </trkpt>
      <trkpt lat="45.06724" lon="2.93796">
        <ele>1033</ele>
        <time>2024-05-08T17:17:03Z</time>
      </trkpt>
      <trkpt lat="45.06687" lon="2.93797">
        <ele>1034</ele>
        <time>2024-05-08T17:17:12Z</time>
      </trkpt>
      <trkpt lat="45.06528" lon="2.93812">
        <ele>1035</ele>
        <time>2024-05-08T17:17:49Z</time>
      </trkpt>
      <trkpt lat="45.06462" lon="2.93811">
        <ele>1034</ele>
        <time>2024-05-08T17:18:05Z</time>
      </trkpt>
      <trkpt lat="45.0645" lon="2.93805">
        <ele>1034</ele>
        <time>2024-05-08T17:18:08Z</time>
      </trkpt>
      <trkpt lat="45.06433" lon="2.93786">
        <ele>1034</ele>
        <time>2024-05-08T17:18:13Z</time>
      </trkpt>
      <trkpt lat="45.06429" lon="2.93786">
        <ele>1034</ele>
        <time>2024-05-08T17:18:13Z</time>
      </trkpt>
      <trkpt lat="45.06408" lon="2.93797">
        <ele>1033</ele>
        <time>2024-05-08T17:18:19Z</time>
      </trkpt>
      <trkpt lat="45.0636" lon="2.93809">
        <ele>1031</ele>
        <time>2024-05-08T17:18:30Z</time>
      </trkpt>
      <trkpt lat="45.06256" lon="2.93827">
        <ele>1025</ele>
        <time>2024-05-08T17:18:55Z</time>
      </trkpt>
      <trkpt lat="45.0617" lon="2.93817">
        <ele>1020</ele>
        <time>2024-05-08T17:19:15Z</time>
      </trkpt>
      <trkpt lat="45.06112" lon="2.93801">
        <ele>1019</ele>
        <time>2024-05-08T17:19:29Z</time>
      </trkpt>
      <trkpt lat="45.06076" lon="2.93773">
        <ele>1020</ele>
        <time>2024-05-08T17:19:38Z</time>
      </trkpt>
      <trkpt lat="45.06043" lon="2.93751">
        <ele>1024</ele>
        <time>2024-05-08T17:19:47Z</time>
      </trkpt>
      <trkpt lat="45.06028" lon="2.93746">
        <ele>1026</ele>
        <time>2024-05-08T17:19:50Z</time>
      </trkpt>
      <trkpt lat="45.05994" lon="2.93725">
        <ele>1030</ele>
        <time>2024-05-08T17:19:59Z</time>
      </trkpt>
      <trkpt lat="45.05981" lon="2.93712">
        <ele>1031</ele>
        <time>2024-05-08T17:20:03Z</time>
      </trkpt>
      <trkpt lat="45.05946" lon="2.93687">
        <ele>1034</ele>
        <time>2024-05-08T17:20:12Z</time>
      </trkpt>
      <trkpt lat="45.05906" lon="2.93652">
        <ele>1037</ele>
        <time>2024-05-08T17:20:23Z</time>
      </trkpt>
      <trkpt lat="45.05886" lon="2.9364">
        <ele>1038</ele>
        <time>2024-05-08T17:20:28Z</time>
      </trkpt>
      <trkpt lat="45.0579" lon="2.93602">
        <ele>1042</ele>
        <time>2024-05-08T17:20:51Z</time>
      </trkpt>
      <trkpt lat="45.05732" lon="2.93588">
        <ele>1043</ele>
        <time>2024-05-08T17:21:05Z</time>
      </trkpt>
      <trkpt lat="45.05705" lon="2.93578">
        <ele>1044</ele>
        <time>2024-05-08T17:21:11Z</time>
      </trkpt>
      <trkpt lat="45.05489" lon="2.93448">
        <ele>1058</ele>
        <time>2024-05-08T17:22:06Z</time>
      </trkpt>
      <trkpt lat="45.05473" lon="2.93447">
        <ele>1059</ele>
        <time>2024-05-08T17:22:10Z</time>
      </trkpt>
      <trkpt lat="45.05431" lon="2.93435">
        <ele>1060</ele>
        <time>2024-05-08T17:22:20Z</time>
      </trkpt>
      <trkpt lat="45.05421" lon="2.93424">
        <ele>1061</ele>
        <time>2024-05-08T17:22:23Z</time>
      </trkpt>
      <trkpt lat="45.05416" lon="2.93411">
        <ele>1061</ele>
        <time>2024-05-08T17:22:25Z</time>
      </trkpt>
      <trkpt lat="45.05415" lon="2.934">
        <ele>1061</ele>
        <time>2024-05-08T17:22:27Z</time>
      </trkpt>
      <trkpt lat="45.05411" lon="2.93393">
        <ele>1061</ele>
        <time>2024-05-08T17:22:29Z</time>
      </trkpt>
      <trkpt lat="45.0539" lon="2.93385">
        <ele>1062</ele>
        <time>2024-05-08T17:22:34Z</time>
      </trkpt>
      <trkpt lat="45.05368" lon="2.93371">
        <ele>1063</ele>
        <time>2024-05-08T17:22:39Z</time>
      </trkpt>
      <trkpt lat="45.05317" lon="2.93362">
        <ele>1064</ele>
        <time>2024-05-08T17:22:51Z</time>
      </trkpt>
      <trkpt lat="45.05285" lon="2.93363">
        <ele>1065</ele>
        <time>2024-05-08T17:22:59Z</time>
      </trkpt>
      <trkpt lat="45.05201" lon="2.93355">
        <ele>1066</ele>
        <time>2024-05-08T17:23:18Z</time>
      </trkpt>
      <trkpt lat="45.05175" lon="2.93356">
        <ele>1066</ele>
        <time>2024-05-08T17:23:25Z</time>
      </trkpt>
      <trkpt lat="45.05145" lon="2.93373">
        <ele>1066</ele>
        <time>2024-05-08T17:23:32Z</time>
      </trkpt>
      <trkpt lat="45.05099" lon="2.93389">
        <ele>1065</ele>
        <time>2024-05-08T17:23:43Z</time>
      </trkpt>
      <trkpt lat="45.05085" lon="2.93399">
        <ele>1065</ele>
        <time>2024-05-08T17:23:47Z</time>
      </trkpt>
      <trkpt lat="45.05061" lon="2.93423">
        <ele>1064</ele>
        <time>2024-05-08T17:23:54Z</time>
      </trkpt>
      <trkpt lat="45.05053" lon="2.93435">
        <ele>1063</ele>
        <time>2024-05-08T17:23:56Z</time>
      </trkpt>
      <trkpt lat="45.05043" lon="2.93464">
        <ele>1062</ele>
        <time>2024-05-08T17:24:02Z</time>
      </trkpt>
      <trkpt lat="45.05035" lon="2.93499">
        <ele>1060</ele>
        <time>2024-05-08T17:24:08Z</time>
      </trkpt>
      <trkpt lat="45.05049" lon="2.93572">
        <ele>1057</ele>
        <time>2024-05-08T17:24:20Z</time>
      </trkpt>
      <trkpt lat="45.0506" lon="2.93652">
        <ele>1054</ele>
        <time>2024-05-08T17:24:34Z</time>
      </trkpt>
      <trkpt lat="45.05077" lon="2.93736">
        <ele>1052</ele>
        <time>2024-05-08T17:24:48Z</time>
      </trkpt>
      <trkpt lat="45.05086" lon="2.93803">
        <ele>1049</ele>
        <time>2024-05-08T17:24:59Z</time>
      </trkpt>
      <trkpt lat="45.05092" lon="2.93818">
        <ele>1048</ele>
        <time>2024-05-08T17:25:02Z</time>
      </trkpt>
      <trkpt lat="45.05101" lon="2.93828">
        <ele>1047</ele>
        <time>2024-05-08T17:25:05Z</time>
      </trkpt>
      <trkpt lat="45.05113" lon="2.93835">
        <ele>1047</ele>
        <time>2024-05-08T17:25:08Z</time>
      </trkpt>
      <trkpt lat="45.05115" lon="2.93843">
        <ele>1047</ele>
        <time>2024-05-08T17:25:09Z</time>
      </trkpt>
      <trkpt lat="45.05077" lon="2.93926">
        <ele>1043</ele>
        <time>2024-05-08T17:25:26Z</time>
      </trkpt>
      <trkpt lat="45.0506" lon="2.9397">
        <ele>1041</ele>
        <time>2024-05-08T17:25:34Z</time>
      </trkpt>
      <trkpt lat="45.05037" lon="2.94064">
        <ele>1039</ele>
        <time>2024-05-08T17:25:50Z</time>
      </trkpt>
      <trkpt lat="45.04993" lon="2.9422">
        <ele>1038</ele>
        <time>2024-05-08T17:26:18Z</time>
      </trkpt>
      <trkpt lat="45.04987" lon="2.94254">
        <ele>1037</ele>
        <time>2024-05-08T17:26:24Z</time>
      </trkpt>
      <trkpt lat="45.04981" lon="2.94355">
        <ele>1037</ele>
        <time>2024-05-08T17:26:41Z</time>
      </trkpt>
      <trkpt lat="45.04974" lon="2.94425">
        <ele>1034</ele>
        <time>2024-05-08T17:26:52Z</time>
      </trkpt>
      <trkpt lat="45.04978" lon="2.945">
        <ele>1034</ele>
        <time>2024-05-08T17:27:05Z</time>
      </trkpt>
      <trkpt lat="45.04964" lon="2.94632">
        <ele>1030</ele>
        <time>2024-05-08T17:27:27Z</time>
      </trkpt>
      <trkpt lat="45.04963" lon="2.94712">
        <ele>1028</ele>
        <time>2024-05-08T17:27:40Z</time>
      </trkpt>
      <trkpt lat="45.04966" lon="2.94759">
        <ele>1027</ele>
        <time>2024-05-08T17:27:48Z</time>
      </trkpt>
      <trkpt lat="45.05003" lon="2.94951">
        <ele>1021</ele>
        <time>2024-05-08T17:28:20Z</time>
      </trkpt>
      <trkpt lat="45.05005" lon="2.9498">
        <ele>1020</ele>
        <time>2024-05-08T17:28:25Z</time>
      </trkpt>
      <trkpt lat="45.05003" lon="2.95008">
        <ele>1020</ele>
        <time>2024-05-08T17:28:30Z</time>
      </trkpt>
      <trkpt lat="45.04999" lon="2.95027">
        <ele>1019</ele>
        <time>2024-05-08T17:28:33Z</time>
      </trkpt>
      <trkpt lat="45.04985" lon="2.95075">
        <ele>1017</ele>
        <time>2024-05-08T17:28:42Z</time>
      </trkpt>
      <trkpt lat="45.04968" lon="2.95108">
        <ele>1015</ele>
        <time>2024-05-08T17:28:49Z</time>
      </trkpt>
      <trkpt lat="45.04965" lon="2.95138">
        <ele>1013</ele>
        <time>2024-05-08T17:28:54Z</time>
      </trkpt>
      <trkpt lat="45.04968" lon="2.95158">
        <ele>1013</ele>
        <time>2024-05-08T17:28:57Z</time>
      </trkpt>
      <trkpt lat="45.04977" lon="2.95187">
        <ele>1013</ele>
        <time>2024-05-08T17:29:02Z</time>
      </trkpt>
      <trkpt lat="45.04997" lon="2.95208">
        <ele>1013</ele>
        <time>2024-05-08T17:29:08Z</time>
      </trkpt>
      <trkpt lat="45.05007" lon="2.9523">
        <ele>1013</ele>
        <time>2024-05-08T17:29:12Z</time>
      </trkpt>
      <trkpt lat="45.05017" lon="2.95262">
        <ele>1012</ele>
        <time>2024-05-08T17:29:18Z</time>
      </trkpt>
      <trkpt lat="45.05022" lon="2.95289">
        <ele>1010</ele>
        <time>2024-05-08T17:29:23Z</time>
      </trkpt>
      <trkpt lat="45.05037" lon="2.95344">
        <ele>1008</ele>
        <time>2024-05-08T17:29:32Z</time>
      </trkpt>
      <trkpt lat="45.05053" lon="2.95388">
        <ele>1007</ele>
        <time>2024-05-08T17:29:41Z</time>
      </trkpt>
      <trkpt lat="45.05067" lon="2.95407">
        <ele>1006</ele>
        <time>2024-05-08T17:29:45Z</time>
      </trkpt>
      <trkpt lat="45.051" lon="2.95437">
        <ele>1005</ele>
        <time>2024-05-08T17:29:54Z</time>
      </trkpt>
      <trkpt lat="45.05173" lon="2.95521">
        <ele>1004</ele>
        <time>2024-05-08T17:30:16Z</time>
      </trkpt>
      <trkpt lat="45.05179" lon="2.95532">
        <ele>1004</ele>
        <time>2024-05-08T17:30:18Z</time>
      </trkpt>
      <trkpt lat="45.05181" lon="2.95549">
        <ele>1003</ele>
        <time>2024-05-08T17:30:21Z</time>
      </trkpt>
      <trkpt lat="45.05172" lon="2.95608">
        <ele>999</ele>
        <time>2024-05-08T17:30:31Z</time>
      </trkpt>
      <trkpt lat="45.05168" lon="2.95653">
        <ele>997</ele>
        <time>2024-05-08T17:30:39Z</time>
      </trkpt>
      <trkpt lat="45.05172" lon="2.95701">
        <ele>995</ele>
        <time>2024-05-08T17:30:47Z</time>
      </trkpt>
      <trkpt lat="45.05219" lon="2.9594">
        <ele>988</ele>
        <time>2024-05-08T17:31:28Z</time>
      </trkpt>
      <trkpt lat="45.05226" lon="2.95998">
        <ele>988</ele>
        <time>2024-05-08T17:31:37Z</time>
      </trkpt>
      <trkpt lat="45.05248" lon="2.96117">
        <ele>988</ele>
        <time>2024-05-08T17:31:58Z</time>
      </trkpt>
      <trkpt lat="45.0528" lon="2.96321">
        <ele>986</ele>
        <time>2024-05-08T17:32:32Z</time>
      </trkpt>
      <trkpt lat="45.053" lon="2.96397">
        <ele>985</ele>
        <time>2024-05-08T17:32:46Z</time>
      </trkpt>
      <trkpt lat="45.05302" lon="2.96441">
        <ele>985</ele>
        <time>2024-05-08T17:32:53Z</time>
      </trkpt>
      <trkpt lat="45.05299" lon="2.96471">
        <ele>985</ele>
        <time>2024-05-08T17:32:58Z</time>
      </trkpt>
      <trkpt lat="45.05289" lon="2.9651">
        <ele>985</ele>
        <time>2024-05-08T17:33:05Z</time>
      </trkpt>
      <trkpt lat="45.05268" lon="2.96546">
        <ele>983</ele>
        <time>2024-05-08T17:33:12Z</time>
      </trkpt>
      <trkpt lat="45.05242" lon="2.96583">
        <ele>980</ele>
        <time>2024-05-08T17:33:21Z</time>
      </trkpt>
      <trkpt lat="45.05234" lon="2.96618">
        <ele>979</ele>
        <time>2024-05-08T17:33:27Z</time>
      </trkpt>
      <trkpt lat="45.0523" lon="2.96651">
        <ele>978</ele>
        <time>2024-05-08T17:33:33Z</time>
      </trkpt>
      <trkpt lat="45.05231" lon="2.9666">
        <ele>978</ele>
        <time>2024-05-08T17:33:34Z</time>
      </trkpt>
      <trkpt lat="45.05193" lon="2.96774">
        <ele>978</ele>
        <time>2024-05-08T17:33:55Z</time>
      </trkpt>
      <trkpt lat="45.05183" lon="2.96784">
        <ele>978</ele>
        <time>2024-05-08T17:33:58Z</time>
      </trkpt>
      <trkpt lat="45.05136" lon="2.96848">
        <ele>977</ele>
        <time>2024-05-08T17:34:13Z</time>
      </trkpt>
      <trkpt lat="45.05095" lon="2.96894">
        <ele>977</ele>
        <time>2024-05-08T17:34:25Z</time>
      </trkpt>
      <trkpt lat="45.05082" lon="2.96906">
        <ele>977</ele>
        <time>2024-05-08T17:34:29Z</time>
      </trkpt>
      <trkpt lat="45.05052" lon="2.96925">
        <ele>977</ele>
        <time>2024-05-08T17:34:36Z</time>
      </trkpt>
      <trkpt lat="45.05045" lon="2.96932">
        <ele>977</ele>
        <time>2024-05-08T17:34:38Z</time>
      </trkpt>
      <trkpt lat="45.0502" lon="2.96979">
        <ele>977</ele>
        <time>2024-05-08T17:34:48Z</time>
      </trkpt>
      <trkpt lat="45.04992" lon="2.97042">
        <ele>978</ele>
        <time>2024-05-08T17:35:00Z</time>
      </trkpt>
      <trkpt lat="45.04975" lon="2.97089">
        <ele>978</ele>
        <time>2024-05-08T17:35:09Z</time>
      </trkpt>
      <trkpt lat="45.04957" lon="2.97125">
        <ele>978</ele>
        <time>2024-05-08T17:35:16Z</time>
      </trkpt>
      <trkpt lat="45.04927" lon="2.97208">
        <ele>977</ele>
        <time>2024-05-08T17:35:32Z</time>
      </trkpt>
      <trkpt lat="45.04869" lon="2.97452">
        <ele>976</ele>
        <time>2024-05-08T17:36:14Z</time>
      </trkpt>
      <trkpt lat="45.0486" lon="2.97482">
        <ele>976</ele>
        <time>2024-05-08T17:36:20Z</time>
      </trkpt>
      <trkpt lat="45.04845" lon="2.97571">
        <ele>974</ele>
        <time>2024-05-08T17:36:35Z</time>
      </trkpt>
      <trkpt lat="45.04843" lon="2.97593">
        <ele>974</ele>
        <time>2024-05-08T17:36:38Z</time>
      </trkpt>
      <trkpt lat="45.04845" lon="2.97798">
        <ele>973</ele>
        <time>2024-05-08T17:37:12Z</time>
      </trkpt>
      <trkpt lat="45.04854" lon="2.97926">
        <ele>974</ele>
        <time>2024-05-08T17:37:33Z</time>
      </trkpt>
      <trkpt lat="45.0486" lon="2.98063">
        <ele>972</ele>
        <time>2024-05-08T17:37:56Z</time>
      </trkpt>
      <trkpt lat="45.04858" lon="2.98128">
        <ele>972</ele>
        <time>2024-05-08T17:38:07Z</time>
      </trkpt>
      <trkpt lat="45.04861" lon="2.98205">
        <ele>971</ele>
        <time>2024-05-08T17:38:20Z</time>
      </trkpt>
      <trkpt lat="45.04857" lon="2.98365">
        <ele>972</ele>
        <time>2024-05-08T17:38:46Z</time>
      </trkpt>
      <trkpt lat="45.04863" lon="2.98501">
        <ele>970</ele>
        <time>2024-05-08T17:39:08Z</time>
      </trkpt>
      <trkpt lat="45.04863" lon="2.98537">
        <ele>970</ele>
        <time>2024-05-08T17:39:14Z</time>
      </trkpt>
      <trkpt lat="45.04853" lon="2.98661">
        <ele>971</ele>
        <time>2024-05-08T17:39:35Z</time>
      </trkpt>
      <trkpt lat="45.04848" lon="2.98683">
        <ele>970</ele>
        <time>2024-05-08T17:39:39Z</time>
      </trkpt>
      <trkpt lat="45.04847" lon="2.98763">
        <ele>969</ele>
        <time>2024-05-08T17:39:52Z</time>
      </trkpt>
      <trkpt lat="45.04851" lon="2.9879">
        <ele>969</ele>
        <time>2024-05-08T17:39:57Z</time>
      </trkpt>
      <trkpt lat="45.0485" lon="2.9881">
        <ele>968</ele>
        <time>2024-05-08T17:40:00Z</time>
      </trkpt>
      <trkpt lat="45.04853" lon="2.9885">
        <ele>968</ele>
        <time>2024-05-08T17:40:07Z</time>
      </trkpt>
      <trkpt lat="45.0486" lon="2.98909">
        <ele>968</ele>
        <time>2024-05-08T17:40:16Z</time>
      </trkpt>
      <trkpt lat="45.04861" lon="2.9895">
        <ele>968</ele>
        <time>2024-05-08T17:40:23Z</time>
      </trkpt>
      <trkpt lat="45.0487" lon="2.99056">
        <ele>967</ele>
        <time>2024-05-08T17:40:41Z</time>
      </trkpt>
      <trkpt lat="45.04876" lon="2.99166">
        <ele>967</ele>
        <time>2024-05-08T17:40:59Z</time>
      </trkpt>
      <trkpt lat="45.04882" lon="2.99231">
        <ele>969</ele>
        <time>2024-05-08T17:41:10Z</time>
      </trkpt>
      <trkpt lat="45.0489" lon="2.99278">
        <ele>969</ele>
        <time>2024-05-08T17:41:18Z</time>
      </trkpt>
      <trkpt lat="45.04892" lon="2.99334">
        <ele>967</ele>
        <time>2024-05-08T17:41:27Z</time>
      </trkpt>
      <trkpt lat="45.04901" lon="2.99432">
        <ele>969</ele>
        <time>2024-05-08T17:41:43Z</time>
      </trkpt>
      <trkpt lat="45.04901" lon="2.99452">
        <ele>969</ele>
        <time>2024-05-08T17:41:47Z</time>
      </trkpt>
      <trkpt lat="45.04895" lon="2.99515">
        <ele>967</ele>
        <time>2024-05-08T17:41:57Z</time>
      </trkpt>
      <trkpt lat="45.04889" lon="2.99546">
        <ele>966</ele>
        <time>2024-05-08T17:42:02Z</time>
      </trkpt>
      <trkpt lat="45.04875" lon="2.99586">
        <ele>965</ele>
        <time>2024-05-08T17:42:10Z</time>
      </trkpt>
      <trkpt lat="45.04852" lon="2.99622">
        <ele>963</ele>
        <time>2024-05-08T17:42:18Z</time>
      </trkpt>
      <trkpt lat="45.04847" lon="2.99645">
        <ele>962</ele>
        <time>2024-05-08T17:42:22Z</time>
      </trkpt>
      <trkpt lat="45.04845" lon="2.9968">
        <ele>960</ele>
        <time>2024-05-08T17:42:28Z</time>
      </trkpt>
      <trkpt lat="45.04848" lon="2.99703">
        <ele>959</ele>
        <time>2024-05-08T17:42:31Z</time>
      </trkpt>
      <trkpt lat="45.04865" lon="2.99763">
        <ele>958</ele>
        <time>2024-05-08T17:42:42Z</time>
      </trkpt>
      <trkpt lat="45.04864" lon="2.99769">
        <ele>958</ele>
        <time>2024-05-08T17:42:43Z</time>
      </trkpt>
      <trkpt lat="45.04856" lon="2.99775">
        <ele>957</ele>
        <time>2024-05-08T17:42:45Z</time>
      </trkpt>
      <trkpt lat="45.04847" lon="2.99772">
        <ele>956</ele>
        <time>2024-05-08T17:42:47Z</time>
      </trkpt>
      <trkpt lat="45.04825" lon="2.99773">
        <ele>955</ele>
        <time>2024-05-08T17:42:52Z</time>
      </trkpt>
      <trkpt lat="45.04813" lon="2.99778">
        <ele>955</ele>
        <time>2024-05-08T17:42:55Z</time>
      </trkpt>
      <trkpt lat="45.04808" lon="2.99794">
        <ele>955</ele>
        <time>2024-05-08T17:42:58Z</time>
      </trkpt>
      <trkpt lat="45.04804" lon="2.99864">
        <ele>956</ele>
        <time>2024-05-08T17:43:10Z</time>
      </trkpt>
      <trkpt lat="45.04801" lon="2.9987">
        <ele>956</ele>
        <time>2024-05-08T17:43:11Z</time>
      </trkpt>
      <trkpt lat="45.04797" lon="2.99871">
        <ele>957</ele>
        <time>2024-05-08T17:43:12Z</time>
      </trkpt>
      <trkpt lat="45.04782" lon="2.99861">
        <ele>959</ele>
        <time>2024-05-08T17:43:16Z</time>
      </trkpt>
      <trkpt lat="45.04776" lon="2.9986">
        <ele>960</ele>
        <time>2024-05-08T17:43:17Z</time>
      </trkpt>
      <trkpt lat="45.04767" lon="2.99872">
        <ele>961</ele>
        <time>2024-05-08T17:43:20Z</time>
      </trkpt>
      <trkpt lat="45.04758" lon="2.99891">
        <ele>963</ele>
        <time>2024-05-08T17:43:24Z</time>
      </trkpt>
      <trkpt lat="45.04759" lon="2.99895">
        <ele>963</ele>
        <time>2024-05-08T17:43:25Z</time>
      </trkpt>
      <trkpt lat="45.04772" lon="2.99861">
        <ele>960</ele>
        <time>2024-05-08T17:43:31Z</time>
      </trkpt>
      <trkpt lat="45.0478" lon="2.99859">
        <ele>959</ele>
        <time>2024-05-08T17:43:33Z</time>
      </trkpt>
      <trkpt lat="45.04798" lon="2.99872">
        <ele>957</ele>
        <time>2024-05-08T17:43:38Z</time>
      </trkpt>
      <trkpt lat="45.04803" lon="2.9987">
        <ele>956</ele>
        <time>2024-05-08T17:43:39Z</time>
      </trkpt>
      <trkpt lat="45.04806" lon="2.99865">
        <ele>956</ele>
        <time>2024-05-08T17:43:40Z</time>
      </trkpt>
      <trkpt lat="45.04808" lon="2.99845">
        <ele>955</ele>
        <time>2024-05-08T17:43:43Z</time>
      </trkpt>
      <trkpt lat="45.04812" lon="2.99846">
        <ele>955</ele>
        <time>2024-05-08T17:43:44Z</time>
      </trkpt>
      <trkpt lat="45.04826" lon="2.99944">
        <ele>954</ele>
        <time>2024-05-08T17:44:01Z</time>
      </trkpt>
      <trkpt lat="45.04859" lon="3.00017">
        <ele>952</ele>
        <time>2024-05-08T17:44:15Z</time>
      </trkpt>
      <trkpt lat="45.04886" lon="3.00097">
        <ele>951</ele>
        <time>2024-05-08T17:44:30Z</time>
      </trkpt>
      <trkpt lat="45.04896" lon="3.00113">
        <ele>950</ele>
        <time>2024-05-08T17:44:33Z</time>
      </trkpt>
      <trkpt lat="45.04909" lon="3.00123">
        <ele>948</ele>
        <time>2024-05-08T17:44:37Z</time>
      </trkpt>
      <trkpt lat="45.04916" lon="3.00138">
        <ele>947</ele>
        <time>2024-05-08T17:44:40Z</time>
      </trkpt>
      <trkpt lat="45.04929" lon="3.0018">
        <ele>948</ele>
        <time>2024-05-08T17:44:47Z</time>
      </trkpt>
      <trkpt lat="45.04951" lon="3.0027">
        <ele>948</ele>
        <time>2024-05-08T17:45:03Z</time>
      </trkpt>
      <trkpt lat="45.04956" lon="3.00299">
        <ele>947</ele>
        <time>2024-05-08T17:45:08Z</time>
      </trkpt>
      <trkpt lat="45.04956" lon="3.00331">
        <ele>947</ele>
        <time>2024-05-08T17:45:13Z</time>
      </trkpt>
      <trkpt lat="45.04931" lon="3.00389">
        <ele>950</ele>
        <time>2024-05-08T17:45:24Z</time>
      </trkpt>
      <trkpt lat="45.04927" lon="3.00435">
        <ele>948</ele>
        <time>2024-05-08T17:45:32Z</time>
      </trkpt>
      <trkpt lat="45.04924" lon="3.00444">
        <ele>948</ele>
        <time>2024-05-08T17:45:34Z</time>
      </trkpt>
      <trkpt lat="45.04916" lon="3.00452">
        <ele>949</ele>
        <time>2024-05-08T17:45:36Z</time>
      </trkpt>
      <trkpt lat="45.04894" lon="3.00457">
        <ele>953</ele>
        <time>2024-05-08T17:45:41Z</time>
      </trkpt>
      <trkpt lat="45.04877" lon="3.00512">
        <ele>954</ele>
        <time>2024-05-08T17:45:51Z</time>
      </trkpt>
      <trkpt lat="45.04872" lon="3.00543">
        <ele>953</ele>
        <time>2024-05-08T17:45:56Z</time>
      </trkpt>
      <trkpt lat="45.04871" lon="3.00571">
        <ele>952</ele>
        <time>2024-05-08T17:46:01Z</time>
      </trkpt>
      <trkpt lat="45.04875" lon="3.00597">
        <ele>950</ele>
        <time>2024-05-08T17:46:05Z</time>
      </trkpt>
      <trkpt lat="45.04882" lon="3.00617">
        <ele>948</ele>
        <time>2024-05-08T17:46:09Z</time>
      </trkpt>
      <trkpt lat="45.04902" lon="3.00635">
        <ele>943</ele>
        <time>2024-05-08T17:46:14Z</time>
      </trkpt>
      <trkpt lat="45.0491" lon="3.00652">
        <ele>941</ele>
        <time>2024-05-08T17:46:18Z</time>
      </trkpt>
      <trkpt lat="45.04912" lon="3.00715">
        <ele>936</ele>
        <time>2024-05-08T17:46:28Z</time>
      </trkpt>
      <trkpt lat="45.04909" lon="3.00771">
        <ele>932</ele>
        <time>2024-05-08T17:46:38Z</time>
      </trkpt>
      <trkpt lat="45.04905" lon="3.00795">
        <ele>929</ele>
        <time>2024-05-08T17:46:42Z</time>
      </trkpt>
      <trkpt lat="45.04892" lon="3.00841">
        <ele>925</ele>
        <time>2024-05-08T17:46:50Z</time>
      </trkpt>
      <trkpt lat="45.04892" lon="3.00858">
        <ele>922</ele>
        <time>2024-05-08T17:46:53Z</time>
      </trkpt>
      <trkpt lat="45.04916" lon="3.00894">
        <ele>915</ele>
        <time>2024-05-08T17:47:01Z</time>
      </trkpt>
      <trkpt lat="45.04923" lon="3.00911">
        <ele>912</ele>
        <time>2024-05-08T17:47:04Z</time>
      </trkpt>
      <trkpt lat="45.04926" lon="3.00911">
        <ele>912</ele>
        <time>2024-05-08T17:47:05Z</time>
      </trkpt>
      <trkpt lat="45.0493" lon="3.00899">
        <ele>912</ele>
        <time>2024-05-08T17:47:07Z</time>
      </trkpt>
      <trkpt lat="45.04947" lon="3.00873">
        <ele>913</ele>
        <time>2024-05-08T17:47:13Z</time>
      </trkpt>
      <trkpt lat="45.04972" lon="3.00844">
        <ele>911</ele>
        <time>2024-05-08T17:47:20Z</time>
      </trkpt>
      <trkpt lat="45.05003" lon="3.00816">
        <ele>907</ele>
        <time>2024-05-08T17:47:29Z</time>
      </trkpt>
      <trkpt lat="45.05013" lon="3.008">
        <ele>908</ele>
        <time>2024-05-08T17:47:32Z</time>
      </trkpt>
      <trkpt lat="45.05023" lon="3.00793">
        <ele>908</ele>
        <time>2024-05-08T17:47:35Z</time>
      </trkpt>
      <trkpt lat="45.05048" lon="3.00787">
        <ele>908</ele>
        <time>2024-05-08T17:47:41Z</time>
      </trkpt>
      <trkpt lat="45.05059" lon="3.00769">
        <ele>909</ele>
        <time>2024-05-08T17:47:45Z</time>
      </trkpt>
      <trkpt lat="45.0507" lon="3.00763">
        <ele>909</ele>
        <time>2024-05-08T17:47:48Z</time>
      </trkpt>
      <trkpt lat="45.05086" lon="3.00786">
        <ele>907</ele>
        <time>2024-05-08T17:47:53Z</time>
      </trkpt>
      <trkpt lat="45.05105" lon="3.008">
        <ele>909</ele>
        <time>2024-05-08T17:47:58Z</time>
      </trkpt>
      <trkpt lat="45.05124" lon="3.00838">
        <ele>907</ele>
        <time>2024-05-08T17:48:06Z</time>
      </trkpt>
      <trkpt lat="45.05176" lon="3.00886">
        <ele>903</ele>
        <time>2024-05-08T17:48:20Z</time>
      </trkpt>
      <trkpt lat="45.05225" lon="3.00924">
        <ele>899</ele>
        <time>2024-05-08T17:48:33Z</time>
      </trkpt>
      <trkpt lat="45.05237" lon="3.00944">
        <ele>897</ele>
        <time>2024-05-08T17:48:37Z</time>
      </trkpt>
      <trkpt lat="45.05245" lon="3.00984">
        <ele>891</ele>
        <time>2024-05-08T17:48:44Z</time>
      </trkpt>
      <trkpt lat="45.05246" lon="3.01028">
        <ele>887</ele>
        <time>2024-05-08T17:48:52Z</time>
      </trkpt>
      <trkpt lat="45.05229" lon="3.01128">
        <ele>884</ele>
        <time>2024-05-08T17:49:09Z</time>
      </trkpt>
      <trkpt lat="45.05233" lon="3.01148">
        <ele>884</ele>
        <time>2024-05-08T17:49:12Z</time>
      </trkpt>
      <trkpt lat="45.05252" lon="3.01193">
        <ele>887</ele>
        <time>2024-05-08T17:49:21Z</time>
      </trkpt>
      <trkpt lat="45.05254" lon="3.01207">
        <ele>888</ele>
        <time>2024-05-08T17:49:23Z</time>
      </trkpt>
      <trkpt lat="45.05253" lon="3.01224">
        <ele>890</ele>
        <time>2024-05-08T17:49:26Z</time>
      </trkpt>
      <trkpt lat="45.05248" lon="3.01244">
        <ele>890</ele>
        <time>2024-05-08T17:49:29Z</time>
      </trkpt>
      <trkpt lat="45.0521" lon="3.01306">
        <ele>894</ele>
        <time>2024-05-08T17:49:43Z</time>
      </trkpt>
      <trkpt lat="45.05199" lon="3.01339">
        <ele>896</ele>
        <time>2024-05-08T17:49:49Z</time>
      </trkpt>
      <trkpt lat="45.05192" lon="3.01369">
        <ele>897</ele>
        <time>2024-05-08T17:49:54Z</time>
      </trkpt>
      <trkpt lat="45.05188" lon="3.01414">
        <ele>900</ele>
        <time>2024-05-08T17:50:02Z</time>
      </trkpt>
      <trkpt lat="45.05169" lon="3.01475">
        <ele>897</ele>
        <time>2024-05-08T17:50:13Z</time>
      </trkpt>
      <trkpt lat="45.05161" lon="3.01509">
        <ele>897</ele>
        <time>2024-05-08T17:50:18Z</time>
      </trkpt>
      <trkpt lat="45.05161" lon="3.01536">
        <ele>897</ele>
        <time>2024-05-08T17:50:23Z</time>
      </trkpt>
      <trkpt lat="45.05162" lon="3.0154">
        <ele>898</ele>
        <time>2024-05-08T17:50:24Z</time>
      </trkpt>
      <trkpt lat="45.05165" lon="3.0154">
        <ele>898</ele>
        <time>2024-05-08T17:50:24Z</time>
      </trkpt>
      <trkpt lat="45.05163" lon="3.01526">
        <ele>898</ele>
        <time>2024-05-08T17:50:27Z</time>
      </trkpt>
      <trkpt lat="45.05164" lon="3.01509">
        <ele>898</ele>
        <time>2024-05-08T17:50:30Z</time>
      </trkpt>
      <trkpt lat="45.0517" lon="3.01482">
        <ele>898</ele>
        <time>2024-05-08T17:50:34Z</time>
      </trkpt>
      <trkpt lat="45.05187" lon="3.01427">
        <ele>900</ele>
        <time>2024-05-08T17:50:44Z</time>
      </trkpt>
      <trkpt lat="45.05185" lon="3.0142">
        <ele>899</ele>
        <time>2024-05-08T17:50:45Z</time>
      </trkpt>
      <trkpt lat="45.05168" lon="3.01447">
        <ele>895</ele>
        <time>2024-05-08T17:50:51Z</time>
      </trkpt>
      <trkpt lat="45.05156" lon="3.01457">
        <ele>894</ele>
        <time>2024-05-08T17:50:55Z</time>
      </trkpt>
      <trkpt lat="45.05144" lon="3.01461">
        <ele>892</ele>
        <time>2024-05-08T17:50:57Z</time>
      </trkpt>
      <trkpt lat="45.05117" lon="3.01464">
        <ele>887</ele>
        <time>2024-05-08T17:51:04Z</time>
      </trkpt>
      <trkpt lat="45.05099" lon="3.01474">
        <ele>884</ele>
        <time>2024-05-08T17:51:08Z</time>
      </trkpt>
      <trkpt lat="45.05075" lon="3.01481">
        <ele>881</ele>
        <time>2024-05-08T17:51:14Z</time>
      </trkpt>
      <trkpt lat="45.05064" lon="3.0148">
        <ele>880</ele>
        <time>2024-05-08T17:51:17Z</time>
      </trkpt>
      <trkpt lat="45.05046" lon="3.01472">
        <ele>879</ele>
        <time>2024-05-08T17:51:21Z</time>
      </trkpt>
      <trkpt lat="45.0502" lon="3.01477">
        <ele>877</ele>
        <time>2024-05-08T17:51:27Z</time>
      </trkpt>
      <trkpt lat="45.05019" lon="3.01483">
        <ele>877</ele>
        <time>2024-05-08T17:51:28Z</time>
      </trkpt>
      <trkpt lat="45.04995" lon="3.01512">
        <ele>876</ele>
        <time>2024-05-08T17:51:35Z</time>
      </trkpt>
      <trkpt lat="45.04986" lon="3.01518">
        <ele>877</ele>
        <time>2024-05-08T17:51:38Z</time>
      </trkpt>
      <trkpt lat="45.04967" lon="3.01524">
        <ele>878</ele>
        <time>2024-05-08T17:51:42Z</time>
      </trkpt>
      <trkpt lat="45.04944" lon="3.01543">
        <ele>880</ele>
        <time>2024-05-08T17:51:49Z</time>
      </trkpt>
      <trkpt lat="45.04937" lon="3.01559">
        <ele>881</ele>
        <time>2024-05-08T17:51:52Z</time>
      </trkpt>
      <trkpt lat="45.04935" lon="3.01575">
        <ele>881</ele>
        <time>2024-05-08T17:51:54Z</time>
      </trkpt>
      <trkpt lat="45.04928" lon="3.01586">
        <ele>882</ele>
        <time>2024-05-08T17:51:57Z</time>
      </trkpt>
      <trkpt lat="45.04895" lon="3.01604">
        <ele>885</ele>
        <time>2024-05-08T17:52:05Z</time>
      </trkpt>
      <trkpt lat="45.04889" lon="3.01622">
        <ele>885</ele>
        <time>2024-05-08T17:52:08Z</time>
      </trkpt>
      <trkpt lat="45.04888" lon="3.01651">
        <ele>884</ele>
        <time>2024-05-08T17:52:13Z</time>
      </trkpt>
      <trkpt lat="45.04883" lon="3.01671">
        <ele>883</ele>
        <time>2024-05-08T17:52:17Z</time>
      </trkpt>
      <trkpt lat="45.04868" lon="3.01704">
        <ele>883</ele>
        <time>2024-05-08T17:52:23Z</time>
      </trkpt>
      <trkpt lat="45.0485" lon="3.01729">
        <ele>884</ele>
        <time>2024-05-08T17:52:29Z</time>
      </trkpt>
      <trkpt lat="45.04848" lon="3.01736">
        <ele>884</ele>
        <time>2024-05-08T17:52:30Z</time>
      </trkpt>
      <trkpt lat="45.04849" lon="3.01751">
        <ele>883</ele>
        <time>2024-05-08T17:52:33Z</time>
      </trkpt>
      <trkpt lat="45.04853" lon="3.0176">
        <ele>882</ele>
        <time>2024-05-08T17:52:34Z</time>
      </trkpt>
      <trkpt lat="45.04866" lon="3.01775">
        <ele>880</ele>
        <time>2024-05-08T17:52:38Z</time>
      </trkpt>
      <trkpt lat="45.04868" lon="3.01784">
        <ele>879</ele>
        <time>2024-05-08T17:52:40Z</time>
      </trkpt>
      <trkpt lat="45.04863" lon="3.01822">
        <ele>877</ele>
        <time>2024-05-08T17:52:46Z</time>
      </trkpt>
      <trkpt lat="45.04849" lon="3.01852">
        <ele>878</ele>
        <time>2024-05-08T17:52:52Z</time>
      </trkpt>
      <trkpt lat="45.04847" lon="3.01861">
        <ele>878</ele>
        <time>2024-05-08T17:52:54Z</time>
      </trkpt>
      <trkpt lat="45.04851" lon="3.01912">
        <ele>878</ele>
        <time>2024-05-08T17:53:02Z</time>
      </trkpt>
      <trkpt lat="45.04844" lon="3.01939">
        <ele>881</ele>
        <time>2024-05-08T17:53:07Z</time>
      </trkpt>
      <trkpt lat="45.04841" lon="3.01967">
        <ele>884</ele>
        <time>2024-05-08T17:53:12Z</time>
      </trkpt>
      <trkpt lat="45.04844" lon="3.02007">
        <ele>887</ele>
        <time>2024-05-08T17:53:18Z</time>
      </trkpt>
      <trkpt lat="45.04841" lon="3.02055">
        <ele>890</ele>
        <time>2024-05-08T17:53:26Z</time>
      </trkpt>
      <trkpt lat="45.04842" lon="3.02115">
        <ele>892</ele>
        <time>2024-05-08T17:53:36Z</time>
      </trkpt>
      <trkpt lat="45.04864" lon="3.02204">
        <ele>893</ele>
        <time>2024-05-08T17:53:52Z</time>
      </trkpt>
      <trkpt lat="45.04873" lon="3.02216">
        <ele>892</ele>
        <time>2024-05-08T17:53:55Z</time>
      </trkpt>
      <trkpt lat="45.04892" lon="3.02221">
        <ele>891</ele>
        <time>2024-05-08T17:53:59Z</time>
      </trkpt>
      <trkpt lat="45.04901" lon="3.02237">
        <ele>890</ele>
        <time>2024-05-08T17:54:03Z</time>
      </trkpt>
      <trkpt lat="45.04902" lon="3.02266">
        <ele>891</ele>
        <time>2024-05-08T17:54:07Z</time>
      </trkpt>
      <trkpt lat="45.04909" lon="3.02295">
        <ele>891</ele>
        <time>2024-05-08T17:54:12Z</time>
      </trkpt>
      <trkpt lat="45.0491" lon="3.02334">
        <ele>891</ele>
        <time>2024-05-08T17:54:19Z</time>
      </trkpt>
      <trkpt lat="45.04918" lon="3.02382">
        <ele>889</ele>
        <time>2024-05-08T17:54:27Z</time>
      </trkpt>
      <trkpt lat="45.04917" lon="3.02409">
        <ele>889</ele>
        <time>2024-05-08T17:54:31Z</time>
      </trkpt>
      <trkpt lat="45.04907" lon="3.02448">
        <ele>892</ele>
        <time>2024-05-08T17:54:38Z</time>
      </trkpt>
      <trkpt lat="45.04902" lon="3.02496">
        <ele>893</ele>
        <time>2024-05-08T17:54:46Z</time>
      </trkpt>
      <trkpt lat="45.04902" lon="3.02519">
        <ele>893</ele>
        <time>2024-05-08T17:54:50Z</time>
      </trkpt>
      <trkpt lat="45.04907" lon="3.02551">
        <ele>891</ele>
        <time>2024-05-08T17:54:55Z</time>
      </trkpt>
      <trkpt lat="45.04926" lon="3.0261">
        <ele>886</ele>
        <time>2024-05-08T17:55:06Z</time>
      </trkpt>
      <trkpt lat="45.04932" lon="3.02651">
        <ele>886</ele>
        <time>2024-05-08T17:55:13Z</time>
      </trkpt>
      <trkpt lat="45.04936" lon="3.02749">
        <ele>882</ele>
        <time>2024-05-08T17:55:29Z</time>
      </trkpt>
      <trkpt lat="45.04945" lon="3.02771">
        <ele>878</ele>
        <time>2024-05-08T17:55:33Z</time>
      </trkpt>
      <trkpt lat="45.04941" lon="3.02851">
        <ele>874</ele>
        <time>2024-05-08T17:55:47Z</time>
      </trkpt>
      <trkpt lat="45.04933" lon="3.02924">
        <ele>872</ele>
        <time>2024-05-08T17:55:59Z</time>
      </trkpt>
      <trkpt lat="45.04936" lon="3.02933">
        <ele>871</ele>
        <time>2024-05-08T17:56:01Z</time>
      </trkpt>
      <trkpt lat="45.04955" lon="3.02946">
        <ele>865</ele>
        <time>2024-05-08T17:56:05Z</time>
      </trkpt>
      <trkpt lat="45.05002" lon="3.02991">
        <ele>852</ele>
        <time>2024-05-08T17:56:19Z</time>
      </trkpt>
      <trkpt lat="45.05016" lon="3.03015">
        <ele>850</ele>
        <time>2024-05-08T17:56:24Z</time>
      </trkpt>
      <trkpt lat="45.05032" lon="3.03069">
        <ele>847</ele>
        <time>2024-05-08T17:56:34Z</time>
      </trkpt>
      <trkpt lat="45.05038" lon="3.03081">
        <ele>846</ele>
        <time>2024-05-08T17:56:36Z</time>
      </trkpt>
      <trkpt lat="45.05044" lon="3.03116">
        <ele>844</ele>
        <time>2024-05-08T17:56:42Z</time>
      </trkpt>
      <trkpt lat="45.05043" lon="3.03132">
        <ele>844</ele>
        <time>2024-05-08T17:56:45Z</time>
      </trkpt>
      <trkpt lat="45.05025" lon="3.0318">
        <ele>846</ele>
        <time>2024-05-08T17:56:53Z</time>
      </trkpt>
      <trkpt lat="45.05023" lon="3.03196">
        <ele>846</ele>
        <time>2024-05-08T17:56:56Z</time>
      </trkpt>
      <trkpt lat="45.05028" lon="3.03253">
        <ele>844</ele>
        <time>2024-05-08T17:57:06Z</time>
      </trkpt>
      <trkpt lat="45.05035" lon="3.03277">
        <ele>843</ele>
        <time>2024-05-08T17:57:10Z</time>
      </trkpt>
      <trkpt lat="45.05064" lon="3.03313">
        <ele>839</ele>
        <time>2024-05-08T17:57:19Z</time>
      </trkpt>
      <trkpt lat="45.05081" lon="3.03341">
        <ele>837</ele>
        <time>2024-05-08T17:57:25Z</time>
      </trkpt>
      <trkpt lat="45.05097" lon="3.03386">
        <ele>836</ele>
        <time>2024-05-08T17:57:33Z</time>
      </trkpt>
      <trkpt lat="45.05096" lon="3.03392">
        <ele>836</ele>
        <time>2024-05-08T17:57:34Z</time>
      </trkpt>
      <trkpt lat="45.05089" lon="3.03402">
        <ele>837</ele>
        <time>2024-05-08T17:57:37Z</time>
      </trkpt>
      <trkpt lat="45.05071" lon="3.03441">
        <ele>838</ele>
        <time>2024-05-08T17:57:44Z</time>
      </trkpt>
      <trkpt lat="45.05062" lon="3.03467">
        <ele>839</ele>
        <time>2024-05-08T17:57:49Z</time>
      </trkpt>
      <trkpt lat="45.05056" lon="3.03495">
        <ele>839</ele>
        <time>2024-05-08T17:57:54Z</time>
      </trkpt>
      <trkpt lat="45.05046" lon="3.03622">
        <ele>837</ele>
        <time>2024-05-08T17:58:15Z</time>
      </trkpt>
      <trkpt lat="45.05047" lon="3.03638">
        <ele>836</ele>
        <time>2024-05-08T17:58:18Z</time>
      </trkpt>
      <trkpt lat="45.05064" lon="3.03681">
        <ele>833</ele>
        <time>2024-05-08T17:58:26Z</time>
      </trkpt>
      <trkpt lat="45.05069" lon="3.03704">
        <ele>832</ele>
        <time>2024-05-08T17:58:30Z</time>
      </trkpt>
      <trkpt lat="45.05069" lon="3.03816">
        <ele>829</ele>
        <time>2024-05-08T17:58:48Z</time>
      </trkpt>
      <trkpt lat="45.05073" lon="3.03822">
        <ele>828</ele>
        <time>2024-05-08T17:58:50Z</time>
      </trkpt>
      <trkpt lat="45.05088" lon="3.03822">
        <ele>826</ele>
        <time>2024-05-08T17:58:53Z</time>
      </trkpt>
      <trkpt lat="45.05098" lon="3.03828">
        <ele>826</ele>
        <time>2024-05-08T17:58:56Z</time>
      </trkpt>
      <trkpt lat="45.05135" lon="3.03876">
        <ele>824</ele>
        <time>2024-05-08T17:59:07Z</time>
      </trkpt>
      <trkpt lat="45.05139" lon="3.03887">
        <ele>824</ele>
        <time>2024-05-08T17:59:09Z</time>
      </trkpt>
      <trkpt lat="45.0514" lon="3.03904">
        <ele>823</ele>
        <time>2024-05-08T17:59:12Z</time>
      </trkpt>
      <trkpt lat="45.05143" lon="3.03909">
        <ele>823</ele>
        <time>2024-05-08T17:59:13Z</time>
      </trkpt>
      <trkpt lat="45.05165" lon="3.03901">
        <ele>823</ele>
        <time>2024-05-08T17:59:19Z</time>
      </trkpt>
      <trkpt lat="45.05173" lon="3.03893">
        <ele>824</ele>
        <time>2024-05-08T17:59:21Z</time>
      </trkpt>
      <trkpt lat="45.05189" lon="3.03888">
        <ele>825</ele>
        <time>2024-05-08T17:59:25Z</time>
      </trkpt>
      <trkpt lat="45.05197" lon="3.03892">
        <ele>825</ele>
        <time>2024-05-08T17:59:27Z</time>
      </trkpt>
      <trkpt lat="45.05209" lon="3.03912">
        <ele>826</ele>
        <time>2024-05-08T17:59:31Z</time>
      </trkpt>
      <trkpt lat="45.05204" lon="3.03908">
        <ele>825</ele>
        <time>2024-05-08T17:59:32Z</time>
      </trkpt>
      <trkpt lat="45.05203" lon="3.03901">
        <ele>826</ele>
        <time>2024-05-08T17:59:34Z</time>
      </trkpt>
      <trkpt lat="45.05197" lon="3.03899">
        <ele>825</ele>
        <time>2024-05-08T17:59:35Z</time>
      </trkpt>
      <trkpt lat="45.05192" lon="3.03892">
        <ele>825</ele>
        <time>2024-05-08T17:59:37Z</time>
      </trkpt>
      <trkpt lat="45.05186" lon="3.0389">
        <ele>825</ele>
        <time>2024-05-08T17:59:38Z</time>
      </trkpt>
      <trkpt lat="45.05179" lon="3.03892">
        <ele>824</ele>
        <time>2024-05-08T17:59:40Z</time>
      </trkpt>
      <trkpt lat="45.05167" lon="3.03901">
        <ele>823</ele>
        <time>2024-05-08T17:59:43Z</time>
      </trkpt>
      <trkpt lat="45.05155" lon="3.03905">
        <ele>823</ele>
        <time>2024-05-08T17:59:46Z</time>
      </trkpt>
      <trkpt lat="45.05139" lon="3.03921">
        <ele>823</ele>
        <time>2024-05-08T17:59:50Z</time>
      </trkpt>
      <trkpt lat="45.05133" lon="3.03971">
        <ele>822</ele>
        <time>2024-05-08T17:59:59Z</time>
      </trkpt>
      <trkpt lat="45.05115" lon="3.04052">
        <ele>821</ele>
        <time>2024-05-08T18:00:13Z</time>
      </trkpt>
      <trkpt lat="45.05112" lon="3.0408">
        <ele>821</ele>
        <time>2024-05-08T18:00:17Z</time>
      </trkpt>
      <trkpt lat="45.05113" lon="3.04084">
        <ele>821</ele>
        <time>2024-05-08T18:00:18Z</time>
      </trkpt>
      <trkpt lat="45.05118" lon="3.04085">
        <ele>821</ele>
        <time>2024-05-08T18:00:19Z</time>
      </trkpt>
      <trkpt lat="45.05114" lon="3.04071">
        <ele>821</ele>
        <time>2024-05-08T18:00:22Z</time>
      </trkpt>
      <trkpt lat="45.05116" lon="3.04053">
        <ele>821</ele>
        <time>2024-05-08T18:00:25Z</time>
      </trkpt>
      <trkpt lat="45.05113" lon="3.04048">
        <ele>821</ele>
        <time>2024-05-08T18:00:26Z</time>
      </trkpt>
      <trkpt lat="45.05058" lon="3.04019">
        <ele>822</ele>
        <time>2024-05-08T18:00:40Z</time>
      </trkpt>
      <trkpt lat="45.05048" lon="3.04017">
        <ele>822</ele>
        <time>2024-05-08T18:00:42Z</time>
      </trkpt>
      <trkpt lat="45.05036" lon="3.0402">
        <ele>823</ele>
        <time>2024-05-08T18:00:45Z</time>
      </trkpt>
      <trkpt lat="45.04991" lon="3.04049">
        <ele>827</ele>
        <time>2024-05-08T18:00:56Z</time>
      </trkpt>
      <trkpt lat="45.04954" lon="3.04078">
        <ele>835</ele>
        <time>2024-05-08T18:01:06Z</time>
      </trkpt>
      <trkpt lat="45.04941" lon="3.04085">
        <ele>837</ele>
        <time>2024-05-08T18:01:09Z</time>
      </trkpt>
      <trkpt lat="45.04917" lon="3.04112">
        <ele>842</ele>
        <time>2024-05-08T18:01:17Z</time>
      </trkpt>
      <trkpt lat="45.04893" lon="3.04127">
        <ele>845</ele>
        <time>2024-05-08T18:01:23Z</time>
      </trkpt>
      <trkpt lat="45.04879" lon="3.04139">
        <ele>847</ele>
        <time>2024-05-08T18:01:27Z</time>
      </trkpt>
      <trkpt lat="45.04869" lon="3.04156">
        <ele>849</ele>
        <time>2024-05-08T18:01:30Z</time>
      </trkpt>
      <trkpt lat="45.04863" lon="3.04181">
        <ele>849</ele>
        <time>2024-05-08T18:01:35Z</time>
      </trkpt>
      <trkpt lat="45.04859" lon="3.04216">
        <ele>848</ele>
        <time>2024-05-08T18:01:40Z</time>
      </trkpt>
      <trkpt lat="45.04849" lon="3.04236">
        <ele>848</ele>
        <time>2024-05-08T18:01:45Z</time>
      </trkpt>
      <trkpt lat="45.04842" lon="3.04238">
        <ele>849</ele>
        <time>2024-05-08T18:01:46Z</time>
      </trkpt>
      <trkpt lat="45.04835" lon="3.04235">
        <ele>850</ele>
        <time>2024-05-08T18:01:48Z</time>
      </trkpt>
      <trkpt lat="45.04803" lon="3.04199">
        <ele>857</ele>
        <time>2024-05-08T18:01:57Z</time>
      </trkpt>
      <trkpt lat="45.04796" lon="3.04197">
        <ele>858</ele>
        <time>2024-05-08T18:01:59Z</time>
      </trkpt>
      <trkpt lat="45.04792" lon="3.04199">
        <ele>858</ele>
        <time>2024-05-08T18:02:00Z</time>
      </trkpt>
      <trkpt lat="45.04784" lon="3.04213">
        <ele>858</ele>
        <time>2024-05-08T18:02:03Z</time>
      </trkpt>
      <trkpt lat="45.04768" lon="3.04267">
        <ele>856</ele>
        <time>2024-05-08T18:02:13Z</time>
      </trkpt>
      <trkpt lat="45.0475" lon="3.043">
        <ele>856</ele>
        <time>2024-05-08T18:02:20Z</time>
      </trkpt>
      <trkpt lat="45.04705" lon="3.04354">
        <ele>859</ele>
        <time>2024-05-08T18:02:33Z</time>
      </trkpt>
      <trkpt lat="45.04679" lon="3.04374">
        <ele>861</ele>
        <time>2024-05-08T18:02:40Z</time>
      </trkpt>
      <trkpt lat="45.04669" lon="3.04385">
        <ele>861</ele>
        <time>2024-05-08T18:02:43Z</time>
      </trkpt>
      <trkpt lat="45.04655" lon="3.04405">
        <ele>861</ele>
        <time>2024-05-08T18:02:48Z</time>
      </trkpt>
      <trkpt lat="45.04648" lon="3.04427">
        <ele>860</ele>
        <time>2024-05-08T18:02:52Z</time>
      </trkpt>
      <trkpt lat="45.04642" lon="3.04482">
        <ele>860</ele>
        <time>2024-05-08T18:03:01Z</time>
      </trkpt>
      <trkpt lat="45.04634" lon="3.04514">
        <ele>860</ele>
        <time>2024-05-08T18:03:07Z</time>
      </trkpt>
      <trkpt lat="45.04637" lon="3.04528">
        <ele>860</ele>
        <time>2024-05-08T18:03:09Z</time>
      </trkpt>
      <trkpt lat="45.04661" lon="3.04583">
        <ele>858</ele>
        <time>2024-05-08T18:03:20Z</time>
      </trkpt>
      <trkpt lat="45.04665" lon="3.04596">
        <ele>858</ele>
        <time>2024-05-08T18:03:22Z</time>
      </trkpt>
      <trkpt lat="45.04665" lon="3.04612">
        <ele>857</ele>
        <time>2024-05-08T18:03:25Z</time>
      </trkpt>
      <trkpt lat="45.0466" lon="3.04627">
        <ele>857</ele>
        <time>2024-05-08T18:03:27Z</time>
      </trkpt>
      <trkpt lat="45.04655" lon="3.04633">
        <ele>856</ele>
        <time>2024-05-08T18:03:29Z</time>
      </trkpt>
      <trkpt lat="45.04623" lon="3.04654">
        <ele>856</ele>
        <time>2024-05-08T18:03:37Z</time>
      </trkpt>
      <trkpt lat="45.04619" lon="3.0466">
        <ele>856</ele>
        <time>2024-05-08T18:03:39Z</time>
      </trkpt>
      <trkpt lat="45.04618" lon="3.04672">
        <ele>855</ele>
        <time>2024-05-08T18:03:41Z</time>
      </trkpt>
      <trkpt lat="45.0462" lon="3.04682">
        <ele>855</ele>
        <time>2024-05-08T18:03:42Z</time>
      </trkpt>
      <trkpt lat="45.04637" lon="3.04712">
        <ele>854</ele>
        <time>2024-05-08T18:03:49Z</time>
      </trkpt>
      <trkpt lat="45.04643" lon="3.04712">
        <ele>854</ele>
        <time>2024-05-08T18:03:50Z</time>
      </trkpt>
      <trkpt lat="45.0465" lon="3.04704">
        <ele>854</ele>
        <time>2024-05-08T18:03:52Z</time>
      </trkpt>
      <trkpt lat="45.0469" lon="3.04688">
        <ele>853</ele>
        <time>2024-05-08T18:04:02Z</time>
      </trkpt>
      <trkpt lat="45.04702" lon="3.04698">
        <ele>852</ele>
        <time>2024-05-08T18:04:05Z</time>
      </trkpt>
      <trkpt lat="45.0471" lon="3.0472">
        <ele>851</ele>
        <time>2024-05-08T18:04:09Z</time>
      </trkpt>
      <trkpt lat="45.04717" lon="3.04749">
        <ele>850</ele>
        <time>2024-05-08T18:04:14Z</time>
      </trkpt>
      <trkpt lat="45.04718" lon="3.04765">
        <ele>850</ele>
        <time>2024-05-08T18:04:17Z</time>
      </trkpt>
      <trkpt lat="45.04704" lon="3.0486">
        <ele>848</ele>
        <time>2024-05-08T18:04:33Z</time>
      </trkpt>
      <trkpt lat="45.04697" lon="3.04891">
        <ele>847</ele>
        <time>2024-05-08T18:04:38Z</time>
      </trkpt>
      <trkpt lat="45.04691" lon="3.04902">
        <ele>846</ele>
        <time>2024-05-08T18:04:41Z</time>
      </trkpt>
      <trkpt lat="45.04691" lon="3.04907">
        <ele>846</ele>
        <time>2024-05-08T18:04:41Z</time>
      </trkpt>
      <trkpt lat="45.04699" lon="3.04916">
        <ele>846</ele>
        <time>2024-05-08T18:04:44Z</time>
      </trkpt>
      <trkpt lat="45.04705" lon="3.04918">
        <ele>846</ele>
        <time>2024-05-08T18:04:45Z</time>
      </trkpt>
      <trkpt lat="45.04715" lon="3.04927">
        <ele>846</ele>
        <time>2024-05-08T18:04:48Z</time>
      </trkpt>
      <trkpt lat="45.04731" lon="3.04932">
        <ele>846</ele>
        <time>2024-05-08T18:04:52Z</time>
      </trkpt>
      <trkpt lat="45.04744" lon="3.04929">
        <ele>846</ele>
        <time>2024-05-08T18:04:55Z</time>
      </trkpt>
      <trkpt lat="45.04752" lon="3.0493">
        <ele>846</ele>
        <time>2024-05-08T18:04:57Z</time>
      </trkpt>
      <trkpt lat="45.04762" lon="3.04936">
        <ele>846</ele>
        <time>2024-05-08T18:04:59Z</time>
      </trkpt>
      <trkpt lat="45.04795" lon="3.04947">
        <ele>845</ele>
        <time>2024-05-08T18:05:07Z</time>
      </trkpt>
      <trkpt lat="45.04841" lon="3.04974">
        <ele>844</ele>
        <time>2024-05-08T18:05:19Z</time>
      </trkpt>
      <trkpt lat="45.04854" lon="3.04984">
        <ele>843</ele>
        <time>2024-05-08T18:05:22Z</time>
      </trkpt>
      <trkpt lat="45.04892" lon="3.05027">
        <ele>842</ele>
        <time>2024-05-08T18:05:34Z</time>
      </trkpt>
      <trkpt lat="45.04908" lon="3.05041">
        <ele>842</ele>
        <time>2024-05-08T18:05:38Z</time>
      </trkpt>
      <trkpt lat="45.04924" lon="3.05051">
        <ele>841</ele>
        <time>2024-05-08T18:05:42Z</time>
      </trkpt>
      <trkpt lat="45.04931" lon="3.05059">
        <ele>841</ele>
        <time>2024-05-08T18:05:44Z</time>
      </trkpt>
      <trkpt lat="45.04951" lon="3.05091">
        <ele>838</ele>
        <time>2024-05-08T18:05:51Z</time>
      </trkpt>
      <trkpt lat="45.04994" lon="3.05147">
        <ele>832</ele>
        <time>2024-05-08T18:06:05Z</time>
      </trkpt>
      <trkpt lat="45.05035" lon="3.05189">
        <ele>827</ele>
        <time>2024-05-08T18:06:17Z</time>
      </trkpt>
      <trkpt lat="45.05056" lon="3.05219">
        <ele>825</ele>
        <time>2024-05-08T18:06:24Z</time>
      </trkpt>
      <trkpt lat="45.05093" lon="3.0531">
        <ele>821</ele>
        <time>2024-05-08T18:06:41Z</time>
      </trkpt>
      <trkpt lat="45.05101" lon="3.05352">
        <ele>821</ele>
        <time>2024-05-08T18:06:48Z</time>
      </trkpt>
      <trkpt lat="45.05106" lon="3.05363">
        <ele>821</ele>
        <time>2024-05-08T18:06:50Z</time>
      </trkpt>
      <trkpt lat="45.05115" lon="3.05368">
        <ele>821</ele>
        <time>2024-05-08T18:06:53Z</time>
      </trkpt>
      <trkpt lat="45.05135" lon="3.05368">
        <ele>819</ele>
        <time>2024-05-08T18:06:57Z</time>
      </trkpt>
      <trkpt lat="45.05154" lon="3.0535">
        <ele>818</ele>
        <time>2024-05-08T18:07:03Z</time>
      </trkpt>
      <trkpt lat="45.0516" lon="3.0535">
        <ele>817</ele>
        <time>2024-05-08T18:07:04Z</time>
      </trkpt>
      <trkpt lat="45.05154" lon="3.05363">
        <ele>818</ele>
        <time>2024-05-08T18:07:07Z</time>
      </trkpt>
      <trkpt lat="45.05165" lon="3.05389">
        <ele>817</ele>
        <time>2024-05-08T18:07:12Z</time>
      </trkpt>
      <trkpt lat="45.05175" lon="3.05426">
        <ele>817</ele>
        <time>2024-05-08T18:07:18Z</time>
      </trkpt>
      <trkpt lat="45.0519" lon="3.05466">
        <ele>818</ele>
        <time>2024-05-08T18:07:26Z</time>
      </trkpt>
      <trkpt lat="45.05255" lon="3.05587">
        <ele>821</ele>
        <time>2024-05-08T18:07:51Z</time>
      </trkpt>
      <trkpt lat="45.05278" lon="3.05636">
        <ele>819</ele>
        <time>2024-05-08T18:08:00Z</time>
      </trkpt>
      <trkpt lat="45.05285" lon="3.05637">
        <ele>819</ele>
        <time>2024-05-08T18:08:02Z</time>
      </trkpt>
      <trkpt lat="45.05298" lon="3.05627">
        <ele>817</ele>
        <time>2024-05-08T18:08:05Z</time>
      </trkpt>
      <trkpt lat="45.05306" lon="3.05625">
        <ele>816</ele>
        <time>2024-05-08T18:08:07Z</time>
      </trkpt>
      <trkpt lat="45.05313" lon="3.05629">
        <ele>816</ele>
        <time>2024-05-08T18:08:09Z</time>
      </trkpt>
      <trkpt lat="45.05339" lon="3.05663">
        <ele>813</ele>
        <time>2024-05-08T18:08:17Z</time>
      </trkpt>
      <trkpt lat="45.05352" lon="3.05673">
        <ele>812</ele>
        <time>2024-05-08T18:08:21Z</time>
      </trkpt>
      <trkpt lat="45.05368" lon="3.05677">
        <ele>811</ele>
        <time>2024-05-08T18:08:25Z</time>
      </trkpt>
      <trkpt lat="45.05385" lon="3.05675">
        <ele>810</ele>
        <time>2024-05-08T18:08:29Z</time>
      </trkpt>
      <trkpt lat="45.05417" lon="3.05679">
        <ele>807</ele>
        <time>2024-05-08T18:08:36Z</time>
      </trkpt>
      <trkpt lat="45.05424" lon="3.05678">
        <ele>807</ele>
        <time>2024-05-08T18:08:38Z</time>
      </trkpt>
      <trkpt lat="45.05435" lon="3.05671">
        <ele>806</ele>
        <time>2024-05-08T18:08:41Z</time>
      </trkpt>
      <trkpt lat="45.05454" lon="3.05636">
        <ele>806</ele>
        <time>2024-05-08T18:08:48Z</time>
      </trkpt>
      <trkpt lat="45.05464" lon="3.05629">
        <ele>805</ele>
        <time>2024-05-08T18:08:50Z</time>
      </trkpt>
      <trkpt lat="45.0547" lon="3.05627">
        <ele>805</ele>
        <time>2024-05-08T18:08:52Z</time>
      </trkpt>
      <trkpt lat="45.05527" lon="3.05634">
        <ele>802</ele>
        <time>2024-05-08T18:09:05Z</time>
      </trkpt>
      <trkpt lat="45.05539" lon="3.0564">
        <ele>802</ele>
        <time>2024-05-08T18:09:08Z</time>
      </trkpt>
      <trkpt lat="45.05544" lon="3.05646">
        <ele>802</ele>
        <time>2024-05-08T18:09:10Z</time>
      </trkpt>
      <trkpt lat="45.05562" lon="3.05683">
        <ele>801</ele>
        <time>2024-05-08T18:09:17Z</time>
      </trkpt>
      <trkpt lat="45.05583" lon="3.05716">
        <ele>800</ele>
        <time>2024-05-08T18:09:25Z</time>
      </trkpt>
      <trkpt lat="45.05586" lon="3.05717">
        <ele>800</ele>
        <time>2024-05-08T18:09:25Z</time>
      </trkpt>
      <trkpt lat="45.05593" lon="3.05713">
        <ele>800</ele>
        <time>2024-05-08T18:09:27Z</time>
      </trkpt>
      <trkpt lat="45.05599" lon="3.05693">
        <ele>800</ele>
        <time>2024-05-08T18:09:31Z</time>
      </trkpt>
      <trkpt lat="45.05594" lon="3.05702">
        <ele>800</ele>
        <time>2024-05-08T18:09:32Z</time>
      </trkpt>
      <trkpt lat="45.0559" lon="3.05719">
        <ele>800</ele>
        <time>2024-05-08T18:09:35Z</time>
      </trkpt>
      <trkpt lat="45.05591" lon="3.05728">
        <ele>800</ele>
        <time>2024-05-08T18:09:37Z</time>
      </trkpt>
      <trkpt lat="45.05612" lon="3.05779">
        <ele>799</ele>
        <time>2024-05-08T18:09:47Z</time>
      </trkpt>
      <trkpt lat="45.05653" lon="3.05857">
        <ele>799</ele>
        <time>2024-05-08T18:10:03Z</time>
      </trkpt>
      <trkpt lat="45.05672" lon="3.059">
        <ele>799</ele>
        <time>2024-05-08T18:10:11Z</time>
      </trkpt>
      <trkpt lat="45.057" lon="3.06052">
        <ele>799</ele>
        <time>2024-05-08T18:10:37Z</time>
      </trkpt>
      <trkpt lat="45.05706" lon="3.06061">
        <ele>800</ele>
        <time>2024-05-08T18:10:39Z</time>
      </trkpt>
      <trkpt lat="45.05713" lon="3.06061">
        <ele>800</ele>
        <time>2024-05-08T18:10:41Z</time>
      </trkpt>
      <trkpt lat="45.05747" lon="3.0604">
        <ele>800</ele>
        <time>2024-05-08T18:10:49Z</time>
      </trkpt>
      <trkpt lat="45.05831" lon="3.05929">
        <ele>807</ele>
        <time>2024-05-08T18:11:16Z</time>
      </trkpt>
      <trkpt lat="45.0584" lon="3.05911">
        <ele>809</ele>
        <time>2024-05-08T18:11:20Z</time>
      </trkpt>
      <trkpt lat="45.05846" lon="3.05884">
        <ele>810</ele>
        <time>2024-05-08T18:11:24Z</time>
      </trkpt>
      <trkpt lat="45.05851" lon="3.05784">
        <ele>812</ele>
        <time>2024-05-08T18:11:41Z</time>
      </trkpt>
      <trkpt lat="45.05857" lon="3.05777">
        <ele>813</ele>
        <time>2024-05-08T18:11:43Z</time>
      </trkpt>
      <trkpt lat="45.05861" lon="3.05778">
        <ele>814</ele>
        <time>2024-05-08T18:11:44Z</time>
      </trkpt>
      <trkpt lat="45.05876" lon="3.05807">
        <ele>818</ele>
        <time>2024-05-08T18:11:50Z</time>
      </trkpt>
      <trkpt lat="45.05892" lon="3.05876">
        <ele>823</ele>
        <time>2024-05-08T18:12:02Z</time>
      </trkpt>
      <trkpt lat="45.05923" lon="3.0596">
        <ele>832</ele>
        <time>2024-05-08T18:12:17Z</time>
      </trkpt>
      <trkpt lat="45.05927" lon="3.05979">
        <ele>833</ele>
        <time>2024-05-08T18:12:21Z</time>
      </trkpt>
      <trkpt lat="45.05924" lon="3.06013">
        <ele>834</ele>
        <time>2024-05-08T18:12:26Z</time>
      </trkpt>
      <trkpt lat="45.05926" lon="3.06023">
        <ele>835</ele>
        <time>2024-05-08T18:12:28Z</time>
      </trkpt>
      <trkpt lat="45.05947" lon="3.06063">
        <ele>842</ele>
        <time>2024-05-08T18:12:36Z</time>
      </trkpt>
      <trkpt lat="45.05951" lon="3.0608">
        <ele>844</ele>
        <time>2024-05-08T18:12:39Z</time>
      </trkpt>
      <trkpt lat="45.0595" lon="3.06098">
        <ele>844</ele>
        <time>2024-05-08T18:12:42Z</time>
      </trkpt>
      <trkpt lat="45.05944" lon="3.0612">
        <ele>843</ele>
        <time>2024-05-08T18:12:46Z</time>
      </trkpt>
      <trkpt lat="45.05945" lon="3.0613">
        <ele>844</ele>
        <time>2024-05-08T18:12:48Z</time>
      </trkpt>
      <trkpt lat="45.05952" lon="3.06143">
        <ele>846</ele>
        <time>2024-05-08T18:12:50Z</time>
      </trkpt>
      <trkpt lat="45.05965" lon="3.06156">
        <ele>849</ele>
        <time>2024-05-08T18:12:54Z</time>
      </trkpt>
      <trkpt lat="45.05971" lon="3.06201">
        <ele>850</ele>
        <time>2024-05-08T18:13:02Z</time>
      </trkpt>
      <trkpt lat="45.05979" lon="3.06221">
        <ele>852</ele>
        <time>2024-05-08T18:13:05Z</time>
      </trkpt>
      <trkpt lat="45.05983" lon="3.06225">
        <ele>852</ele>
        <time>2024-05-08T18:13:07Z</time>
      </trkpt>
      <trkpt lat="45.06" lon="3.0623">
        <ele>856</ele>
        <time>2024-05-08T18:13:11Z</time>
      </trkpt>
      <trkpt lat="45.06026" lon="3.06231">
        <ele>860</ele>
        <time>2024-05-08T18:13:17Z</time>
      </trkpt>
      <trkpt lat="45.06032" lon="3.06228">
        <ele>861</ele>
        <time>2024-05-08T18:13:18Z</time>
      </trkpt>
      <trkpt lat="45.06036" lon="3.06222">
        <ele>861</ele>
        <time>2024-05-08T18:13:20Z</time>
      </trkpt>
      <trkpt lat="45.0604" lon="3.06206">
        <ele>862</ele>
        <time>2024-05-08T18:13:22Z</time>
      </trkpt>
      <trkpt lat="45.06043" lon="3.06188">
        <ele>862</ele>
        <time>2024-05-08T18:13:25Z</time>
      </trkpt>
      <trkpt lat="45.06042" lon="3.06175">
        <ele>862</ele>
        <time>2024-05-08T18:13:28Z</time>
      </trkpt>
      <trkpt lat="45.06043" lon="3.06186">
        <ele>862</ele>
        <time>2024-05-08T18:13:29Z</time>
      </trkpt>
      <trkpt lat="45.06037" lon="3.06201">
        <ele>861</ele>
        <time>2024-05-08T18:13:32Z</time>
      </trkpt>
      <trkpt lat="45.06051" lon="3.06233">
        <ele>863</ele>
        <time>2024-05-08T18:13:38Z</time>
      </trkpt>
      <trkpt lat="45.06055" lon="3.06235">
        <ele>864</ele>
        <time>2024-05-08T18:13:39Z</time>
      </trkpt>
      <trkpt lat="45.06068" lon="3.06237">
        <ele>866</ele>
        <time>2024-05-08T18:13:43Z</time>
      </trkpt>
      <trkpt lat="45.06074" lon="3.06235">
        <ele>866</ele>
        <time>2024-05-08T18:13:44Z</time>
      </trkpt>
      <trkpt lat="45.06089" lon="3.06225">
        <ele>869</ele>
        <time>2024-05-08T18:13:48Z</time>
      </trkpt>
      <trkpt lat="45.0611" lon="3.06203">
        <ele>874</ele>
        <time>2024-05-08T18:13:54Z</time>
      </trkpt>
      <trkpt lat="45.06115" lon="3.06201">
        <ele>876</ele>
        <time>2024-05-08T18:13:55Z</time>
      </trkpt>
      <trkpt lat="45.06122" lon="3.06204">
        <ele>877</ele>
        <time>2024-05-08T18:13:57Z</time>
      </trkpt>
      <trkpt lat="45.06128" lon="3.06211">
        <ele>879</ele>
        <time>2024-05-08T18:13:59Z</time>
      </trkpt>
      <trkpt lat="45.06127" lon="3.06254">
        <ele>882</ele>
        <time>2024-05-08T18:14:06Z</time>
      </trkpt>
      <trkpt lat="45.06118" lon="3.06305">
        <ele>883</ele>
        <time>2024-05-08T18:14:14Z</time>
      </trkpt>
      <trkpt lat="45.06113" lon="3.06356">
        <ele>885</ele>
        <time>2024-05-08T18:14:23Z</time>
      </trkpt>
      <trkpt lat="45.06111" lon="3.06429">
        <ele>890</ele>
        <time>2024-05-08T18:14:35Z</time>
      </trkpt>
      <trkpt lat="45.06105" lon="3.06507">
        <ele>891</ele>
        <time>2024-05-08T18:14:48Z</time>
      </trkpt>
      <trkpt lat="45.06107" lon="3.06535">
        <ele>891</ele>
        <time>2024-05-08T18:14:53Z</time>
      </trkpt>
      <trkpt lat="45.06111" lon="3.06553">
        <ele>893</ele>
        <time>2024-05-08T18:14:56Z</time>
      </trkpt>
      <trkpt lat="45.0612" lon="3.06577">
        <ele>896</ele>
        <time>2024-05-08T18:15:00Z</time>
      </trkpt>
      <trkpt lat="45.0613" lon="3.06616">
        <ele>898</ele>
        <time>2024-05-08T18:15:07Z</time>
      </trkpt>
      <trkpt lat="45.06137" lon="3.06672">
        <ele>897</ele>
        <time>2024-05-08T18:15:16Z</time>
      </trkpt>
      <trkpt lat="45.06142" lon="3.0669">
        <ele>898</ele>
        <time>2024-05-08T18:15:20Z</time>
      </trkpt>
      <trkpt lat="45.06151" lon="3.06705">
        <ele>900</ele>
        <time>2024-05-08T18:15:23Z</time>
      </trkpt>
      <trkpt lat="45.06159" lon="3.06703">
        <ele>902</ele>
        <time>2024-05-08T18:15:25Z</time>
      </trkpt>
      <trkpt lat="45.06177" lon="3.06707">
        <ele>905</ele>
        <time>2024-05-08T18:15:29Z</time>
      </trkpt>
      <trkpt lat="45.06196" lon="3.06702">
        <ele>907</ele>
        <time>2024-05-08T18:15:33Z</time>
      </trkpt>
      <trkpt lat="45.0622" lon="3.06691">
        <ele>911</ele>
        <time>2024-05-08T18:15:39Z</time>
      </trkpt>
      <trkpt lat="45.06259" lon="3.06679">
        <ele>916</ele>
        <time>2024-05-08T18:15:49Z</time>
      </trkpt>
      <trkpt lat="45.06299" lon="3.06654">
        <ele>923</ele>
        <time>2024-05-08T18:15:59Z</time>
      </trkpt>
      <trkpt lat="45.06324" lon="3.06648">
        <ele>926</ele>
        <time>2024-05-08T18:16:05Z</time>
      </trkpt>
      <trkpt lat="45.0633" lon="3.06649">
        <ele>927</ele>
        <time>2024-05-08T18:16:06Z</time>
      </trkpt>
      <trkpt lat="45.06346" lon="3.06644">
        <ele>928</ele>
        <time>2024-05-08T18:16:10Z</time>
      </trkpt>
      <trkpt lat="45.06351" lon="3.06645">
        <ele>928</ele>
        <time>2024-05-08T18:16:11Z</time>
      </trkpt>
      <trkpt lat="45.06364" lon="3.0664">
        <ele>929</ele>
        <time>2024-05-08T18:16:14Z</time>
      </trkpt>
      <trkpt lat="45.0639" lon="3.06622">
        <ele>934</ele>
        <time>2024-05-08T18:16:21Z</time>
      </trkpt>
      <trkpt lat="45.06421" lon="3.06584">
        <ele>943</ele>
        <time>2024-05-08T18:16:31Z</time>
      </trkpt>
      <trkpt lat="45.06449" lon="3.06556">
        <ele>944</ele>
        <time>2024-05-08T18:16:39Z</time>
      </trkpt>
      <trkpt lat="45.06462" lon="3.06551">
        <ele>944</ele>
        <time>2024-05-08T18:16:42Z</time>
      </trkpt>
      <trkpt lat="45.06559" lon="3.06479">
        <ele>950</ele>
        <time>2024-05-08T18:17:07Z</time>
      </trkpt>
      <trkpt lat="45.06598" lon="3.06456">
        <ele>953</ele>
        <time>2024-05-08T18:17:17Z</time>
      </trkpt>
      <trkpt lat="45.0663" lon="3.06442">
        <ele>956</ele>
        <time>2024-05-08T18:17:25Z</time>
      </trkpt>
      <trkpt lat="45.06656" lon="3.06433">
        <ele>957</ele>
        <time>2024-05-08T18:17:31Z</time>
      </trkpt>
      <trkpt lat="45.06674" lon="3.06431">
        <ele>958</ele>
        <time>2024-05-08T18:17:36Z</time>
      </trkpt>
      <trkpt lat="45.06742" lon="3.06458">
        <ele>959</ele>
        <time>2024-05-08T18:17:52Z</time>
      </trkpt>
      <trkpt lat="45.06799" lon="3.06469">
        <ele>959</ele>
        <time>2024-05-08T18:18:06Z</time>
      </trkpt>
      <trkpt lat="45.06841" lon="3.06473">
        <ele>959</ele>
        <time>2024-05-08T18:18:15Z</time>
      </trkpt>
      <trkpt lat="45.06915" lon="3.06486">
        <ele>959</ele>
        <time>2024-05-08T18:18:33Z</time>
      </trkpt>
      <trkpt lat="45.07001" lon="3.06506">
        <ele>959</ele>
        <time>2024-05-08T18:18:53Z</time>
      </trkpt>
      <trkpt lat="45.07015" lon="3.06503">
        <ele>959</ele>
        <time>2024-05-08T18:18:56Z</time>
      </trkpt>
      <trkpt lat="45.0704" lon="3.06489">
        <ele>958</ele>
        <time>2024-05-08T18:19:03Z</time>
      </trkpt>
      <trkpt lat="45.07046" lon="3.06489">
        <ele>958</ele>
        <time>2024-05-08T18:19:04Z</time>
      </trkpt>
      <trkpt lat="45.07124" lon="3.06577">
        <ele>957</ele>
        <time>2024-05-08T18:19:27Z</time>
      </trkpt>
      <trkpt lat="45.07134" lon="3.06585">
        <ele>958</ele>
        <time>2024-05-08T18:19:30Z</time>
      </trkpt>
      <trkpt lat="45.07145" lon="3.0659">
        <ele>958</ele>
        <time>2024-05-08T18:19:33Z</time>
      </trkpt>
      <trkpt lat="45.07177" lon="3.06594">
        <ele>958</ele>
        <time>2024-05-08T18:19:40Z</time>
      </trkpt>
      <trkpt lat="45.07244" lon="3.06609">
        <ele>957</ele>
        <time>2024-05-08T18:19:56Z</time>
      </trkpt>
      <trkpt lat="45.07378" lon="3.0662">
        <ele>959</ele>
        <time>2024-05-08T18:20:27Z</time>
      </trkpt>
      <trkpt lat="45.07505" lon="3.06625">
        <ele>960</ele>
        <time>2024-05-08T18:20:57Z</time>
      </trkpt>
      <trkpt lat="45.07523" lon="3.06621">
        <ele>960</ele>
        <time>2024-05-08T18:21:01Z</time>
      </trkpt>
      <trkpt lat="45.0758" lon="3.06599">
        <ele>961</ele>
        <time>2024-05-08T18:21:15Z</time>
      </trkpt>
      <trkpt lat="45.07628" lon="3.06575">
        <ele>961</ele>
        <time>2024-05-08T18:21:27Z</time>
      </trkpt>
      <trkpt lat="45.07651" lon="3.06566">
        <ele>962</ele>
        <time>2024-05-08T18:21:33Z</time>
      </trkpt>
      <trkpt lat="45.07766" lon="3.06553">
        <ele>963</ele>
        <time>2024-05-08T18:22:00Z</time>
      </trkpt>
      <trkpt lat="45.07829" lon="3.06585">
        <ele>965</ele>
        <time>2024-05-08T18:22:15Z</time>
      </trkpt>
      <trkpt lat="45.07899" lon="3.06641">
        <ele>966</ele>
        <time>2024-05-08T18:22:34Z</time>
      </trkpt>
      <trkpt lat="45.07938" lon="3.06685">
        <ele>968</ele>
        <time>2024-05-08T18:22:46Z</time>
      </trkpt>
      <trkpt lat="45.07968" lon="3.06705">
        <ele>968</ele>
        <time>2024-05-08T18:22:53Z</time>
      </trkpt>
      <trkpt lat="45.08007" lon="3.06723">
        <ele>968</ele>
        <time>2024-05-08T18:23:03Z</time>
      </trkpt>
      <trkpt lat="45.08053" lon="3.06749">
        <ele>967</ele>
        <time>2024-05-08T18:23:15Z</time>
      </trkpt>
      <trkpt lat="45.08066" lon="3.06758">
        <ele>967</ele>
        <time>2024-05-08T18:23:18Z</time>
      </trkpt>
      <trkpt lat="45.08069" lon="3.06779">
        <ele>967</ele>
        <time>2024-05-08T18:23:21Z</time>
      </trkpt>
      <trkpt lat="45.08073" lon="3.06785">
        <ele>966</ele>
        <time>2024-05-08T18:23:23Z</time>
      </trkpt>
      <trkpt lat="45.0808" lon="3.0679">
        <ele>966</ele>
        <time>2024-05-08T18:23:25Z</time>
      </trkpt>
      <trkpt lat="45.081" lon="3.06796">
        <ele>967</ele>
        <time>2024-05-08T18:23:29Z</time>
      </trkpt>
      <trkpt lat="45.08114" lon="3.06795">
        <ele>967</ele>
        <time>2024-05-08T18:23:33Z</time>
      </trkpt>
      <trkpt lat="45.08167" lon="3.06801">
        <ele>970</ele>
        <time>2024-05-08T18:23:45Z</time>
      </trkpt>
      <trkpt lat="45.08207" lon="3.06811">
        <ele>973</ele>
        <time>2024-05-08T18:23:55Z</time>
      </trkpt>
      <trkpt lat="45.08243" lon="3.06811">
        <ele>976</ele>
        <time>2024-05-08T18:24:03Z</time>
      </trkpt>
      <trkpt lat="45.08285" lon="3.06806">
        <ele>981</ele>
        <time>2024-05-08T18:24:13Z</time>
      </trkpt>
      <trkpt lat="45.08335" lon="3.06789">
        <ele>987</ele>
        <time>2024-05-08T18:24:25Z</time>
      </trkpt>
      <trkpt lat="45.08364" lon="3.06783">
        <ele>991</ele>
        <time>2024-05-08T18:24:32Z</time>
      </trkpt>
      <trkpt lat="45.08374" lon="3.06787">
        <ele>992</ele>
        <time>2024-05-08T18:24:34Z</time>
      </trkpt>
      <trkpt lat="45.08395" lon="3.06816">
        <ele>994</ele>
        <time>2024-05-08T18:24:41Z</time>
      </trkpt>
      <trkpt lat="45.08401" lon="3.06821">
        <ele>994</ele>
        <time>2024-05-08T18:24:43Z</time>
      </trkpt>
      <trkpt lat="45.08429" lon="3.06831">
        <ele>997</ele>
        <time>2024-05-08T18:24:49Z</time>
      </trkpt>
      <trkpt lat="45.08442" lon="3.06833">
        <ele>998</ele>
        <time>2024-05-08T18:24:52Z</time>
      </trkpt>
      <trkpt lat="45.08457" lon="3.06832">
        <ele>1000</ele>
        <time>2024-05-08T18:24:56Z</time>
      </trkpt>
      <trkpt lat="45.08509" lon="3.06814">
        <ele>1004</ele>
        <time>2024-05-08T18:25:08Z</time>
      </trkpt>
      <trkpt lat="45.08549" lon="3.06809">
        <ele>1007</ele>
        <time>2024-05-08T18:25:18Z</time>
      </trkpt>
      <trkpt lat="45.08579" lon="3.0681">
        <ele>1008</ele>
        <time>2024-05-08T18:25:25Z</time>
      </trkpt>
      <trkpt lat="45.08641" lon="3.06818">
        <ele>1010</ele>
        <time>2024-05-08T18:25:39Z</time>
      </trkpt>
      <trkpt lat="45.08743" lon="3.06814">
        <ele>1013</ele>
        <time>2024-05-08T18:26:03Z</time>
      </trkpt>
      <trkpt lat="45.08777" lon="3.06817">
        <ele>1014</ele>
        <time>2024-05-08T18:26:11Z</time>
      </trkpt>
      <trkpt lat="45.0881" lon="3.06826">
        <ele>1014</ele>
        <time>2024-05-08T18:26:19Z</time>
      </trkpt>
      <trkpt lat="45.0884" lon="3.06844">
        <ele>1014</ele>
        <time>2024-05-08T18:26:27Z</time>
      </trkpt>
      <trkpt lat="45.08849" lon="3.06847">
        <ele>1014</ele>
        <time>2024-05-08T18:26:29Z</time>
      </trkpt>
      <trkpt lat="45.08864" lon="3.06858">
        <ele>1015</ele>
        <time>2024-05-08T18:26:33Z</time>
      </trkpt>
      <trkpt lat="45.08888" lon="3.06868">
        <ele>1015</ele>
        <time>2024-05-08T18:26:39Z</time>
      </trkpt>
      <trkpt lat="45.08907" lon="3.0688">
        <ele>1015</ele>
        <time>2024-05-08T18:26:43Z</time>
      </trkpt>
      <trkpt lat="45.08914" lon="3.06888">
        <ele>1015</ele>
        <time>2024-05-08T18:26:45Z</time>
      </trkpt>
      <trkpt lat="45.08929" lon="3.06895">
        <ele>1015</ele>
        <time>2024-05-08T18:26:49Z</time>
      </trkpt>
      <trkpt lat="45.08956" lon="3.06918">
        <ele>1015</ele>
        <time>2024-05-08T18:26:57Z</time>
      </trkpt>
      <trkpt lat="45.08983" lon="3.06954">
        <ele>1016</ele>
        <time>2024-05-08T18:27:05Z</time>
      </trkpt>
      <trkpt lat="45.08997" lon="3.06959">
        <ele>1015</ele>
        <time>2024-05-08T18:27:09Z</time>
      </trkpt>
      <trkpt lat="45.09044" lon="3.07">
        <ele>1016</ele>
        <time>2024-05-08T18:27:21Z</time>
      </trkpt>
      <trkpt lat="45.09095" lon="3.07026">
        <ele>1014</ele>
        <time>2024-05-08T18:27:34Z</time>
      </trkpt>
      <trkpt lat="45.09136" lon="3.07042">
        <ele>1013</ele>
        <time>2024-05-08T18:27:44Z</time>
      </trkpt>
      <trkpt lat="45.09185" lon="3.07075">
        <ele>1012</ele>
        <time>2024-05-08T18:27:57Z</time>
      </trkpt>
      <trkpt lat="45.09231" lon="3.07122">
        <ele>1010</ele>
        <time>2024-05-08T18:28:10Z</time>
      </trkpt>
      <trkpt lat="45.09271" lon="3.0717">
        <ele>1008</ele>
        <time>2024-05-08T18:28:22Z</time>
      </trkpt>
      <trkpt lat="45.09283" lon="3.0718">
        <ele>1007</ele>
        <time>2024-05-08T18:28:25Z</time>
      </trkpt>
      <trkpt lat="45.093" lon="3.0719">
        <ele>1005</ele>
        <time>2024-05-08T18:28:30Z</time>
      </trkpt>
      <trkpt lat="45.09313" lon="3.07194">
        <ele>1004</ele>
        <time>2024-05-08T18:28:33Z</time>
      </trkpt>
      <trkpt lat="45.09383" lon="3.07205">
        <ele>999</ele>
        <time>2024-05-08T18:28:49Z</time>
      </trkpt>
      <trkpt lat="45.09418" lon="3.07218">
        <ele>996</ele>
        <time>2024-05-08T18:28:58Z</time>
      </trkpt>
      <trkpt lat="45.09428" lon="3.07217">
        <ele>996</ele>
        <time>2024-05-08T18:29:00Z</time>
      </trkpt>
      <trkpt lat="45.09466" lon="3.0719">
        <ele>996</ele>
        <time>2024-05-08T18:29:10Z</time>
      </trkpt>
      <trkpt lat="45.09491" lon="3.07176">
        <ele>995</ele>
        <time>2024-05-08T18:29:16Z</time>
      </trkpt>
      <trkpt lat="45.09564" lon="3.07142">
        <ele>990</ele>
        <time>2024-05-08T18:29:34Z</time>
      </trkpt>
      <trkpt lat="45.09589" lon="3.07128">
        <ele>988</ele>
        <time>2024-05-08T18:29:41Z</time>
      </trkpt>
      <trkpt lat="45.09617" lon="3.07118">
        <ele>987</ele>
        <time>2024-05-08T18:29:47Z</time>
      </trkpt>
      <trkpt lat="45.0964" lon="3.07114">
        <ele>985</ele>
        <time>2024-05-08T18:29:53Z</time>
      </trkpt>
      <trkpt lat="45.09663" lon="3.07114">
        <ele>984</ele>
        <time>2024-05-08T18:29:58Z</time>
      </trkpt>
      <trkpt lat="45.09696" lon="3.07124">
        <ele>983</ele>
        <time>2024-05-08T18:30:06Z</time>
      </trkpt>
      <trkpt lat="45.09733" lon="3.07131">
        <ele>981</ele>
        <time>2024-05-08T18:30:15Z</time>
      </trkpt>
      <trkpt lat="45.09745" lon="3.0714">
        <ele>981</ele>
        <time>2024-05-08T18:30:18Z</time>
      </trkpt>
      <trkpt lat="45.09762" lon="3.07144">
        <ele>980</ele>
        <time>2024-05-08T18:30:22Z</time>
      </trkpt>
      <trkpt lat="45.09828" lon="3.07137">
        <ele>979</ele>
        <time>2024-05-08T18:30:37Z</time>
      </trkpt>
      <trkpt lat="45.09922" lon="3.07122">
        <ele>985</ele>
        <time>2024-05-08T18:30:59Z</time>
      </trkpt>
      <trkpt lat="45.09944" lon="3.07116">
        <ele>987</ele>
        <time>2024-05-08T18:31:05Z</time>
      </trkpt>
      <trkpt lat="45.0997" lon="3.07105">
        <ele>989</ele>
        <time>2024-05-08T18:31:11Z</time>
      </trkpt>
      <trkpt lat="45.0999" lon="3.07084">
        <ele>990</ele>
        <time>2024-05-08T18:31:17Z</time>
      </trkpt>
      <trkpt lat="45.10007" lon="3.07061">
        <ele>990</ele>
        <time>2024-05-08T18:31:22Z</time>
      </trkpt>
      <trkpt lat="45.1003" lon="3.0701">
        <ele>987</ele>
        <time>2024-05-08T18:31:32Z</time>
      </trkpt>
      <trkpt lat="45.10039" lon="3.06999">
        <ele>986</ele>
        <time>2024-05-08T18:31:35Z</time>
      </trkpt>
      <trkpt lat="45.10063" lon="3.06985">
        <ele>986</ele>
        <time>2024-05-08T18:31:41Z</time>
      </trkpt>
      <trkpt lat="45.10074" lon="3.06983">
        <ele>986</ele>
        <time>2024-05-08T18:31:44Z</time>
      </trkpt>
      <trkpt lat="45.10081" lon="3.06984">
        <ele>986</ele>
        <time>2024-05-08T18:31:45Z</time>
      </trkpt>
      <trkpt lat="45.10093" lon="3.06993">
        <ele>986</ele>
        <time>2024-05-08T18:31:48Z</time>
      </trkpt>
      <trkpt lat="45.10092" lon="3.06981">
        <ele>985</ele>
        <time>2024-05-08T18:31:50Z</time>
      </trkpt>
      <trkpt lat="45.10085" lon="3.0698">
        <ele>985</ele>
        <time>2024-05-08T18:31:52Z</time>
      </trkpt>
      <trkpt lat="45.10062" lon="3.06984">
        <ele>985</ele>
        <time>2024-05-08T18:31:58Z</time>
      </trkpt>
      <trkpt lat="45.10048" lon="3.0699">
        <ele>986</ele>
        <time>2024-05-08T18:32:01Z</time>
      </trkpt>
      <trkpt lat="45.10033" lon="3.07003">
        <ele>987</ele>
        <time>2024-05-08T18:32:05Z</time>
      </trkpt>
      <trkpt lat="45.10024" lon="3.07015">
        <ele>987</ele>
        <time>2024-05-08T18:32:08Z</time>
      </trkpt>
      <trkpt lat="45.10019" lon="3.07035">
        <ele>989</ele>
        <time>2024-05-08T18:32:11Z</time>
      </trkpt>
      <trkpt lat="45.10002" lon="3.07071">
        <ele>990</ele>
        <time>2024-05-08T18:32:19Z</time>
      </trkpt>
      <trkpt lat="45.09967" lon="3.07108">
        <ele>988</ele>
        <time>2024-05-08T18:32:29Z</time>
      </trkpt>
      <trkpt lat="45.09958" lon="3.07121">
        <ele>988</ele>
        <time>2024-05-08T18:32:32Z</time>
      </trkpt>
      <trkpt lat="45.09954" lon="3.0714">
        <ele>988</ele>
        <time>2024-05-08T18:32:35Z</time>
      </trkpt>
      <trkpt lat="45.09955" lon="3.07146">
        <ele>988</ele>
        <time>2024-05-08T18:32:36Z</time>
      </trkpt>
      <trkpt lat="45.09958" lon="3.07148">
        <ele>988</ele>
        <time>2024-05-08T18:32:37Z</time>
      </trkpt>
      <trkpt lat="45.0996" lon="3.07142">
        <ele>988</ele>
        <time>2024-05-08T18:32:38Z</time>
      </trkpt>
      <trkpt lat="45.0995" lon="3.07139">
        <ele>987</ele>
        <time>2024-05-08T18:32:40Z</time>
      </trkpt>
      <trkpt lat="45.0995" lon="3.07132">
        <ele>987</ele>
        <time>2024-05-08T18:32:41Z</time>
      </trkpt>
      <trkpt lat="45.09953" lon="3.07131">
        <ele>987</ele>
        <time>2024-05-08T18:32:42Z</time>
      </trkpt>
      <trkpt lat="45.09957" lon="3.07136">
        <ele>988</ele>
        <time>2024-05-08T18:32:43Z</time>
      </trkpt>
      <trkpt lat="45.09961" lon="3.07173">
        <ele>988</ele>
        <time>2024-05-08T18:32:50Z</time>
      </trkpt>
      <trkpt lat="45.09961" lon="3.07193">
        <ele>988</ele>
        <time>2024-05-08T18:32:53Z</time>
      </trkpt>
      <trkpt lat="45.09956" lon="3.0723">
        <ele>987</ele>
        <time>2024-05-08T18:32:59Z</time>
      </trkpt>
      <trkpt lat="45.09934" lon="3.07326">
        <ele>983</ele>
        <time>2024-05-08T18:33:16Z</time>
      </trkpt>
      <trkpt lat="45.09916" lon="3.07377">
        <ele>980</ele>
        <time>2024-05-08T18:33:25Z</time>
      </trkpt>
      <trkpt lat="45.0991" lon="3.07401">
        <ele>980</ele>
        <time>2024-05-08T18:33:29Z</time>
      </trkpt>
      <trkpt lat="45.09869" lon="3.07678">
        <ele>969</ele>
        <time>2024-05-08T18:34:16Z</time>
      </trkpt>
      <trkpt lat="45.09862" lon="3.07703">
        <ele>970</ele>
        <time>2024-05-08T18:34:20Z</time>
      </trkpt>
      <trkpt lat="45.09848" lon="3.07731">
        <ele>970</ele>
        <time>2024-05-08T18:34:26Z</time>
      </trkpt>
      <trkpt lat="45.09813" lon="3.07778">
        <ele>969</ele>
        <time>2024-05-08T18:34:37Z</time>
      </trkpt>
      <trkpt lat="45.09804" lon="3.07793">
        <ele>968</ele>
        <time>2024-05-08T18:34:41Z</time>
      </trkpt>
      <trkpt lat="45.09798" lon="3.0781">
        <ele>969</ele>
        <time>2024-05-08T18:34:44Z</time>
      </trkpt>
      <trkpt lat="45.09793" lon="3.07838">
        <ele>969</ele>
        <time>2024-05-08T18:34:48Z</time>
      </trkpt>
      <trkpt lat="45.09789" lon="3.07905">
        <ele>972</ele>
        <time>2024-05-08T18:35:00Z</time>
      </trkpt>
      <trkpt lat="45.09784" lon="3.07926">
        <ele>972</ele>
        <time>2024-05-08T18:35:03Z</time>
      </trkpt>
      <trkpt lat="45.09767" lon="3.07973">
        <ele>971</ele>
        <time>2024-05-08T18:35:12Z</time>
      </trkpt>
      <trkpt lat="45.09742" lon="3.08083">
        <ele>971</ele>
        <time>2024-05-08T18:35:31Z</time>
      </trkpt>
      <trkpt lat="45.09728" lon="3.08173">
        <ele>972</ele>
        <time>2024-05-08T18:35:46Z</time>
      </trkpt>
      <trkpt lat="45.09728" lon="3.08187">
        <ele>972</ele>
        <time>2024-05-08T18:35:48Z</time>
      </trkpt>
      <trkpt lat="45.09731" lon="3.08199">
        <ele>972</ele>
        <time>2024-05-08T18:35:51Z</time>
      </trkpt>
      <trkpt lat="45.09741" lon="3.08217">
        <ele>973</ele>
        <time>2024-05-08T18:35:54Z</time>
      </trkpt>
      <trkpt lat="45.09746" lon="3.08223">
        <ele>974</ele>
        <time>2024-05-08T18:35:56Z</time>
      </trkpt>
      <trkpt lat="45.09752" lon="3.08224">
        <ele>975</ele>
        <time>2024-05-08T18:35:57Z</time>
      </trkpt>
      <trkpt lat="45.0976" lon="3.08216">
        <ele>976</ele>
        <time>2024-05-08T18:36:00Z</time>
      </trkpt>
      <trkpt lat="45.0977" lon="3.08166">
        <ele>979</ele>
        <time>2024-05-08T18:36:08Z</time>
      </trkpt>
      <trkpt lat="45.09774" lon="3.08155">
        <ele>979</ele>
        <time>2024-05-08T18:36:10Z</time>
      </trkpt>
      <trkpt lat="45.09779" lon="3.0815">
        <ele>980</ele>
        <time>2024-05-08T18:36:12Z</time>
      </trkpt>
      <trkpt lat="45.09796" lon="3.08142">
        <ele>982</ele>
        <time>2024-05-08T18:36:16Z</time>
      </trkpt>
      <trkpt lat="45.09814" lon="3.0814">
        <ele>985</ele>
        <time>2024-05-08T18:36:20Z</time>
      </trkpt>
      <trkpt lat="45.09823" lon="3.08142">
        <ele>986</ele>
        <time>2024-05-08T18:36:22Z</time>
      </trkpt>
      <trkpt lat="45.09848" lon="3.08134">
        <ele>991</ele>
        <time>2024-05-08T18:36:28Z</time>
      </trkpt>
      <trkpt lat="45.09876" lon="3.0813">
        <ele>996</ele>
        <time>2024-05-08T18:36:35Z</time>
      </trkpt>
      <trkpt lat="45.09891" lon="3.08133">
        <ele>999</ele>
        <time>2024-05-08T18:36:38Z</time>
      </trkpt>
      <trkpt lat="45.09904" lon="3.0814">
        <ele>1001</ele>
        <time>2024-05-08T18:36:41Z</time>
      </trkpt>
      <trkpt lat="45.09928" lon="3.08167">
        <ele>1006</ele>
        <time>2024-05-08T18:36:49Z</time>
      </trkpt>
      <trkpt lat="45.09946" lon="3.08179">
        <ele>1007</ele>
        <time>2024-05-08T18:36:53Z</time>
      </trkpt>
      <trkpt lat="45.09961" lon="3.08182">
        <ele>1009</ele>
        <time>2024-05-08T18:36:57Z</time>
      </trkpt>
      <trkpt lat="45.0998" lon="3.0819">
        <ele>1010</ele>
        <time>2024-05-08T18:37:01Z</time>
      </trkpt>
      <trkpt lat="45.10002" lon="3.0819">
        <ele>1012</ele>
        <time>2024-05-08T18:37:07Z</time>
      </trkpt>
      <trkpt lat="45.10019" lon="3.08183">
        <ele>1014</ele>
        <time>2024-05-08T18:37:11Z</time>
      </trkpt>
      <trkpt lat="45.10066" lon="3.08157">
        <ele>1018</ele>
        <time>2024-05-08T18:37:23Z</time>
      </trkpt>
      <trkpt lat="45.10099" lon="3.08149">
        <ele>1020</ele>
        <time>2024-05-08T18:37:30Z</time>
      </trkpt>
      <trkpt lat="45.10118" lon="3.08138">
        <ele>1021</ele>
        <time>2024-05-08T18:37:35Z</time>
      </trkpt>
      <trkpt lat="45.10142" lon="3.08113">
        <ele>1023</ele>
        <time>2024-05-08T18:37:42Z</time>
      </trkpt>
      <trkpt lat="45.10167" lon="3.08108">
        <ele>1024</ele>
        <time>2024-05-08T18:37:48Z</time>
      </trkpt>
      <trkpt lat="45.1019" lon="3.08108">
        <ele>1025</ele>
        <time>2024-05-08T18:37:53Z</time>
      </trkpt>
      <trkpt lat="45.1024" lon="3.08119">
        <ele>1029</ele>
        <time>2024-05-08T18:38:05Z</time>
      </trkpt>
      <trkpt lat="45.10268" lon="3.08129">
        <ele>1031</ele>
        <time>2024-05-08T18:38:12Z</time>
      </trkpt>
      <trkpt lat="45.10288" lon="3.08139">
        <ele>1033</ele>
        <time>2024-05-08T18:38:17Z</time>
      </trkpt>
      <trkpt lat="45.10338" lon="3.08156">
        <ele>1035</ele>
        <time>2024-05-08T18:38:29Z</time>
      </trkpt>
      <trkpt lat="45.10377" lon="3.08162">
        <ele>1037</ele>
        <time>2024-05-08T18:38:38Z</time>
      </trkpt>
      <trkpt lat="45.10422" lon="3.08176">
        <ele>1039</ele>
        <time>2024-05-08T18:38:49Z</time>
      </trkpt>
      <trkpt lat="45.10461" lon="3.08197">
        <ele>1041</ele>
        <time>2024-05-08T18:38:59Z</time>
      </trkpt>
      <trkpt lat="45.105" lon="3.08234">
        <ele>1044</ele>
        <time>2024-05-08T18:39:09Z</time>
      </trkpt>
      <trkpt lat="45.10562" lon="3.08321">
        <ele>1043</ele>
        <time>2024-05-08T18:39:30Z</time>
      </trkpt>
      <trkpt lat="45.10614" lon="3.0842">
        <ele>1042</ele>
        <time>2024-05-08T18:39:50Z</time>
      </trkpt>
      <trkpt lat="45.10695" lon="3.08603">
        <ele>1045</ele>
        <time>2024-05-08T18:40:26Z</time>
      </trkpt>
      <trkpt lat="45.1071" lon="3.08651">
        <ele>1046</ele>
        <time>2024-05-08T18:40:34Z</time>
      </trkpt>
      <trkpt lat="45.10719" lon="3.0867">
        <ele>1047</ele>
        <time>2024-05-08T18:40:38Z</time>
      </trkpt>
      <trkpt lat="45.10735" lon="3.08684">
        <ele>1047</ele>
        <time>2024-05-08T18:40:43Z</time>
      </trkpt>
      <trkpt lat="45.10756" lon="3.08697">
        <ele>1046</ele>
        <time>2024-05-08T18:40:48Z</time>
      </trkpt>
      <trkpt lat="45.10776" lon="3.087">
        <ele>1046</ele>
        <time>2024-05-08T18:40:53Z</time>
      </trkpt>
      <trkpt lat="45.10803" lon="3.08698">
        <ele>1046</ele>
        <time>2024-05-08T18:40:59Z</time>
      </trkpt>
      <trkpt lat="45.10852" lon="3.08699">
        <ele>1045</ele>
        <time>2024-05-08T18:41:10Z</time>
      </trkpt>
      <trkpt lat="45.10857" lon="3.08701">
        <ele>1045</ele>
        <time>2024-05-08T18:41:12Z</time>
      </trkpt>
      <trkpt lat="45.10861" lon="3.08707">
        <ele>1046</ele>
        <time>2024-05-08T18:41:13Z</time>
      </trkpt>
      <trkpt lat="45.10881" lon="3.08777">
        <ele>1048</ele>
        <time>2024-05-08T18:41:25Z</time>
      </trkpt>
      <trkpt lat="45.10884" lon="3.08808">
        <ele>1049</ele>
        <time>2024-05-08T18:41:31Z</time>
      </trkpt>
      <trkpt lat="45.10876" lon="3.08829">
        <ele>1049</ele>
        <time>2024-05-08T18:41:35Z</time>
      </trkpt>
      <trkpt lat="45.10781" lon="3.08992">
        <ele>1046</ele>
        <time>2024-05-08T18:42:09Z</time>
      </trkpt>
      <trkpt lat="45.10771" lon="3.09029">
        <ele>1046</ele>
        <time>2024-05-08T18:42:16Z</time>
      </trkpt>
      <trkpt lat="45.10756" lon="3.09115">
        <ele>1045</ele>
        <time>2024-05-08T18:42:31Z</time>
      </trkpt>
      <trkpt lat="45.10752" lon="3.09147">
        <ele>1044</ele>
        <time>2024-05-08T18:42:36Z</time>
      </trkpt>
      <trkpt lat="45.10753" lon="3.09164">
        <ele>1044</ele>
        <time>2024-05-08T18:42:39Z</time>
      </trkpt>
      <trkpt lat="45.10759" lon="3.09177">
        <ele>1044</ele>
        <time>2024-05-08T18:42:41Z</time>
      </trkpt>
      <trkpt lat="45.10767" lon="3.09183">
        <ele>1044</ele>
        <time>2024-05-08T18:42:43Z</time>
      </trkpt>
      <trkpt lat="45.10793" lon="3.09195">
        <ele>1045</ele>
        <time>2024-05-08T18:42:50Z</time>
      </trkpt>
      <trkpt lat="45.108" lon="3.09211">
        <ele>1044</ele>
        <time>2024-05-08T18:42:53Z</time>
      </trkpt>
      <trkpt lat="45.10797" lon="3.09232">
        <ele>1042</ele>
        <time>2024-05-08T18:42:56Z</time>
      </trkpt>
      <trkpt lat="45.10772" lon="3.09286">
        <ele>1038</ele>
        <time>2024-05-08T18:43:07Z</time>
      </trkpt>
      <trkpt lat="45.1076" lon="3.09298">
        <ele>1037</ele>
        <time>2024-05-08T18:43:10Z</time>
      </trkpt>
      <trkpt lat="45.10744" lon="3.09298">
        <ele>1035</ele>
        <time>2024-05-08T18:43:14Z</time>
      </trkpt>
      <trkpt lat="45.10714" lon="3.09285">
        <ele>1035</ele>
        <time>2024-05-08T18:43:22Z</time>
      </trkpt>
      <trkpt lat="45.10695" lon="3.09273">
        <ele>1034</ele>
        <time>2024-05-08T18:43:26Z</time>
      </trkpt>
      <trkpt lat="45.10668" lon="3.09239">
        <ele>1032</ele>
        <time>2024-05-08T18:43:35Z</time>
      </trkpt>
      <trkpt lat="45.1065" lon="3.09227">
        <ele>1029</ele>
        <time>2024-05-08T18:43:39Z</time>
      </trkpt>
      <trkpt lat="45.10632" lon="3.09223">
        <ele>1027</ele>
        <time>2024-05-08T18:43:44Z</time>
      </trkpt>
      <trkpt lat="45.10603" lon="3.09225">
        <ele>1025</ele>
        <time>2024-05-08T18:43:50Z</time>
      </trkpt>
      <trkpt lat="45.10576" lon="3.09238">
        <ele>1023</ele>
        <time>2024-05-08T18:43:57Z</time>
      </trkpt>
      <trkpt lat="45.10544" lon="3.09272">
        <ele>1020</ele>
        <time>2024-05-08T18:44:06Z</time>
      </trkpt>
      <trkpt lat="45.1052" lon="3.09312">
        <ele>1018</ele>
        <time>2024-05-08T18:44:15Z</time>
      </trkpt>
      <trkpt lat="45.10503" lon="3.09354">
        <ele>1017</ele>
        <time>2024-05-08T18:44:23Z</time>
      </trkpt>
      <trkpt lat="45.10511" lon="3.09337">
        <ele>1018</ele>
        <time>2024-05-08T18:44:26Z</time>
      </trkpt>
      <trkpt lat="45.10536" lon="3.09299">
        <ele>1021</ele>
        <time>2024-05-08T18:44:35Z</time>
      </trkpt>
      <trkpt lat="45.10559" lon="3.09278">
        <ele>1023</ele>
        <time>2024-05-08T18:44:41Z</time>
      </trkpt>
      <trkpt lat="45.10565" lon="3.09278">
        <ele>1024</ele>
        <time>2024-05-08T18:44:43Z</time>
      </trkpt>
      <trkpt lat="45.10575" lon="3.09313">
        <ele>1030</ele>
        <time>2024-05-08T18:44:49Z</time>
      </trkpt>
      <trkpt lat="45.10581" lon="3.09346">
        <ele>1034</ele>
        <time>2024-05-08T18:44:55Z</time>
      </trkpt>
      <trkpt lat="45.10595" lon="3.0936">
        <ele>1036</ele>
        <time>2024-05-08T18:44:59Z</time>
      </trkpt>
      <trkpt lat="45.10627" lon="3.09412">
        <ele>1040</ele>
        <time>2024-05-08T18:45:10Z</time>
      </trkpt>
      <trkpt lat="45.10631" lon="3.09421">
        <ele>1040</ele>
        <time>2024-05-08T18:45:12Z</time>
      </trkpt>
      <trkpt lat="45.10631" lon="3.09435">
        <ele>1040</ele>
        <time>2024-05-08T18:45:14Z</time>
      </trkpt>
      <trkpt lat="45.10635" lon="3.09453">
        <ele>1041</ele>
        <time>2024-05-08T18:45:17Z</time>
      </trkpt>
      <trkpt lat="45.10644" lon="3.09459">
        <ele>1041</ele>
        <time>2024-05-08T18:45:20Z</time>
      </trkpt>
      <trkpt lat="45.10655" lon="3.09474">
        <ele>1043</ele>
        <time>2024-05-08T18:45:23Z</time>
      </trkpt>
      <trkpt lat="45.10755" lon="3.09561">
        <ele>1053</ele>
        <time>2024-05-08T18:45:51Z</time>
      </trkpt>
      <trkpt lat="45.1079" lon="3.09595">
        <ele>1055</ele>
        <time>2024-05-08T18:46:00Z</time>
      </trkpt>
      <trkpt lat="45.10837" lon="3.0965">
        <ele>1059</ele>
        <time>2024-05-08T18:46:15Z</time>
      </trkpt>
      <trkpt lat="45.10851" lon="3.09661">
        <ele>1060</ele>
        <time>2024-05-08T18:46:18Z</time>
      </trkpt>
      <trkpt lat="45.10868" lon="3.0969">
        <ele>1060</ele>
        <time>2024-05-08T18:46:25Z</time>
      </trkpt>
      <trkpt lat="45.10877" lon="3.09699">
        <ele>1061</ele>
        <time>2024-05-08T18:46:27Z</time>
      </trkpt>
      <trkpt lat="45.10894" lon="3.09706">
        <ele>1062</ele>
        <time>2024-05-08T18:46:31Z</time>
      </trkpt>
      <trkpt lat="45.10905" lon="3.09705">
        <ele>1063</ele>
        <time>2024-05-08T18:46:34Z</time>
      </trkpt>
      <trkpt lat="45.10923" lon="3.09677">
        <ele>1063</ele>
        <time>2024-05-08T18:46:40Z</time>
      </trkpt>
      <trkpt lat="45.10983" lon="3.09639">
        <ele>1063</ele>
        <time>2024-05-08T18:46:55Z</time>
      </trkpt>
      <trkpt lat="45.11032" lon="3.0959">
        <ele>1062</ele>
        <time>2024-05-08T18:47:09Z</time>
      </trkpt>
      <trkpt lat="45.11036" lon="3.0958">
        <ele>1062</ele>
        <time>2024-05-08T18:47:11Z</time>
      </trkpt>
      <trkpt lat="45.11037" lon="3.0956">
        <ele>1062</ele>
        <time>2024-05-08T18:47:15Z</time>
      </trkpt>
      <trkpt lat="45.11031" lon="3.09527">
        <ele>1062</ele>
        <time>2024-05-08T18:47:20Z</time>
      </trkpt>
      <trkpt lat="45.1103" lon="3.09499">
        <ele>1062</ele>
        <time>2024-05-08T18:47:25Z</time>
      </trkpt>
      <trkpt lat="45.11044" lon="3.0933">
        <ele>1067</ele>
        <time>2024-05-08T18:47:53Z</time>
      </trkpt>
      <trkpt lat="45.11043" lon="3.09224">
        <ele>1068</ele>
        <time>2024-05-08T18:48:10Z</time>
      </trkpt>
      <trkpt lat="45.1104" lon="3.09175">
        <ele>1069</ele>
        <time>2024-05-08T18:48:19Z</time>
      </trkpt>
      <trkpt lat="45.11047" lon="3.09131">
        <ele>1071</ele>
        <time>2024-05-08T18:48:26Z</time>
      </trkpt>
      <trkpt lat="45.11051" lon="3.09126">
        <ele>1072</ele>
        <time>2024-05-08T18:48:27Z</time>
      </trkpt>
      <trkpt lat="45.11056" lon="3.09125">
        <ele>1072</ele>
        <time>2024-05-08T18:48:28Z</time>
      </trkpt>
      <trkpt lat="45.11098" lon="3.09183">
        <ele>1073</ele>
        <time>2024-05-08T18:48:42Z</time>
      </trkpt>
      <trkpt lat="45.11122" lon="3.09208">
        <ele>1073</ele>
        <time>2024-05-08T18:48:49Z</time>
      </trkpt>
      <trkpt lat="45.11184" lon="3.09283">
        <ele>1075</ele>
        <time>2024-05-08T18:49:08Z</time>
      </trkpt>
      <trkpt lat="45.11226" lon="3.0933">
        <ele>1076</ele>
        <time>2024-05-08T18:49:21Z</time>
      </trkpt>
      <trkpt lat="45.11247" lon="3.0935">
        <ele>1077</ele>
        <time>2024-05-08T18:49:27Z</time>
      </trkpt>
      <trkpt lat="45.11286" lon="3.09397">
        <ele>1080</ele>
        <time>2024-05-08T18:49:38Z</time>
      </trkpt>
      <trkpt lat="45.11329" lon="3.09443">
        <ele>1083</ele>
        <time>2024-05-08T18:49:51Z</time>
      </trkpt>
      <trkpt lat="45.11395" lon="3.09527">
        <ele>1084</ele>
        <time>2024-05-08T18:50:12Z</time>
      </trkpt>
      <trkpt lat="45.11414" lon="3.09562">
        <ele>1083</ele>
        <time>2024-05-08T18:50:19Z</time>
      </trkpt>
      <trkpt lat="45.1142" lon="3.0958">
        <ele>1083</ele>
        <time>2024-05-08T18:50:22Z</time>
      </trkpt>
      <trkpt lat="45.11425" lon="3.09603">
        <ele>1082</ele>
        <time>2024-05-08T18:50:26Z</time>
      </trkpt>
      <trkpt lat="45.11438" lon="3.09705">
        <ele>1080</ele>
        <time>2024-05-08T18:50:43Z</time>
      </trkpt>
      <trkpt lat="45.11452" lon="3.09744">
        <ele>1078</ele>
        <time>2024-05-08T18:50:51Z</time>
      </trkpt>
      <trkpt lat="45.11641" lon="3.10069">
        <ele>1079</ele>
        <time>2024-05-08T18:52:00Z</time>
      </trkpt>
      <trkpt lat="45.11646" lon="3.10074">
        <ele>1079</ele>
        <time>2024-05-08T18:52:01Z</time>
      </trkpt>
      <trkpt lat="45.11651" lon="3.10073">
        <ele>1079</ele>
        <time>2024-05-08T18:52:03Z</time>
      </trkpt>
      <trkpt lat="45.11653" lon="3.10069">
        <ele>1079</ele>
        <time>2024-05-08T18:52:03Z</time>
      </trkpt>
      <trkpt lat="45.11655" lon="3.10003">
        <ele>1081</ele>
        <time>2024-05-08T18:52:14Z</time>
      </trkpt>
      <trkpt lat="45.11661" lon="3.09992">
        <ele>1082</ele>
        <time>2024-05-08T18:52:17Z</time>
      </trkpt>
      <trkpt lat="45.11669" lon="3.09988">
        <ele>1082</ele>
        <time>2024-05-08T18:52:19Z</time>
      </trkpt>
      <trkpt lat="45.11685" lon="3.09989">
        <ele>1082</ele>
        <time>2024-05-08T18:52:22Z</time>
      </trkpt>
      <trkpt lat="45.11706" lon="3.09986">
        <ele>1083</ele>
        <time>2024-05-08T18:52:27Z</time>
      </trkpt>
      <trkpt lat="45.11742" lon="3.09992">
        <ele>1084</ele>
        <time>2024-05-08T18:52:36Z</time>
      </trkpt>
      <trkpt lat="45.11786" lon="3.10018">
        <ele>1082</ele>
        <time>2024-05-08T18:52:47Z</time>
      </trkpt>
      <trkpt lat="45.11825" lon="3.1003">
        <ele>1080</ele>
        <time>2024-05-08T18:52:56Z</time>
      </trkpt>
      <trkpt lat="45.11842" lon="3.10032">
        <ele>1079</ele>
        <time>2024-05-08T18:53:00Z</time>
      </trkpt>
      <trkpt lat="45.11867" lon="3.1002">
        <ele>1076</ele>
        <time>2024-05-08T18:53:06Z</time>
      </trkpt>
      <trkpt lat="45.11894" lon="3.10016">
        <ele>1073</ele>
        <time>2024-05-08T18:53:13Z</time>
      </trkpt>
      <trkpt lat="45.11923" lon="3.10002">
        <ele>1069</ele>
        <time>2024-05-08T18:53:20Z</time>
      </trkpt>
      <trkpt lat="45.11956" lon="3.10013">
        <ele>1067</ele>
        <time>2024-05-08T18:53:28Z</time>
      </trkpt>
      <trkpt lat="45.11975" lon="3.10009">
        <ele>1065</ele>
        <time>2024-05-08T18:53:32Z</time>
      </trkpt>
      <trkpt lat="45.11991" lon="3.10017">
        <ele>1063</ele>
        <time>2024-05-08T18:53:36Z</time>
      </trkpt>
      <trkpt lat="45.12001" lon="3.10019">
        <ele>1063</ele>
        <time>2024-05-08T18:53:39Z</time>
      </trkpt>
      <trkpt lat="45.12085" lon="3.10011">
        <ele>1058</ele>
        <time>2024-05-08T18:53:58Z</time>
      </trkpt>
      <trkpt lat="45.12153" lon="3.10009">
        <ele>1057</ele>
        <time>2024-05-08T18:54:14Z</time>
      </trkpt>
      <trkpt lat="45.12191" lon="3.10004">
        <ele>1056</ele>
        <time>2024-05-08T18:54:23Z</time>
      </trkpt>
      <trkpt lat="45.1229" lon="3.09997">
        <ele>1054</ele>
        <time>2024-05-08T18:54:46Z</time>
      </trkpt>
      <trkpt lat="45.12326" lon="3.09997">
        <ele>1055</ele>
        <time>2024-05-08T18:54:55Z</time>
      </trkpt>
      <trkpt lat="45.12385" lon="3.09993">
        <ele>1057</ele>
        <time>2024-05-08T18:55:08Z</time>
      </trkpt>
      <trkpt lat="45.12413" lon="3.09988">
        <ele>1057</ele>
        <time>2024-05-08T18:55:15Z</time>
      </trkpt>
      <trkpt lat="45.12456" lon="3.09965">
        <ele>1056</ele>
        <time>2024-05-08T18:55:26Z</time>
      </trkpt>
      <trkpt lat="45.12468" lon="3.0996">
        <ele>1056</ele>
        <time>2024-05-08T18:55:29Z</time>
      </trkpt>
      <trkpt lat="45.12484" lon="3.09958">
        <ele>1056</ele>
        <time>2024-05-08T18:55:32Z</time>
      </trkpt>
      <trkpt lat="45.12539" lon="3.09962">
        <ele>1057</ele>
        <time>2024-05-08T18:55:45Z</time>
      </trkpt>
      <trkpt lat="45.12615" lon="3.0998">
        <ele>1057</ele>
        <time>2024-05-08T18:56:03Z</time>
      </trkpt>
      <trkpt lat="45.12669" lon="3.09983">
        <ele>1055</ele>
        <time>2024-05-08T18:56:16Z</time>
      </trkpt>
      <trkpt lat="45.12694" lon="3.09991">
        <ele>1054</ele>
        <time>2024-05-08T18:56:22Z</time>
      </trkpt>
      <trkpt lat="45.12722" lon="3.09989">
        <ele>1052</ele>
        <time>2024-05-08T18:56:28Z</time>
      </trkpt>
      <trkpt lat="45.1273" lon="3.09985">
        <ele>1051</ele>
        <time>2024-05-08T18:56:30Z</time>
      </trkpt>
      <trkpt lat="45.12734" lon="3.09975">
        <ele>1051</ele>
        <time>2024-05-08T18:56:32Z</time>
      </trkpt>
      <trkpt lat="45.12722" lon="3.09824">
        <ele>1053</ele>
        <time>2024-05-08T18:56:57Z</time>
      </trkpt>
      <trkpt lat="45.12724" lon="3.09809">
        <ele>1054</ele>
        <time>2024-05-08T18:57:00Z</time>
      </trkpt>
      <trkpt lat="45.12732" lon="3.09804">
        <ele>1055</ele>
        <time>2024-05-08T18:57:02Z</time>
      </trkpt>
      <trkpt lat="45.12738" lon="3.09808">
        <ele>1055</ele>
        <time>2024-05-08T18:57:03Z</time>
      </trkpt>
      <trkpt lat="45.12812" lon="3.09925">
        <ele>1054</ele>
        <time>2024-05-08T18:57:29Z</time>
      </trkpt>
      <trkpt lat="45.12824" lon="3.09939">
        <ele>1053</ele>
        <time>2024-05-08T18:57:33Z</time>
      </trkpt>
      <trkpt lat="45.12847" lon="3.09957">
        <ele>1054</ele>
        <time>2024-05-08T18:57:39Z</time>
      </trkpt>
      <trkpt lat="45.12856" lon="3.09967">
        <ele>1054</ele>
        <time>2024-05-08T18:57:42Z</time>
      </trkpt>
      <trkpt lat="45.12895" lon="3.10033">
        <ele>1053</ele>
        <time>2024-05-08T18:57:56Z</time>
      </trkpt>
      <trkpt lat="45.12918" lon="3.10056">
        <ele>1053</ele>
        <time>2024-05-08T18:58:02Z</time>
      </trkpt>
      <trkpt lat="45.12975" lon="3.10084">
        <ele>1053</ele>
        <time>2024-05-08T18:58:17Z</time>
      </trkpt>
      <trkpt lat="45.13027" lon="3.101">
        <ele>1052</ele>
        <time>2024-05-08T18:58:29Z</time>
      </trkpt>
      <trkpt lat="45.13071" lon="3.10119">
        <ele>1050</ele>
        <time>2024-05-08T18:58:40Z</time>
      </trkpt>
      <trkpt lat="45.13153" lon="3.10149">
        <ele>1053</ele>
        <time>2024-05-08T18:58:59Z</time>
      </trkpt>
      <trkpt lat="45.13195" lon="3.10183">
        <ele>1051</ele>
        <time>2024-05-08T18:59:11Z</time>
      </trkpt>
      <trkpt lat="45.13322" lon="3.103">
        <ele>1048</ele>
        <time>2024-05-08T18:59:46Z</time>
      </trkpt>
      <trkpt lat="45.13339" lon="3.10318">
        <ele>1048</ele>
        <time>2024-05-08T18:59:51Z</time>
      </trkpt>
      <trkpt lat="45.13346" lon="3.10331">
        <ele>1047</ele>
        <time>2024-05-08T18:59:54Z</time>
      </trkpt>
      <trkpt lat="45.1335" lon="3.10333">
        <ele>1047</ele>
        <time>2024-05-08T18:59:55Z</time>
      </trkpt>
      <trkpt lat="45.13355" lon="3.10331">
        <ele>1048</ele>
        <time>2024-05-08T18:59:56Z</time>
      </trkpt>
      <trkpt lat="45.13371" lon="3.10345">
        <ele>1048</ele>
        <time>2024-05-08T19:00:00Z</time>
      </trkpt>
      <trkpt lat="45.13385" lon="3.1035">
        <ele>1049</ele>
        <time>2024-05-08T19:00:04Z</time>
      </trkpt>
      <trkpt lat="45.13418" lon="3.10359">
        <ele>1051</ele>
        <time>2024-05-08T19:00:12Z</time>
      </trkpt>
      <trkpt lat="45.13428" lon="3.10358">
        <ele>1051</ele>
        <time>2024-05-08T19:00:14Z</time>
      </trkpt>
      <trkpt lat="45.13451" lon="3.10344">
        <ele>1052</ele>
        <time>2024-05-08T19:00:20Z</time>
      </trkpt>
      <trkpt lat="45.13461" lon="3.10333">
        <ele>1053</ele>
        <time>2024-05-08T19:00:23Z</time>
      </trkpt>
      <trkpt lat="45.13468" lon="3.10323">
        <ele>1053</ele>
        <time>2024-05-08T19:00:25Z</time>
      </trkpt>
      <trkpt lat="45.13476" lon="3.10296">
        <ele>1053</ele>
        <time>2024-05-08T19:00:30Z</time>
      </trkpt>
      <trkpt lat="45.13514" lon="3.10257">
        <ele>1051</ele>
        <time>2024-05-08T19:00:41Z</time>
      </trkpt>
      <trkpt lat="45.1352" lon="3.10242">
        <ele>1050</ele>
        <time>2024-05-08T19:00:44Z</time>
      </trkpt>
      <trkpt lat="45.13514" lon="3.10187">
        <ele>1047</ele>
        <time>2024-05-08T19:00:53Z</time>
      </trkpt>
      <trkpt lat="45.13515" lon="3.10141">
        <ele>1044</ele>
        <time>2024-05-08T19:01:00Z</time>
      </trkpt>
      <trkpt lat="45.13528" lon="3.10071">
        <ele>1041</ele>
        <time>2024-05-08T19:01:12Z</time>
      </trkpt>
      <trkpt lat="45.13563" lon="3.09965">
        <ele>1038</ele>
        <time>2024-05-08T19:01:32Z</time>
      </trkpt>
      <trkpt lat="45.13593" lon="3.09885">
        <ele>1037</ele>
        <time>2024-05-08T19:01:47Z</time>
      </trkpt>
      <trkpt lat="45.13597" lon="3.09797">
        <ele>1040</ele>
        <time>2024-05-08T19:02:01Z</time>
      </trkpt>
      <trkpt lat="45.13594" lon="3.09774">
        <ele>1042</ele>
        <time>2024-05-08T19:02:05Z</time>
      </trkpt>
      <trkpt lat="45.13598" lon="3.09727">
        <ele>1043</ele>
        <time>2024-05-08T19:02:13Z</time>
      </trkpt>
      <trkpt lat="45.13608" lon="3.09694">
        <ele>1044</ele>
        <time>2024-05-08T19:02:19Z</time>
      </trkpt>
      <trkpt lat="45.13623" lon="3.09662">
        <ele>1044</ele>
        <time>2024-05-08T19:02:25Z</time>
      </trkpt>
      <trkpt lat="45.13651" lon="3.09614">
        <ele>1044</ele>
        <time>2024-05-08T19:02:35Z</time>
      </trkpt>
      <trkpt lat="45.13658" lon="3.09594">
        <ele>1044</ele>
        <time>2024-05-08T19:02:39Z</time>
      </trkpt>
      <trkpt lat="45.13659" lon="3.09573">
        <ele>1044</ele>
        <time>2024-05-08T19:02:42Z</time>
      </trkpt>
      <trkpt lat="45.13653" lon="3.09531">
        <ele>1044</ele>
        <time>2024-05-08T19:02:49Z</time>
      </trkpt>
      <trkpt lat="45.13651" lon="3.09494">
        <ele>1044</ele>
        <time>2024-05-08T19:02:56Z</time>
      </trkpt>
      <trkpt lat="45.13656" lon="3.09409">
        <ele>1048</ele>
        <time>2024-05-08T19:03:10Z</time>
      </trkpt>
      <trkpt lat="45.13667" lon="3.09358">
        <ele>1051</ele>
        <time>2024-05-08T19:03:18Z</time>
      </trkpt>
      <trkpt lat="45.13665" lon="3.09305">
        <ele>1054</ele>
        <time>2024-05-08T19:03:27Z</time>
      </trkpt>
      <trkpt lat="45.13661" lon="3.09282">
        <ele>1055</ele>
        <time>2024-05-08T19:03:31Z</time>
      </trkpt>
      <trkpt lat="45.13655" lon="3.09266">
        <ele>1056</ele>
        <time>2024-05-08T19:03:34Z</time>
      </trkpt>
      <trkpt lat="45.13647" lon="3.09253">
        <ele>1057</ele>
        <time>2024-05-08T19:03:37Z</time>
      </trkpt>
      <trkpt lat="45.13622" lon="3.09224">
        <ele>1060</ele>
        <time>2024-05-08T19:03:44Z</time>
      </trkpt>
      <trkpt lat="45.13583" lon="3.09161">
        <ele>1065</ele>
        <time>2024-05-08T19:03:58Z</time>
      </trkpt>
      <trkpt lat="45.13554" lon="3.09103">
        <ele>1068</ele>
        <time>2024-05-08T19:04:10Z</time>
      </trkpt>
      <trkpt lat="45.13527" lon="3.09033">
        <ele>1070</ele>
        <time>2024-05-08T19:04:23Z</time>
      </trkpt>
      <trkpt lat="45.13513" lon="3.09006">
        <ele>1071</ele>
        <time>2024-05-08T19:04:29Z</time>
      </trkpt>
      <trkpt lat="45.1348" lon="3.08953">
        <ele>1072</ele>
        <time>2024-05-08T19:04:40Z</time>
      </trkpt>
      <trkpt lat="45.13423" lon="3.08875">
        <ele>1079</ele>
        <time>2024-05-08T19:04:59Z</time>
      </trkpt>
      <trkpt lat="45.13413" lon="3.08848">
        <ele>1081</ele>
        <time>2024-05-08T19:05:04Z</time>
      </trkpt>
      <trkpt lat="45.13399" lon="3.08797">
        <ele>1084</ele>
        <time>2024-05-08T19:05:13Z</time>
      </trkpt>
      <trkpt lat="45.1338" lon="3.08753">
        <ele>1087</ele>
        <time>2024-05-08T19:05:21Z</time>
      </trkpt>
      <trkpt lat="45.13338" lon="3.08692">
        <ele>1093</ele>
        <time>2024-05-08T19:05:35Z</time>
      </trkpt>
      <trkpt lat="45.13312" lon="3.08668">
        <ele>1095</ele>
        <time>2024-05-08T19:05:43Z</time>
      </trkpt>
      <trkpt lat="45.13203" lon="3.08548">
        <ele>1101</ele>
        <time>2024-05-08T19:06:15Z</time>
      </trkpt>
      <trkpt lat="45.13201" lon="3.08542">
        <ele>1101</ele>
        <time>2024-05-08T19:06:16Z</time>
      </trkpt>
      <trkpt lat="45.13207" lon="3.08525">
        <ele>1102</ele>
        <time>2024-05-08T19:06:19Z</time>
      </trkpt>
      <trkpt lat="45.13204" lon="3.08517">
        <ele>1102</ele>
        <time>2024-05-08T19:06:21Z</time>
      </trkpt>
      <trkpt lat="45.13218" lon="3.08501">
        <ele>1102</ele>
        <time>2024-05-08T19:06:25Z</time>
      </trkpt>
      <trkpt lat="45.13233" lon="3.08468">
        <ele>1103</ele>
        <time>2024-05-08T19:06:31Z</time>
      </trkpt>
      <trkpt lat="45.13244" lon="3.0841">
        <ele>1104</ele>
        <time>2024-05-08T19:06:41Z</time>
      </trkpt>
      <trkpt lat="45.13263" lon="3.08334">
        <ele>1106</ele>
        <time>2024-05-08T19:06:54Z</time>
      </trkpt>
      <trkpt lat="45.13278" lon="3.08288">
        <ele>1106</ele>
        <time>2024-05-08T19:07:03Z</time>
      </trkpt>
      <trkpt lat="45.13317" lon="3.08189">
        <ele>1109</ele>
        <time>2024-05-08T19:07:21Z</time>
      </trkpt>
      <trkpt lat="45.13353" lon="3.0805">
        <ele>1117</ele>
        <time>2024-05-08T19:07:46Z</time>
      </trkpt>
      <trkpt lat="45.13363" lon="3.07998">
        <ele>1119</ele>
        <time>2024-05-08T19:07:55Z</time>
      </trkpt>
      <trkpt lat="45.13381" lon="3.07938">
        <ele>1121</ele>
        <time>2024-05-08T19:08:05Z</time>
      </trkpt>
      <trkpt lat="45.13421" lon="3.07836">
        <ele>1127</ele>
        <time>2024-05-08T19:08:25Z</time>
      </trkpt>
      <trkpt lat="45.13428" lon="3.07806">
        <ele>1128</ele>
        <time>2024-05-08T19:08:30Z</time>
      </trkpt>
      <trkpt lat="45.13435" lon="3.07787">
        <ele>1128</ele>
        <time>2024-05-08T19:08:33Z</time>
      </trkpt>
      <trkpt lat="45.13454" lon="3.077">
        <ele>1132</ele>
        <time>2024-05-08T19:08:48Z</time>
      </trkpt>
      <trkpt lat="45.13458" lon="3.07673">
        <ele>1134</ele>
        <time>2024-05-08T19:08:53Z</time>
      </trkpt>
      <trkpt lat="45.1346" lon="3.07619">
        <ele>1136</ele>
        <time>2024-05-08T19:09:02Z</time>
      </trkpt>
      <trkpt lat="45.13449" lon="3.07577">
        <ele>1138</ele>
        <time>2024-05-08T19:09:09Z</time>
      </trkpt>
      <trkpt lat="45.13448" lon="3.07538">
        <ele>1138</ele>
        <time>2024-05-08T19:09:16Z</time>
      </trkpt>
      <trkpt lat="45.13458" lon="3.07387">
        <ele>1136</ele>
        <time>2024-05-08T19:09:41Z</time>
      </trkpt>
      <trkpt lat="45.13456" lon="3.07372">
        <ele>1135</ele>
        <time>2024-05-08T19:09:43Z</time>
      </trkpt>
      <trkpt lat="45.13457" lon="3.07352">
        <ele>1134</ele>
        <time>2024-05-08T19:09:46Z</time>
      </trkpt>
      <trkpt lat="45.13465" lon="3.07252">
        <ele>1127</ele>
        <time>2024-05-08T19:10:03Z</time>
      </trkpt>
      <trkpt lat="45.13479" lon="3.07152">
        <ele>1122</ele>
        <time>2024-05-08T19:10:20Z</time>
      </trkpt>
      <trkpt lat="45.13498" lon="3.07076">
        <ele>1121</ele>
        <time>2024-05-08T19:10:33Z</time>
      </trkpt>
      <trkpt lat="45.13539" lon="3.06879">
        <ele>1113</ele>
        <time>2024-05-08T19:11:07Z</time>
      </trkpt>
      <trkpt lat="45.13554" lon="3.06824">
        <ele>1111</ele>
        <time>2024-05-08T19:11:17Z</time>
      </trkpt>
      <trkpt lat="45.1356" lon="3.06787">
        <ele>1111</ele>
        <time>2024-05-08T19:11:23Z</time>
      </trkpt>
      <trkpt lat="45.13566" lon="3.06736">
        <ele>1110</ele>
        <time>2024-05-08T19:11:31Z</time>
      </trkpt>
      <trkpt lat="45.13569" lon="3.06663">
        <ele>1108</ele>
        <time>2024-05-08T19:11:43Z</time>
      </trkpt>
      <trkpt lat="45.13567" lon="3.06641">
        <ele>1108</ele>
        <time>2024-05-08T19:11:47Z</time>
      </trkpt>
      <trkpt lat="45.1356" lon="3.06609">
        <ele>1107</ele>
        <time>2024-05-08T19:11:53Z</time>
      </trkpt>
      <trkpt lat="45.13561" lon="3.06599">
        <ele>1107</ele>
        <time>2024-05-08T19:11:54Z</time>
      </trkpt>
      <trkpt lat="45.1366" lon="3.06421">
        <ele>1108</ele>
        <time>2024-05-08T19:12:32Z</time>
      </trkpt>
      <trkpt lat="45.13683" lon="3.06371">
        <ele>1108</ele>
        <time>2024-05-08T19:12:41Z</time>
      </trkpt>
      <trkpt lat="45.13727" lon="3.06262">
        <ele>1107</ele>
        <time>2024-05-08T19:13:02Z</time>
      </trkpt>
      <trkpt lat="45.1377" lon="3.0617">
        <ele>1107</ele>
        <time>2024-05-08T19:13:20Z</time>
      </trkpt>
      <trkpt lat="45.13794" lon="3.06125">
        <ele>1106</ele>
        <time>2024-05-08T19:13:30Z</time>
      </trkpt>
      <trkpt lat="45.13797" lon="3.06115">
        <ele>1106</ele>
        <time>2024-05-08T19:13:31Z</time>
      </trkpt>
      <trkpt lat="45.13893" lon="3.05962">
        <ele>1098</ele>
        <time>2024-05-08T19:14:05Z</time>
      </trkpt>
      <trkpt lat="45.1391" lon="3.05932">
        <ele>1096</ele>
        <time>2024-05-08T19:14:12Z</time>
      </trkpt>
      <trkpt lat="45.13912" lon="3.05922">
        <ele>1095</ele>
        <time>2024-05-08T19:14:13Z</time>
      </trkpt>
      <trkpt lat="45.1391" lon="3.05913">
        <ele>1094</ele>
        <time>2024-05-08T19:14:15Z</time>
      </trkpt>
      <trkpt lat="45.13906" lon="3.05909">
        <ele>1094</ele>
        <time>2024-05-08T19:14:16Z</time>
      </trkpt>
      <trkpt lat="45.13871" lon="3.05901">
        <ele>1093</ele>
        <time>2024-05-08T19:14:24Z</time>
      </trkpt>
      <trkpt lat="45.13849" lon="3.05899">
        <ele>1093</ele>
        <time>2024-05-08T19:14:29Z</time>
      </trkpt>
      <trkpt lat="45.13809" lon="3.05901">
        <ele>1093</ele>
        <time>2024-05-08T19:14:39Z</time>
      </trkpt>
      <trkpt lat="45.13783" lon="3.05897">
        <ele>1094</ele>
        <time>2024-05-08T19:14:45Z</time>
      </trkpt>
      <trkpt lat="45.13762" lon="3.05884">
        <ele>1094</ele>
        <time>2024-05-08T19:14:50Z</time>
      </trkpt>
      <trkpt lat="45.137" lon="3.0583">
        <ele>1096</ele>
        <time>2024-05-08T19:15:07Z</time>
      </trkpt>
      <trkpt lat="45.13674" lon="3.05818">
        <ele>1097</ele>
        <time>2024-05-08T19:15:14Z</time>
      </trkpt>
      <trkpt lat="45.13646" lon="3.05818">
        <ele>1096</ele>
        <time>2024-05-08T19:15:20Z</time>
      </trkpt>
      <trkpt lat="45.13635" lon="3.05822">
        <ele>1096</ele>
        <time>2024-05-08T19:15:23Z</time>
      </trkpt>
      <trkpt lat="45.13623" lon="3.05823">
        <ele>1095</ele>
        <time>2024-05-08T19:15:26Z</time>
      </trkpt>
      <trkpt lat="45.13578" lon="3.05815">
        <ele>1093</ele>
        <time>2024-05-08T19:15:36Z</time>
      </trkpt>
      <trkpt lat="45.13563" lon="3.05806">
        <ele>1092</ele>
        <time>2024-05-08T19:15:40Z</time>
      </trkpt>
      <trkpt lat="45.13498" lon="3.05756">
        <ele>1087</ele>
        <time>2024-05-08T19:15:57Z</time>
      </trkpt>
      <trkpt lat="45.13487" lon="3.05741">
        <ele>1086</ele>
        <time>2024-05-08T19:16:01Z</time>
      </trkpt>
      <trkpt lat="45.13473" lon="3.05712">
        <ele>1086</ele>
        <time>2024-05-08T19:16:07Z</time>
      </trkpt>
      <trkpt lat="45.13452" lon="3.05659">
        <ele>1084</ele>
        <time>2024-05-08T19:16:17Z</time>
      </trkpt>
      <trkpt lat="45.13438" lon="3.05513">
        <ele>1077</ele>
        <time>2024-05-08T19:16:41Z</time>
      </trkpt>
      <trkpt lat="45.13435" lon="3.05465">
        <ele>1077</ele>
        <time>2024-05-08T19:16:49Z</time>
      </trkpt>
      <trkpt lat="45.13436" lon="3.05444">
        <ele>1078</ele>
        <time>2024-05-08T19:16:52Z</time>
      </trkpt>
      <trkpt lat="45.13442" lon="3.05426">
        <ele>1077</ele>
        <time>2024-05-08T19:16:56Z</time>
      </trkpt>
      <trkpt lat="45.13464" lon="3.05402">
        <ele>1076</ele>
        <time>2024-05-08T19:17:02Z</time>
      </trkpt>
      <trkpt lat="45.13517" lon="3.0533">
        <ele>1076</ele>
        <time>2024-05-08T19:17:19Z</time>
      </trkpt>
      <trkpt lat="45.13626" lon="3.05222">
        <ele>1078</ele>
        <time>2024-05-08T19:17:50Z</time>
      </trkpt>
      <trkpt lat="45.13652" lon="3.05205">
        <ele>1078</ele>
        <time>2024-05-08T19:17:57Z</time>
      </trkpt>
      <trkpt lat="45.13698" lon="3.05184">
        <ele>1078</ele>
        <time>2024-05-08T19:18:08Z</time>
      </trkpt>
      <trkpt lat="45.13769" lon="3.05147">
        <ele>1080</ele>
        <time>2024-05-08T19:18:26Z</time>
      </trkpt>
      <trkpt lat="45.13787" lon="3.05136">
        <ele>1080</ele>
        <time>2024-05-08T19:18:30Z</time>
      </trkpt>
      <trkpt lat="45.13809" lon="3.05115">
        <ele>1079</ele>
        <time>2024-05-08T19:18:37Z</time>
      </trkpt>
      <trkpt lat="45.13819" lon="3.05097">
        <ele>1079</ele>
        <time>2024-05-08T19:18:40Z</time>
      </trkpt>
      <trkpt lat="45.13834" lon="3.05057">
        <ele>1078</ele>
        <time>2024-05-08T19:18:48Z</time>
      </trkpt>
      <trkpt lat="45.13868" lon="3.04996">
        <ele>1075</ele>
        <time>2024-05-08T19:19:01Z</time>
      </trkpt>
      <trkpt lat="45.1391" lon="3.0491">
        <ele>1074</ele>
        <time>2024-05-08T19:19:18Z</time>
      </trkpt>
      <trkpt lat="45.13927" lon="3.0487">
        <ele>1072</ele>
        <time>2024-05-08T19:19:26Z</time>
      </trkpt>
      <trkpt lat="45.13945" lon="3.04782">
        <ele>1070</ele>
        <time>2024-05-08T19:19:41Z</time>
      </trkpt>
      <trkpt lat="45.13951" lon="3.04676">
        <ele>1067</ele>
        <time>2024-05-08T19:19:58Z</time>
      </trkpt>
      <trkpt lat="45.14005" lon="3.04521">
        <ele>1061</ele>
        <time>2024-05-08T19:20:27Z</time>
      </trkpt>
      <trkpt lat="45.14014" lon="3.04501">
        <ele>1059</ele>
        <time>2024-05-08T19:20:31Z</time>
      </trkpt>
      <trkpt lat="45.14026" lon="3.04482">
        <ele>1058</ele>
        <time>2024-05-08T19:20:35Z</time>
      </trkpt>
      <trkpt lat="45.14068" lon="3.04439">
        <ele>1052</ele>
        <time>2024-05-08T19:20:47Z</time>
      </trkpt>
      <trkpt lat="45.14108" lon="3.0442">
        <ele>1045</ele>
        <time>2024-05-08T19:20:57Z</time>
      </trkpt>
      <trkpt lat="45.1414" lon="3.04397">
        <ele>1040</ele>
        <time>2024-05-08T19:21:05Z</time>
      </trkpt>
      <trkpt lat="45.14152" lon="3.04382">
        <ele>1038</ele>
        <time>2024-05-08T19:21:09Z</time>
      </trkpt>
      <trkpt lat="45.1417" lon="3.04339">
        <ele>1038</ele>
        <time>2024-05-08T19:21:17Z</time>
      </trkpt>
      <trkpt lat="45.14189" lon="3.04315">
        <ele>1038</ele>
        <time>2024-05-08T19:21:23Z</time>
      </trkpt>
      <trkpt lat="45.1424" lon="3.04285">
        <ele>1034</ele>
        <time>2024-05-08T19:21:36Z</time>
      </trkpt>
      <trkpt lat="45.14273" lon="3.04274">
        <ele>1037</ele>
        <time>2024-05-08T19:21:44Z</time>
      </trkpt>
      <trkpt lat="45.1429" lon="3.04277">
        <ele>1038</ele>
        <time>2024-05-08T19:21:48Z</time>
      </trkpt>
      <trkpt lat="45.14331" lon="3.04296">
        <ele>1041</ele>
        <time>2024-05-08T19:21:58Z</time>
      </trkpt>
      <trkpt lat="45.14348" lon="3.04306">
        <ele>1043</ele>
        <time>2024-05-08T19:22:02Z</time>
      </trkpt>
      <trkpt lat="45.14361" lon="3.04319">
        <ele>1044</ele>
        <time>2024-05-08T19:22:06Z</time>
      </trkpt>
      <trkpt lat="45.14374" lon="3.04327">
        <ele>1045</ele>
        <time>2024-05-08T19:22:09Z</time>
      </trkpt>
      <trkpt lat="45.1438" lon="3.04329">
        <ele>1046</ele>
        <time>2024-05-08T19:22:11Z</time>
      </trkpt>
      <trkpt lat="45.14394" lon="3.04326">
        <ele>1048</ele>
        <time>2024-05-08T19:22:14Z</time>
      </trkpt>
      <trkpt lat="45.14412" lon="3.04312">
        <ele>1052</ele>
        <time>2024-05-08T19:22:19Z</time>
      </trkpt>
      <trkpt lat="45.1443" lon="3.04304">
        <ele>1054</ele>
        <time>2024-05-08T19:22:23Z</time>
      </trkpt>
      <trkpt lat="45.14443" lon="3.04295">
        <ele>1056</ele>
        <time>2024-05-08T19:22:27Z</time>
      </trkpt>
      <trkpt lat="45.14458" lon="3.0429">
        <ele>1058</ele>
        <time>2024-05-08T19:22:30Z</time>
      </trkpt>
      <trkpt lat="45.14493" lon="3.04269">
        <ele>1061</ele>
        <time>2024-05-08T19:22:39Z</time>
      </trkpt>
      <trkpt lat="45.1451" lon="3.04251">
        <ele>1062</ele>
        <time>2024-05-08T19:22:44Z</time>
      </trkpt>
      <trkpt lat="45.14558" lon="3.04214">
        <ele>1063</ele>
        <time>2024-05-08T19:22:57Z</time>
      </trkpt>
      <trkpt lat="45.14699" lon="3.04109">
        <ele>1060</ele>
        <time>2024-05-08T19:23:34Z</time>
      </trkpt>
      <trkpt lat="45.14724" lon="3.04103">
        <ele>1061</ele>
        <time>2024-05-08T19:23:40Z</time>
      </trkpt>
      <trkpt lat="45.14738" lon="3.04107">
        <ele>1060</ele>
        <time>2024-05-08T19:23:43Z</time>
      </trkpt>
      <trkpt lat="45.14765" lon="3.04124">
        <ele>1059</ele>
        <time>2024-05-08T19:23:50Z</time>
      </trkpt>
      <trkpt lat="45.14792" lon="3.04147">
        <ele>1058</ele>
        <time>2024-05-08T19:23:57Z</time>
      </trkpt>
      <trkpt lat="45.14819" lon="3.04151">
        <ele>1059</ele>
        <time>2024-05-08T19:24:04Z</time>
      </trkpt>
      <trkpt lat="45.14844" lon="3.04159">
        <ele>1059</ele>
        <time>2024-05-08T19:24:10Z</time>
      </trkpt>
      <trkpt lat="45.1487" lon="3.04171">
        <ele>1057</ele>
        <time>2024-05-08T19:24:16Z</time>
      </trkpt>
      <trkpt lat="45.14892" lon="3.04165">
        <ele>1056</ele>
        <time>2024-05-08T19:24:21Z</time>
      </trkpt>
      <trkpt lat="45.14907" lon="3.04157">
        <ele>1056</ele>
        <time>2024-05-08T19:24:25Z</time>
      </trkpt>
      <trkpt lat="45.14918" lon="3.04142">
        <ele>1055</ele>
        <time>2024-05-08T19:24:29Z</time>
      </trkpt>
      <trkpt lat="45.14929" lon="3.04121">
        <ele>1055</ele>
        <time>2024-05-08T19:24:33Z</time>
      </trkpt>
      <trkpt lat="45.14932" lon="3.04108">
        <ele>1055</ele>
        <time>2024-05-08T19:24:35Z</time>
      </trkpt>
      <trkpt lat="45.14932" lon="3.04094">
        <ele>1055</ele>
        <time>2024-05-08T19:24:38Z</time>
      </trkpt>
      <trkpt lat="45.1492" lon="3.04015">
        <ele>1056</ele>
        <time>2024-05-08T19:24:51Z</time>
      </trkpt>
      <trkpt lat="45.149" lon="3.03825">
        <ele>1061</ele>
        <time>2024-05-08T19:25:23Z</time>
      </trkpt>
      <trkpt lat="45.14897" lon="3.03811">
        <ele>1062</ele>
        <time>2024-05-08T19:25:25Z</time>
      </trkpt>
      <trkpt lat="45.14883" lon="3.03778">
        <ele>1064</ele>
        <time>2024-05-08T19:25:31Z</time>
      </trkpt>
      <trkpt lat="45.14875" lon="3.03728">
        <ele>1066</ele>
        <time>2024-05-08T19:25:40Z</time>
      </trkpt>
      <trkpt lat="45.14874" lon="3.03706">
        <ele>1066</ele>
        <time>2024-05-08T19:25:43Z</time>
      </trkpt>
      <trkpt lat="45.14883" lon="3.03614">
        <ele>1068</ele>
        <time>2024-05-08T19:25:59Z</time>
      </trkpt>
      <trkpt lat="45.14881" lon="3.03599">
        <ele>1068</ele>
        <time>2024-05-08T19:26:01Z</time>
      </trkpt>
      <trkpt lat="45.14872" lon="3.03577">
        <ele>1067</ele>
        <time>2024-05-08T19:26:05Z</time>
      </trkpt>
      <trkpt lat="45.1485" lon="3.03554">
        <ele>1063</ele>
        <time>2024-05-08T19:26:12Z</time>
      </trkpt>
      <trkpt lat="45.14806" lon="3.03489">
        <ele>1056</ele>
        <time>2024-05-08T19:26:27Z</time>
      </trkpt>
      <trkpt lat="45.14796" lon="3.03462">
        <ele>1052</ele>
        <time>2024-05-08T19:26:32Z</time>
      </trkpt>
      <trkpt lat="45.14767" lon="3.03432">
        <ele>1048</ele>
        <time>2024-05-08T19:26:40Z</time>
      </trkpt>
      <trkpt lat="45.14746" lon="3.03414">
        <ele>1046</ele>
        <time>2024-05-08T19:26:46Z</time>
      </trkpt>
      <trkpt lat="45.14726" lon="3.03385">
        <ele>1047</ele>
        <time>2024-05-08T19:26:52Z</time>
      </trkpt>
      <trkpt lat="45.14703" lon="3.03326">
        <ele>1043</ele>
        <time>2024-05-08T19:27:03Z</time>
      </trkpt>
      <trkpt lat="45.14688" lon="3.03295">
        <ele>1043</ele>
        <time>2024-05-08T19:27:10Z</time>
      </trkpt>
      <trkpt lat="45.14683" lon="3.03266">
        <ele>1039</ele>
        <time>2024-05-08T19:27:15Z</time>
      </trkpt>
      <trkpt lat="45.14676" lon="3.03246">
        <ele>1038</ele>
        <time>2024-05-08T19:27:18Z</time>
      </trkpt>
      <trkpt lat="45.14665" lon="3.03225">
        <ele>1041</ele>
        <time>2024-05-08T19:27:23Z</time>
      </trkpt>
      <trkpt lat="45.14655" lon="3.03212">
        <ele>1045</ele>
        <time>2024-05-08T19:27:26Z</time>
      </trkpt>
      <trkpt lat="45.14653" lon="3.032">
        <ele>1045</ele>
        <time>2024-05-08T19:27:28Z</time>
      </trkpt>
      <trkpt lat="45.14655" lon="3.03179">
        <ele>1043</ele>
        <time>2024-05-08T19:27:31Z</time>
      </trkpt>
      <trkpt lat="45.14682" lon="3.03082">
        <ele>1024</ele>
        <time>2024-05-08T19:27:48Z</time>
      </trkpt>
      <trkpt lat="45.14706" lon="3.03015">
        <ele>1014</ele>
        <time>2024-05-08T19:28:01Z</time>
      </trkpt>
      <trkpt lat="45.14718" lon="3.02988">
        <ele>1009</ele>
        <time>2024-05-08T19:28:06Z</time>
      </trkpt>
      <trkpt lat="45.14721" lon="3.02955">
        <ele>1006</ele>
        <time>2024-05-08T19:28:12Z</time>
      </trkpt>
      <trkpt lat="45.14714" lon="3.02936">
        <ele>1009</ele>
        <time>2024-05-08T19:28:15Z</time>
      </trkpt>
      <trkpt lat="45.14714" lon="3.02915">
        <ele>1009</ele>
        <time>2024-05-08T19:28:19Z</time>
      </trkpt>
      <trkpt lat="45.1472" lon="3.02931">
        <ele>1006</ele>
        <time>2024-05-08T19:28:22Z</time>
      </trkpt>
      <trkpt lat="45.14715" lon="3.02905">
        <ele>1008</ele>
        <time>2024-05-08T19:28:26Z</time>
      </trkpt>
      <trkpt lat="45.14716" lon="3.02854">
        <ele>1004</ele>
        <time>2024-05-08T19:28:34Z</time>
      </trkpt>
      <trkpt lat="45.14728" lon="3.02812">
        <ele>996</ele>
        <time>2024-05-08T19:28:42Z</time>
      </trkpt>
      <trkpt lat="45.14727" lon="3.02808">
        <ele>997</ele>
        <time>2024-05-08T19:28:43Z</time>
      </trkpt>
      <trkpt lat="45.1474" lon="3.02767">
        <ele>990</ele>
        <time>2024-05-08T19:28:50Z</time>
      </trkpt>
      <trkpt lat="45.1474" lon="3.02733">
        <ele>989</ele>
        <time>2024-05-08T19:28:56Z</time>
      </trkpt>
      <trkpt lat="45.14744" lon="3.02717">
        <ele>986</ele>
        <time>2024-05-08T19:28:58Z</time>
      </trkpt>
      <trkpt lat="45.14744" lon="3.027">
        <ele>986</ele>
        <time>2024-05-08T19:29:01Z</time>
      </trkpt>
      <trkpt lat="45.14752" lon="3.02653">
        <ele>979</ele>
        <time>2024-05-08T19:29:09Z</time>
      </trkpt>
      <trkpt lat="45.1475" lon="3.02627">
        <ele>974</ele>
        <time>2024-05-08T19:29:13Z</time>
      </trkpt>
      <trkpt lat="45.14745" lon="3.02622">
        <ele>975</ele>
        <time>2024-05-08T19:29:15Z</time>
      </trkpt>
      <trkpt lat="45.14732" lon="3.02617">
        <ele>977</ele>
        <time>2024-05-08T19:29:18Z</time>
      </trkpt>
      <trkpt lat="45.14723" lon="3.02609">
        <ele>977</ele>
        <time>2024-05-08T19:29:20Z</time>
      </trkpt>
      <trkpt lat="45.14718" lon="3.02598">
        <ele>976</ele>
        <time>2024-05-08T19:29:23Z</time>
      </trkpt>
      <trkpt lat="45.147" lon="3.02583">
        <ele>975</ele>
        <time>2024-05-08T19:29:27Z</time>
      </trkpt>
      <trkpt lat="45.1468" lon="3.02575">
        <ele>976</ele>
        <time>2024-05-08T19:29:32Z</time>
      </trkpt>
      <trkpt lat="45.14639" lon="3.02566">
        <ele>976</ele>
        <time>2024-05-08T19:29:42Z</time>
      </trkpt>
      <trkpt lat="45.14631" lon="3.02571">
        <ele>978</ele>
        <time>2024-05-08T19:29:44Z</time>
      </trkpt>
      <trkpt lat="45.14622" lon="3.02572">
        <ele>979</ele>
        <time>2024-05-08T19:29:46Z</time>
      </trkpt>
      <trkpt lat="45.14611" lon="3.0258">
        <ele>983</ele>
        <time>2024-05-08T19:29:49Z</time>
      </trkpt>
      <trkpt lat="45.14607" lon="3.02579">
        <ele>983</ele>
        <time>2024-05-08T19:29:50Z</time>
      </trkpt>
      <trkpt lat="45.1459" lon="3.02585">
        <ele>985</ele>
        <time>2024-05-08T19:29:54Z</time>
      </trkpt>
      <trkpt lat="45.14575" lon="3.02593">
        <ele>991</ele>
        <time>2024-05-08T19:29:58Z</time>
      </trkpt>
      <trkpt lat="45.14481" lon="3.02517">
        <ele>1011</ele>
        <time>2024-05-08T19:30:23Z</time>
      </trkpt>
      <trkpt lat="45.14484" lon="3.02489">
        <ele>1004</ele>
        <time>2024-05-08T19:30:28Z</time>
      </trkpt>
      <trkpt lat="45.1448" lon="3.02468">
        <ele>1001</ele>
        <time>2024-05-08T19:30:31Z</time>
      </trkpt>
      <trkpt lat="45.14462" lon="3.02442">
        <ele>1002</ele>
        <time>2024-05-08T19:30:37Z</time>
      </trkpt>
      <trkpt lat="45.14437" lon="3.02397">
        <ele>999</ele>
        <time>2024-05-08T19:30:47Z</time>
      </trkpt>
      <trkpt lat="45.14427" lon="3.02386">
        <ele>999</ele>
        <time>2024-05-08T19:30:50Z</time>
      </trkpt>
      <trkpt lat="45.14422" lon="3.02384">
        <ele>1000</ele>
        <time>2024-05-08T19:30:51Z</time>
      </trkpt>
      <trkpt lat="45.14411" lon="3.02387">
        <ele>1001</ele>
        <time>2024-05-08T19:30:54Z</time>
      </trkpt>
      <trkpt lat="45.14403" lon="3.02393">
        <ele>1001</ele>
        <time>2024-05-08T19:30:56Z</time>
      </trkpt>
      <trkpt lat="45.14374" lon="3.02436">
        <ele>1006</ele>
        <time>2024-05-08T19:31:06Z</time>
      </trkpt>
      <trkpt lat="45.14347" lon="3.02464">
        <ele>1009</ele>
        <time>2024-05-08T19:31:13Z</time>
      </trkpt>
      <trkpt lat="45.14322" lon="3.02496">
        <ele>1011</ele>
        <time>2024-05-08T19:31:21Z</time>
      </trkpt>
      <trkpt lat="45.14307" lon="3.02518">
        <ele>1011</ele>
        <time>2024-05-08T19:31:26Z</time>
      </trkpt>
      <trkpt lat="45.14283" lon="3.02573">
        <ele>1014</ele>
        <time>2024-05-08T19:31:37Z</time>
      </trkpt>
      <trkpt lat="45.14257" lon="3.02625">
        <ele>1018</ele>
        <time>2024-05-08T19:31:47Z</time>
      </trkpt>
      <trkpt lat="45.14246" lon="3.02641">
        <ele>1020</ele>
        <time>2024-05-08T19:31:51Z</time>
      </trkpt>
      <trkpt lat="45.14214" lon="3.02668">
        <ele>1024</ele>
        <time>2024-05-08T19:32:00Z</time>
      </trkpt>
      <trkpt lat="45.14204" lon="3.0267">
        <ele>1024</ele>
        <time>2024-05-08T19:32:02Z</time>
      </trkpt>
      <trkpt lat="45.1417" lon="3.02664">
        <ele>1016</ele>
        <time>2024-05-08T19:32:10Z</time>
      </trkpt>
      <trkpt lat="45.14116" lon="3.02644">
        <ele>1003</ele>
        <time>2024-05-08T19:32:23Z</time>
      </trkpt>
      <trkpt lat="45.14076" lon="3.02672">
        <ele>1011</ele>
        <time>2024-05-08T19:32:34Z</time>
      </trkpt>
      <trkpt lat="45.14045" lon="3.02706">
        <ele>1025</ele>
        <time>2024-05-08T19:32:43Z</time>
      </trkpt>
      <trkpt lat="45.14039" lon="3.02709">
        <ele>1026</ele>
        <time>2024-05-08T19:32:44Z</time>
      </trkpt>
      <trkpt lat="45.14033" lon="3.02708">
        <ele>1026</ele>
        <time>2024-05-08T19:32:46Z</time>
      </trkpt>
      <trkpt lat="45.1401" lon="3.02692">
        <ele>1021</ele>
        <time>2024-05-08T19:32:52Z</time>
      </trkpt>
      <trkpt lat="45.13989" lon="3.02687">
        <ele>1022</ele>
        <time>2024-05-08T19:32:57Z</time>
      </trkpt>
      <trkpt lat="45.13975" lon="3.0268">
        <ele>1023</ele>
        <time>2024-05-08T19:33:00Z</time>
      </trkpt>
      <trkpt lat="45.13955" lon="3.02664">
        <ele>1022</ele>
        <time>2024-05-08T19:33:05Z</time>
      </trkpt>
      <trkpt lat="45.13937" lon="3.02656">
        <ele>1024</ele>
        <time>2024-05-08T19:33:10Z</time>
      </trkpt>
      <trkpt lat="45.13893" lon="3.02651">
        <ele>1030</ele>
        <time>2024-05-08T19:33:20Z</time>
      </trkpt>
      <trkpt lat="45.13849" lon="3.02636">
        <ele>1031</ele>
        <time>2024-05-08T19:33:31Z</time>
      </trkpt>
      <trkpt lat="45.13826" lon="3.02621">
        <ele>1030</ele>
        <time>2024-05-08T19:33:37Z</time>
      </trkpt>
      <trkpt lat="45.13807" lon="3.02619">
        <ele>1029</ele>
        <time>2024-05-08T19:33:41Z</time>
      </trkpt>
      <trkpt lat="45.13786" lon="3.02628">
        <ele>1030</ele>
        <time>2024-05-08T19:33:46Z</time>
      </trkpt>
      <trkpt lat="45.13744" lon="3.02655">
        <ele>1031</ele>
        <time>2024-05-08T19:33:57Z</time>
      </trkpt>
      <trkpt lat="45.13729" lon="3.02659">
        <ele>1030</ele>
        <time>2024-05-08T19:34:01Z</time>
      </trkpt>
      <trkpt lat="45.13702" lon="3.02672">
        <ele>1027</ele>
        <time>2024-05-08T19:34:07Z</time>
      </trkpt>
      <trkpt lat="45.13688" lon="3.02674">
        <ele>1025</ele>
        <time>2024-05-08T19:34:10Z</time>
      </trkpt>
      <trkpt lat="45.13667" lon="3.02683">
        <ele>1023</ele>
        <time>2024-05-08T19:34:16Z</time>
      </trkpt>
      <trkpt lat="45.13651" lon="3.02685">
        <ele>1021</ele>
        <time>2024-05-08T19:34:19Z</time>
      </trkpt>
      <trkpt lat="45.13616" lon="3.02684">
        <ele>1015</ele>
        <time>2024-05-08T19:34:27Z</time>
      </trkpt>
      <trkpt lat="45.13603" lon="3.02689">
        <ele>1014</ele>
        <time>2024-05-08T19:34:31Z</time>
      </trkpt>
      <trkpt lat="45.1359" lon="3.02697">
        <ele>1013</ele>
        <time>2024-05-08T19:34:34Z</time>
      </trkpt>
      <trkpt lat="45.13549" lon="3.02738">
        <ele>1011</ele>
        <time>2024-05-08T19:34:46Z</time>
      </trkpt>
      <trkpt lat="45.13484" lon="3.02787">
        <ele>1010</ele>
        <time>2024-05-08T19:35:03Z</time>
      </trkpt>
      <trkpt lat="45.13446" lon="3.02798">
        <ele>1008</ele>
        <time>2024-05-08T19:35:12Z</time>
      </trkpt>
      <trkpt lat="45.13431" lon="3.02799">
        <ele>1007</ele>
        <time>2024-05-08T19:35:15Z</time>
      </trkpt>
      <trkpt lat="45.13405" lon="3.02795">
        <ele>1005</ele>
        <time>2024-05-08T19:35:22Z</time>
      </trkpt>
      <trkpt lat="45.13353" lon="3.0278">
        <ele>1004</ele>
        <time>2024-05-08T19:35:34Z</time>
      </trkpt>
      <trkpt lat="45.13279" lon="3.02769">
        <ele>1003</ele>
        <time>2024-05-08T19:35:51Z</time>
      </trkpt>
      <trkpt lat="45.13245" lon="3.02759">
        <ele>1002</ele>
        <time>2024-05-08T19:35:59Z</time>
      </trkpt>
      <trkpt lat="45.1322" lon="3.02748">
        <ele>1001</ele>
        <time>2024-05-08T19:36:06Z</time>
      </trkpt>
      <trkpt lat="45.13213" lon="3.02749">
        <ele>1001</ele>
        <time>2024-05-08T19:36:07Z</time>
      </trkpt>
      <trkpt lat="45.13182" lon="3.02741">
        <ele>999</ele>
        <time>2024-05-08T19:36:15Z</time>
      </trkpt>
      <trkpt lat="45.1317" lon="3.02743">
        <ele>999</ele>
        <time>2024-05-08T19:36:17Z</time>
      </trkpt>
      <trkpt lat="45.13134" lon="3.02757">
        <ele>998</ele>
        <time>2024-05-08T19:36:26Z</time>
      </trkpt>
      <trkpt lat="45.13118" lon="3.02768">
        <ele>998</ele>
        <time>2024-05-08T19:36:30Z</time>
      </trkpt>
      <trkpt lat="45.131" lon="3.02786">
        <ele>998</ele>
        <time>2024-05-08T19:36:35Z</time>
      </trkpt>
      <trkpt lat="45.13095" lon="3.02787">
        <ele>998</ele>
        <time>2024-05-08T19:36:37Z</time>
      </trkpt>
      <trkpt lat="45.13081" lon="3.0278">
        <ele>998</ele>
        <time>2024-05-08T19:36:40Z</time>
      </trkpt>
      <trkpt lat="45.13061" lon="3.02751">
        <ele>997</ele>
        <time>2024-05-08T19:36:47Z</time>
      </trkpt>
      <trkpt lat="45.13032" lon="3.02721">
        <ele>997</ele>
        <time>2024-05-08T19:36:55Z</time>
      </trkpt>
      <trkpt lat="45.1302" lon="3.02699">
        <ele>996</ele>
        <time>2024-05-08T19:37:00Z</time>
      </trkpt>
      <trkpt lat="45.13012" lon="3.02696">
        <ele>996</ele>
        <time>2024-05-08T19:37:02Z</time>
      </trkpt>
      <trkpt lat="45.13006" lon="3.02702">
        <ele>997</ele>
        <time>2024-05-08T19:37:03Z</time>
      </trkpt>
      <trkpt lat="45.12981" lon="3.02763">
        <ele>999</ele>
        <time>2024-05-08T19:37:15Z</time>
      </trkpt>
      <trkpt lat="45.12966" lon="3.02787">
        <ele>1000</ele>
        <time>2024-05-08T19:37:20Z</time>
      </trkpt>
      <trkpt lat="45.12958" lon="3.02793">
        <ele>1000</ele>
        <time>2024-05-08T19:37:22Z</time>
      </trkpt>
      <trkpt lat="45.12927" lon="3.02807">
        <ele>1000</ele>
        <time>2024-05-08T19:37:30Z</time>
      </trkpt>
      <trkpt lat="45.12818" lon="3.02874">
        <ele>997</ele>
        <time>2024-05-08T19:37:58Z</time>
      </trkpt>
      <trkpt lat="45.12794" lon="3.02892">
        <ele>997</ele>
        <time>2024-05-08T19:38:04Z</time>
      </trkpt>
      <trkpt lat="45.12735" lon="3.02962">
        <ele>995</ele>
        <time>2024-05-08T19:38:22Z</time>
      </trkpt>
      <trkpt lat="45.12729" lon="3.02978">
        <ele>995</ele>
        <time>2024-05-08T19:38:25Z</time>
      </trkpt>
      <trkpt lat="45.12721" lon="3.03014">
        <ele>995</ele>
        <time>2024-05-08T19:38:31Z</time>
      </trkpt>
      <trkpt lat="45.12716" lon="3.03024">
        <ele>995</ele>
        <time>2024-05-08T19:38:33Z</time>
      </trkpt>
      <trkpt lat="45.12644" lon="3.03073">
        <ele>993</ele>
        <time>2024-05-08T19:38:52Z</time>
      </trkpt>
      <trkpt lat="45.12598" lon="3.03127">
        <ele>992</ele>
        <time>2024-05-08T19:39:06Z</time>
      </trkpt>
      <trkpt lat="45.12588" lon="3.03133">
        <ele>992</ele>
        <time>2024-05-08T19:39:08Z</time>
      </trkpt>
      <trkpt lat="45.12553" lon="3.03136">
        <ele>991</ele>
        <time>2024-05-08T19:39:17Z</time>
      </trkpt>
      <trkpt lat="45.1254" lon="3.03134">
        <ele>991</ele>
        <time>2024-05-08T19:39:20Z</time>
      </trkpt>
      <trkpt lat="45.12535" lon="3.03131">
        <ele>990</ele>
        <time>2024-05-08T19:39:21Z</time>
      </trkpt>
      <trkpt lat="45.12524" lon="3.03117">
        <ele>990</ele>
        <time>2024-05-08T19:39:24Z</time>
      </trkpt>
      <trkpt lat="45.1247" lon="3.03071">
        <ele>989</ele>
        <time>2024-05-08T19:39:39Z</time>
      </trkpt>
      <trkpt lat="45.12414" lon="3.03038">
        <ele>987</ele>
        <time>2024-05-08T19:39:53Z</time>
      </trkpt>
      <trkpt lat="45.1235" lon="3.02994">
        <ele>983</ele>
        <time>2024-05-08T19:40:10Z</time>
      </trkpt>
      <trkpt lat="45.12316" lon="3.02974">
        <ele>981</ele>
        <time>2024-05-08T19:40:18Z</time>
      </trkpt>
      <trkpt lat="45.12281" lon="3.02958">
        <ele>978</ele>
        <time>2024-05-08T19:40:27Z</time>
      </trkpt>
      <trkpt lat="45.12267" lon="3.02948">
        <ele>977</ele>
        <time>2024-05-08T19:40:31Z</time>
      </trkpt>
      <trkpt lat="45.12254" lon="3.02934">
        <ele>976</ele>
        <time>2024-05-08T19:40:34Z</time>
      </trkpt>
      <trkpt lat="45.12182" lon="3.02835">
        <ele>971</ele>
        <time>2024-05-08T19:40:58Z</time>
      </trkpt>
      <trkpt lat="45.12171" lon="3.02824">
        <ele>970</ele>
        <time>2024-05-08T19:41:01Z</time>
      </trkpt>
      <trkpt lat="45.12087" lon="3.02784">
        <ele>965</ele>
        <time>2024-05-08T19:41:22Z</time>
      </trkpt>
      <trkpt lat="45.12059" lon="3.02768">
        <ele>962</ele>
        <time>2024-05-08T19:41:29Z</time>
      </trkpt>
      <trkpt lat="45.1201" lon="3.02746">
        <ele>958</ele>
        <time>2024-05-08T19:41:41Z</time>
      </trkpt>
      <trkpt lat="45.12002" lon="3.0275">
        <ele>957</ele>
        <time>2024-05-08T19:41:43Z</time>
      </trkpt>
      <trkpt lat="45.11997" lon="3.0276">
        <ele>957</ele>
        <time>2024-05-08T19:41:45Z</time>
      </trkpt>
      <trkpt lat="45.11958" lon="3.02914">
        <ele>953</ele>
        <time>2024-05-08T19:42:12Z</time>
      </trkpt>
      <trkpt lat="45.11945" lon="3.0294">
        <ele>952</ele>
        <time>2024-05-08T19:42:17Z</time>
      </trkpt>
      <trkpt lat="45.11935" lon="3.02955">
        <ele>952</ele>
        <time>2024-05-08T19:42:20Z</time>
      </trkpt>
      <trkpt lat="45.11922" lon="3.02967">
        <ele>952</ele>
        <time>2024-05-08T19:42:24Z</time>
      </trkpt>
      <trkpt lat="45.1184" lon="3.03024">
        <ele>953</ele>
        <time>2024-05-08T19:42:45Z</time>
      </trkpt>
      <trkpt lat="45.11821" lon="3.0304">
        <ele>954</ele>
        <time>2024-05-08T19:42:50Z</time>
      </trkpt>
      <trkpt lat="45.11812" lon="3.03044">
        <ele>954</ele>
        <time>2024-05-08T19:42:53Z</time>
      </trkpt>
      <trkpt lat="45.11807" lon="3.03042">
        <ele>954</ele>
        <time>2024-05-08T19:42:54Z</time>
      </trkpt>
      <trkpt lat="45.11795" lon="3.03019">
        <ele>952</ele>
        <time>2024-05-08T19:42:59Z</time>
      </trkpt>
      <trkpt lat="45.11785" lon="3.03009">
        <ele>952</ele>
        <time>2024-05-08T19:43:01Z</time>
      </trkpt>
      <trkpt lat="45.11727" lon="3.02991">
        <ele>950</ele>
        <time>2024-05-08T19:43:15Z</time>
      </trkpt>
      <trkpt lat="45.11648" lon="3.02972">
        <ele>949</ele>
        <time>2024-05-08T19:43:34Z</time>
      </trkpt>
      <trkpt lat="45.11566" lon="3.02962">
        <ele>948</ele>
        <time>2024-05-08T19:43:53Z</time>
      </trkpt>
      <trkpt lat="45.11552" lon="3.02962">
        <ele>948</ele>
        <time>2024-05-08T19:43:57Z</time>
      </trkpt>
      <trkpt lat="45.11539" lon="3.02965">
        <ele>948</ele>
        <time>2024-05-08T19:44:00Z</time>
      </trkpt>
      <trkpt lat="45.11512" lon="3.02975">
        <ele>948</ele>
        <time>2024-05-08T19:44:06Z</time>
      </trkpt>
      <trkpt lat="45.11494" lon="3.02985">
        <ele>948</ele>
        <time>2024-05-08T19:44:11Z</time>
      </trkpt>
      <trkpt lat="45.11449" lon="3.03022">
        <ele>948</ele>
        <time>2024-05-08T19:44:23Z</time>
      </trkpt>
      <trkpt lat="45.11402" lon="3.03049">
        <ele>949</ele>
        <time>2024-05-08T19:44:35Z</time>
      </trkpt>
      <trkpt lat="45.11343" lon="3.03095">
        <ele>950</ele>
        <time>2024-05-08T19:44:50Z</time>
      </trkpt>
      <trkpt lat="45.1121" lon="3.03213">
        <ele>951</ele>
        <time>2024-05-08T19:45:27Z</time>
      </trkpt>
      <trkpt lat="45.11177" lon="3.0325">
        <ele>950</ele>
        <time>2024-05-08T19:45:37Z</time>
      </trkpt>
      <trkpt lat="45.11175" lon="3.03258">
        <ele>950</ele>
        <time>2024-05-08T19:45:38Z</time>
      </trkpt>
      <trkpt lat="45.11169" lon="3.0325">
        <ele>950</ele>
        <time>2024-05-08T19:45:40Z</time>
      </trkpt>
      <trkpt lat="45.11165" lon="3.0323">
        <ele>950</ele>
        <time>2024-05-08T19:45:44Z</time>
      </trkpt>
      <trkpt lat="45.11142" lon="3.03167">
        <ele>948</ele>
        <time>2024-05-08T19:45:55Z</time>
      </trkpt>
      <trkpt lat="45.11117" lon="3.03081">
        <ele>946</ele>
        <time>2024-05-08T19:46:11Z</time>
      </trkpt>
      <trkpt lat="45.11111" lon="3.03044">
        <ele>946</ele>
        <time>2024-05-08T19:46:17Z</time>
      </trkpt>
      <trkpt lat="45.11104" lon="3.0296">
        <ele>945</ele>
        <time>2024-05-08T19:46:31Z</time>
      </trkpt>
      <trkpt lat="45.11094" lon="3.02892">
        <ele>945</ele>
        <time>2024-05-08T19:46:42Z</time>
      </trkpt>
      <trkpt lat="45.11082" lon="3.02831">
        <ele>945</ele>
        <time>2024-05-08T19:46:53Z</time>
      </trkpt>
      <trkpt lat="45.11076" lon="3.02818">
        <ele>945</ele>
        <time>2024-05-08T19:46:55Z</time>
      </trkpt>
      <trkpt lat="45.11062" lon="3.02814">
        <ele>945</ele>
        <time>2024-05-08T19:46:59Z</time>
      </trkpt>
      <trkpt lat="45.11052" lon="3.02816">
        <ele>945</ele>
        <time>2024-05-08T19:47:01Z</time>
      </trkpt>
      <trkpt lat="45.10925" lon="3.02868">
        <ele>941</ele>
        <time>2024-05-08T19:47:32Z</time>
      </trkpt>
      <trkpt lat="45.10832" lon="3.02909">
        <ele>939</ele>
        <time>2024-05-08T19:47:55Z</time>
      </trkpt>
      <trkpt lat="45.10819" lon="3.02913">
        <ele>939</ele>
        <time>2024-05-08T19:47:58Z</time>
      </trkpt>
      <trkpt lat="45.10808" lon="3.0291">
        <ele>939</ele>
        <time>2024-05-08T19:48:00Z</time>
      </trkpt>
      <trkpt lat="45.10795" lon="3.02886">
        <ele>939</ele>
        <time>2024-05-08T19:48:05Z</time>
      </trkpt>
      <trkpt lat="45.10781" lon="3.02823">
        <ele>939</ele>
        <time>2024-05-08T19:48:16Z</time>
      </trkpt>
      <trkpt lat="45.10774" lon="3.02767">
        <ele>941</ele>
        <time>2024-05-08T19:48:26Z</time>
      </trkpt>
      <trkpt lat="45.10768" lon="3.02661">
        <ele>944</ele>
        <time>2024-05-08T19:48:43Z</time>
      </trkpt>
      <trkpt lat="45.10759" lon="3.02627">
        <ele>944</ele>
        <time>2024-05-08T19:48:49Z</time>
      </trkpt>
      <trkpt lat="45.10749" lon="3.02605">
        <ele>945</ele>
        <time>2024-05-08T19:48:53Z</time>
      </trkpt>
      <trkpt lat="45.10736" lon="3.02585">
        <ele>945</ele>
        <time>2024-05-08T19:48:58Z</time>
      </trkpt>
      <trkpt lat="45.10688" lon="3.02522">
        <ele>945</ele>
        <time>2024-05-08T19:49:13Z</time>
      </trkpt>
      <trkpt lat="45.10647" lon="3.02455">
        <ele>944</ele>
        <time>2024-05-08T19:49:28Z</time>
      </trkpt>
      <trkpt lat="45.10623" lon="3.02407">
        <ele>943</ele>
        <time>2024-05-08T19:49:37Z</time>
      </trkpt>
      <trkpt lat="45.10603" lon="3.02341">
        <ele>943</ele>
        <time>2024-05-08T19:49:49Z</time>
      </trkpt>
      <trkpt lat="45.106" lon="3.02338">
        <ele>943</ele>
        <time>2024-05-08T19:49:50Z</time>
      </trkpt>
      <trkpt lat="45.10592" lon="3.02337">
        <ele>943</ele>
        <time>2024-05-08T19:49:52Z</time>
      </trkpt>
      <trkpt lat="45.10579" lon="3.02346">
        <ele>943</ele>
        <time>2024-05-08T19:49:55Z</time>
      </trkpt>
      <trkpt lat="45.10568" lon="3.02359">
        <ele>944</ele>
        <time>2024-05-08T19:49:59Z</time>
      </trkpt>
      <trkpt lat="45.10565" lon="3.02359">
        <ele>944</ele>
        <time>2024-05-08T19:49:59Z</time>
      </trkpt>
      <trkpt lat="45.10549" lon="3.0233">
        <ele>945</ele>
        <time>2024-05-08T19:50:06Z</time>
      </trkpt>
      <trkpt lat="45.10523" lon="3.02294">
        <ele>947</ele>
        <time>2024-05-08T19:50:14Z</time>
      </trkpt>
      <trkpt lat="45.1051" lon="3.02283">
        <ele>947</ele>
        <time>2024-05-08T19:50:18Z</time>
      </trkpt>
      <trkpt lat="45.10499" lon="3.02279">
        <ele>948</ele>
        <time>2024-05-08T19:50:20Z</time>
      </trkpt>
      <trkpt lat="45.10493" lon="3.02268">
        <ele>949</ele>
        <time>2024-05-08T19:50:22Z</time>
      </trkpt>
      <trkpt lat="45.10479" lon="3.02256">
        <ele>950</ele>
        <time>2024-05-08T19:50:26Z</time>
      </trkpt>
      <trkpt lat="45.10475" lon="3.02239">
        <ele>950</ele>
        <time>2024-05-08T19:50:29Z</time>
      </trkpt>
      <trkpt lat="45.10479" lon="3.02222">
        <ele>950</ele>
        <time>2024-05-08T19:50:32Z</time>
      </trkpt>
      <trkpt lat="45.10477" lon="3.02214">
        <ele>951</ele>
        <time>2024-05-08T19:50:34Z</time>
      </trkpt>
      <trkpt lat="45.10482" lon="3.02198">
        <ele>951</ele>
        <time>2024-05-08T19:50:36Z</time>
      </trkpt>
      <trkpt lat="45.10471" lon="3.02206">
        <ele>951</ele>
        <time>2024-05-08T19:50:39Z</time>
      </trkpt>
      <trkpt lat="45.10458" lon="3.02234">
        <ele>952</ele>
        <time>2024-05-08T19:50:45Z</time>
      </trkpt>
      <trkpt lat="45.10446" lon="3.02248">
        <ele>953</ele>
        <time>2024-05-08T19:50:49Z</time>
      </trkpt>
      <trkpt lat="45.10441" lon="3.02249">
        <ele>953</ele>
        <time>2024-05-08T19:50:50Z</time>
      </trkpt>
      <trkpt lat="45.1043" lon="3.02246">
        <ele>954</ele>
        <time>2024-05-08T19:50:52Z</time>
      </trkpt>
      <trkpt lat="45.10401" lon="3.02226">
        <ele>956</ele>
        <time>2024-05-08T19:51:00Z</time>
      </trkpt>
      <trkpt lat="45.10398" lon="3.02226">
        <ele>956</ele>
        <time>2024-05-08T19:51:01Z</time>
      </trkpt>
      <trkpt lat="45.1039" lon="3.02233">
        <ele>956</ele>
        <time>2024-05-08T19:51:03Z</time>
      </trkpt>
      <trkpt lat="45.10381" lon="3.02246">
        <ele>957</ele>
        <time>2024-05-08T19:51:06Z</time>
      </trkpt>
      <trkpt lat="45.10386" lon="3.0226">
        <ele>956</ele>
        <time>2024-05-08T19:51:08Z</time>
      </trkpt>
      <trkpt lat="45.10396" lon="3.02269">
        <ele>956</ele>
        <time>2024-05-08T19:51:11Z</time>
      </trkpt>
      <trkpt lat="45.10408" lon="3.02294">
        <ele>954</ele>
        <time>2024-05-08T19:51:16Z</time>
      </trkpt>
      <trkpt lat="45.10416" lon="3.02302">
        <ele>954</ele>
        <time>2024-05-08T19:51:18Z</time>
      </trkpt>
      <trkpt lat="45.10399" lon="3.02291">
        <ele>955</ele>
        <time>2024-05-08T19:51:23Z</time>
      </trkpt>
      <trkpt lat="45.10344" lon="3.02216">
        <ele>959</ele>
        <time>2024-05-08T19:51:41Z</time>
      </trkpt>
      <trkpt lat="45.103" lon="3.02162">
        <ele>959</ele>
        <time>2024-05-08T19:51:54Z</time>
      </trkpt>
      <trkpt lat="45.10255" lon="3.02082">
        <ele>958</ele>
        <time>2024-05-08T19:52:11Z</time>
      </trkpt>
      <trkpt lat="45.10253" lon="3.02057">
        <ele>958</ele>
        <time>2024-05-08T19:52:15Z</time>
      </trkpt>
      <trkpt lat="45.1025" lon="3.02048">
        <ele>958</ele>
        <time>2024-05-08T19:52:17Z</time>
      </trkpt>
      <trkpt lat="45.10249" lon="3.02019">
        <ele>958</ele>
        <time>2024-05-08T19:52:22Z</time>
      </trkpt>
      <trkpt lat="45.1029" lon="3.01937">
        <ele>959</ele>
        <time>2024-05-08T19:52:38Z</time>
      </trkpt>
      <trkpt lat="45.10329" lon="3.01847">
        <ele>958</ele>
        <time>2024-05-08T19:52:56Z</time>
      </trkpt>
      <trkpt lat="45.10354" lon="3.01796">
        <ele>957</ele>
        <time>2024-05-08T19:53:06Z</time>
      </trkpt>
      <trkpt lat="45.10396" lon="3.01651">
        <ele>955</ele>
        <time>2024-05-08T19:53:32Z</time>
      </trkpt>
      <trkpt lat="45.10407" lon="3.0162">
        <ele>956</ele>
        <time>2024-05-08T19:53:37Z</time>
      </trkpt>
      <trkpt lat="45.10428" lon="3.01592">
        <ele>956</ele>
        <time>2024-05-08T19:53:44Z</time>
      </trkpt>
      <trkpt lat="45.10462" lon="3.01559">
        <ele>957</ele>
        <time>2024-05-08T19:53:54Z</time>
      </trkpt>
      <trkpt lat="45.10484" lon="3.01507">
        <ele>959</ele>
        <time>2024-05-08T19:54:04Z</time>
      </trkpt>
      <trkpt lat="45.10495" lon="3.01467">
        <ele>960</ele>
        <time>2024-05-08T19:54:11Z</time>
      </trkpt>
      <trkpt lat="45.10502" lon="3.01357">
        <ele>963</ele>
        <time>2024-05-08T19:54:29Z</time>
      </trkpt>
      <trkpt lat="45.10501" lon="3.01327">
        <ele>963</ele>
        <time>2024-05-08T19:54:34Z</time>
      </trkpt>
      <trkpt lat="45.1049" lon="3.0122">
        <ele>963</ele>
        <time>2024-05-08T19:54:52Z</time>
      </trkpt>
      <trkpt lat="45.1049" lon="3.01183">
        <ele>964</ele>
        <time>2024-05-08T19:54:58Z</time>
      </trkpt>
      <trkpt lat="45.10524" lon="3.00928">
        <ele>965</ele>
        <time>2024-05-08T19:55:41Z</time>
      </trkpt>
      <trkpt lat="45.10536" lon="3.00776">
        <ele>965</ele>
        <time>2024-05-08T19:56:06Z</time>
      </trkpt>
      <trkpt lat="45.10546" lon="3.00681">
        <ele>964</ele>
        <time>2024-05-08T19:56:22Z</time>
      </trkpt>
      <trkpt lat="45.10546" lon="3.00661">
        <ele>964</ele>
        <time>2024-05-08T19:56:25Z</time>
      </trkpt>
      <trkpt lat="45.10541" lon="3.00624">
        <ele>962</ele>
        <time>2024-05-08T19:56:31Z</time>
      </trkpt>
      <trkpt lat="45.10528" lon="3.00553">
        <ele>959</ele>
        <time>2024-05-08T19:56:43Z</time>
      </trkpt>
      <trkpt lat="45.10521" lon="3.00539">
        <ele>958</ele>
        <time>2024-05-08T19:56:46Z</time>
      </trkpt>
      <trkpt lat="45.105" lon="3.00513">
        <ele>955</ele>
        <time>2024-05-08T19:56:53Z</time>
      </trkpt>
      <trkpt lat="45.10487" lon="3.00501">
        <ele>954</ele>
        <time>2024-05-08T19:56:56Z</time>
      </trkpt>
      <trkpt lat="45.10428" lon="3.0048">
        <ele>950</ele>
        <time>2024-05-08T19:57:10Z</time>
      </trkpt>
      <trkpt lat="45.10407" lon="3.00485">
        <ele>948</ele>
        <time>2024-05-08T19:57:15Z</time>
      </trkpt>
      <trkpt lat="45.10401" lon="3.00484">
        <ele>948</ele>
        <time>2024-05-08T19:57:17Z</time>
      </trkpt>
      <trkpt lat="45.10389" lon="3.00474">
        <ele>946</ele>
        <time>2024-05-08T19:57:20Z</time>
      </trkpt>
      <trkpt lat="45.10377" lon="3.00445">
        <ele>944</ele>
        <time>2024-05-08T19:57:26Z</time>
      </trkpt>
      <trkpt lat="45.10371" lon="3.00422">
        <ele>943</ele>
        <time>2024-05-08T19:57:30Z</time>
      </trkpt>
      <trkpt lat="45.10371" lon="3.00399">
        <ele>943</ele>
        <time>2024-05-08T19:57:33Z</time>
      </trkpt>
      <trkpt lat="45.10376" lon="3.00366">
        <ele>943</ele>
        <time>2024-05-08T19:57:39Z</time>
      </trkpt>
      <trkpt lat="45.10372" lon="3.00337">
        <ele>942</ele>
        <time>2024-05-08T19:57:44Z</time>
      </trkpt>
      <trkpt lat="45.10366" lon="3.00323">
        <ele>941</ele>
        <time>2024-05-08T19:57:47Z</time>
      </trkpt>
      <trkpt lat="45.10358" lon="3.00314">
        <ele>941</ele>
        <time>2024-05-08T19:57:49Z</time>
      </trkpt>
      <trkpt lat="45.10347" lon="3.00314">
        <ele>940</ele>
        <time>2024-05-08T19:57:52Z</time>
      </trkpt>
      <trkpt lat="45.10343" lon="3.00317">
        <ele>940</ele>
        <time>2024-05-08T19:57:53Z</time>
      </trkpt>
      <trkpt lat="45.10325" lon="3.00341">
        <ele>940</ele>
        <time>2024-05-08T19:57:58Z</time>
      </trkpt>
      <trkpt lat="45.10306" lon="3.00381">
        <ele>939</ele>
        <time>2024-05-08T19:58:06Z</time>
      </trkpt>
      <trkpt lat="45.10268" lon="3.00542">
        <ele>937</ele>
        <time>2024-05-08T19:58:34Z</time>
      </trkpt>
      <trkpt lat="45.10265" lon="3.0057">
        <ele>937</ele>
        <time>2024-05-08T19:58:39Z</time>
      </trkpt>
      <trkpt lat="45.10249" lon="3.0065">
        <ele>936</ele>
        <time>2024-05-08T19:58:53Z</time>
      </trkpt>
      <trkpt lat="45.1024" lon="3.00675">
        <ele>936</ele>
        <time>2024-05-08T19:58:57Z</time>
      </trkpt>
      <trkpt lat="45.10203" lon="3.0074">
        <ele>935</ele>
        <time>2024-05-08T19:59:11Z</time>
      </trkpt>
      <trkpt lat="45.1017" lon="3.00789">
        <ele>934</ele>
        <time>2024-05-08T19:59:22Z</time>
      </trkpt>
      <trkpt lat="45.10153" lon="3.00812">
        <ele>934</ele>
        <time>2024-05-08T19:59:28Z</time>
      </trkpt>
      <trkpt lat="45.10119" lon="3.0085">
        <ele>933</ele>
        <time>2024-05-08T19:59:38Z</time>
      </trkpt>
      <trkpt lat="45.10092" lon="3.00891">
        <ele>932</ele>
        <time>2024-05-08T19:59:47Z</time>
      </trkpt>
      <trkpt lat="45.10081" lon="3.00913">
        <ele>932</ele>
        <time>2024-05-08T19:59:52Z</time>
      </trkpt>
      <trkpt lat="45.10039" lon="3.01025">
        <ele>931</ele>
        <time>2024-05-08T20:00:12Z</time>
      </trkpt>
      <trkpt lat="45.10013" lon="3.01077">
        <ele>930</ele>
        <time>2024-05-08T20:00:23Z</time>
      </trkpt>
      <trkpt lat="45.09994" lon="3.011">
        <ele>930</ele>
        <time>2024-05-08T20:00:29Z</time>
      </trkpt>
      <trkpt lat="45.09957" lon="3.01135">
        <ele>929</ele>
        <time>2024-05-08T20:00:39Z</time>
      </trkpt>
      <trkpt lat="45.0995" lon="3.01139">
        <ele>929</ele>
        <time>2024-05-08T20:00:41Z</time>
      </trkpt>
      <trkpt lat="45.09941" lon="3.0114">
        <ele>929</ele>
        <time>2024-05-08T20:00:43Z</time>
      </trkpt>
      <trkpt lat="45.09932" lon="3.01136">
        <ele>928</ele>
        <time>2024-05-08T20:00:45Z</time>
      </trkpt>
      <trkpt lat="45.09903" lon="3.01106">
        <ele>928</ele>
        <time>2024-05-08T20:00:54Z</time>
      </trkpt>
      <trkpt lat="45.09888" lon="3.01089">
        <ele>927</ele>
        <time>2024-05-08T20:00:58Z</time>
      </trkpt>
      <trkpt lat="45.09867" lon="3.01048">
        <ele>927</ele>
        <time>2024-05-08T20:01:06Z</time>
      </trkpt>
      <trkpt lat="45.09855" lon="3.01033">
        <ele>927</ele>
        <time>2024-05-08T20:01:10Z</time>
      </trkpt>
      <trkpt lat="45.098" lon="3.00997">
        <ele>926</ele>
        <time>2024-05-08T20:01:24Z</time>
      </trkpt>
      <trkpt lat="45.09757" lon="3.00963">
        <ele>925</ele>
        <time>2024-05-08T20:01:36Z</time>
      </trkpt>
      <trkpt lat="45.09695" lon="3.00922">
        <ele>926</ele>
        <time>2024-05-08T20:01:52Z</time>
      </trkpt>
      <trkpt lat="45.09665" lon="3.00896">
        <ele>927</ele>
        <time>2024-05-08T20:02:00Z</time>
      </trkpt>
      <trkpt lat="45.0963" lon="3.00852">
        <ele>930</ele>
        <time>2024-05-08T20:02:11Z</time>
      </trkpt>
      <trkpt lat="45.09534" lon="3.00755">
        <ele>931</ele>
        <time>2024-05-08T20:02:38Z</time>
      </trkpt>
      <trkpt lat="45.09519" lon="3.00734">
        <ele>931</ele>
        <time>2024-05-08T20:02:43Z</time>
      </trkpt>
      <trkpt lat="45.09512" lon="3.0072">
        <ele>931</ele>
        <time>2024-05-08T20:02:46Z</time>
      </trkpt>
      <trkpt lat="45.09495" lon="3.00664">
        <ele>932</ele>
        <time>2024-05-08T20:02:56Z</time>
      </trkpt>
      <trkpt lat="45.09446" lon="3.00467">
        <ele>931</ele>
        <time>2024-05-08T20:03:31Z</time>
      </trkpt>
      <trkpt lat="45.09378" lon="3.00285">
        <ele>932</ele>
        <time>2024-05-08T20:04:05Z</time>
      </trkpt>
      <trkpt lat="45.09302" lon="3.00105">
        <ele>936</ele>
        <time>2024-05-08T20:04:39Z</time>
      </trkpt>
      <trkpt lat="45.09251" lon="2.99975">
        <ele>938</ele>
        <time>2024-05-08T20:05:04Z</time>
      </trkpt>
      <trkpt lat="45.09203" lon="2.99844">
        <ele>941</ele>
        <time>2024-05-08T20:05:28Z</time>
      </trkpt>
      <trkpt lat="45.09169" lon="2.99734">
        <ele>943</ele>
        <time>2024-05-08T20:05:48Z</time>
      </trkpt>
      <trkpt lat="45.09139" lon="2.99679">
        <ele>946</ele>
        <time>2024-05-08T20:05:59Z</time>
      </trkpt>
      <trkpt lat="45.09114" lon="2.99623">
        <ele>947</ele>
        <time>2024-05-08T20:06:10Z</time>
      </trkpt>
      <trkpt lat="45.09113" lon="2.9961">
        <ele>947</ele>
        <time>2024-05-08T20:06:12Z</time>
      </trkpt>
      <trkpt lat="45.09126" lon="2.98877">
        <ele>954</ele>
        <time>2024-05-08T20:08:13Z</time>
      </trkpt>
      <trkpt lat="45.09132" lon="2.98834">
        <ele>955</ele>
        <time>2024-05-08T20:08:21Z</time>
      </trkpt>
      <trkpt lat="45.09157" lon="2.98754">
        <ele>955</ele>
        <time>2024-05-08T20:08:35Z</time>
      </trkpt>
      <trkpt lat="45.09164" lon="2.98749">
        <ele>955</ele>
        <time>2024-05-08T20:08:37Z</time>
      </trkpt>
      <trkpt lat="45.09178" lon="2.9875">
        <ele>956</ele>
        <time>2024-05-08T20:08:40Z</time>
      </trkpt>
      <trkpt lat="45.09216" lon="2.98783">
        <ele>957</ele>
        <time>2024-05-08T20:08:50Z</time>
      </trkpt>
      <trkpt lat="45.09237" lon="2.98809">
        <ele>958</ele>
        <time>2024-05-08T20:08:57Z</time>
      </trkpt>
      <trkpt lat="45.09271" lon="2.98821">
        <ele>960</ele>
        <time>2024-05-08T20:09:05Z</time>
      </trkpt>
      <trkpt lat="45.09293" lon="2.9884">
        <ele>962</ele>
        <time>2024-05-08T20:09:11Z</time>
      </trkpt>
      <trkpt lat="45.09301" lon="2.9884">
        <ele>963</ele>
        <time>2024-05-08T20:09:13Z</time>
      </trkpt>
      <trkpt lat="45.09305" lon="2.98836">
        <ele>964</ele>
        <time>2024-05-08T20:09:14Z</time>
      </trkpt>
      <trkpt lat="45.09319" lon="2.98808">
        <ele>966</ele>
        <time>2024-05-08T20:09:20Z</time>
      </trkpt>
      <trkpt lat="45.09333" lon="2.98807">
        <ele>967</ele>
        <time>2024-05-08T20:09:23Z</time>
      </trkpt>
      <trkpt lat="45.09355" lon="2.98812">
        <ele>967</ele>
        <time>2024-05-08T20:09:28Z</time>
      </trkpt>
      <trkpt lat="45.09371" lon="2.98821">
        <ele>967</ele>
        <time>2024-05-08T20:09:32Z</time>
      </trkpt>
      <trkpt lat="45.09381" lon="2.98831">
        <ele>967</ele>
        <time>2024-05-08T20:09:35Z</time>
      </trkpt>
      <trkpt lat="45.09398" lon="2.98838">
        <ele>967</ele>
        <time>2024-05-08T20:09:39Z</time>
      </trkpt>
      <trkpt lat="45.09414" lon="2.98853">
        <ele>966</ele>
        <time>2024-05-08T20:09:44Z</time>
      </trkpt>
      <trkpt lat="45.09428" lon="2.98858">
        <ele>965</ele>
        <time>2024-05-08T20:09:47Z</time>
      </trkpt>
      <trkpt lat="45.09431" lon="2.98856">
        <ele>965</ele>
        <time>2024-05-08T20:09:48Z</time>
      </trkpt>
      <trkpt lat="45.09433" lon="2.98844">
        <ele>966</ele>
        <time>2024-05-08T20:09:50Z</time>
      </trkpt>
      <trkpt lat="45.09431" lon="2.98783">
        <ele>969</ele>
        <time>2024-05-08T20:10:00Z</time>
      </trkpt>
      <trkpt lat="45.09453" lon="2.98766">
        <ele>970</ele>
        <time>2024-05-08T20:10:06Z</time>
      </trkpt>
      <trkpt lat="45.09496" lon="2.98706">
        <ele>970</ele>
        <time>2024-05-08T20:10:20Z</time>
      </trkpt>
      <trkpt lat="45.09501" lon="2.98694">
        <ele>970</ele>
        <time>2024-05-08T20:10:22Z</time>
      </trkpt>
      <trkpt lat="45.09501" lon="2.98688">
        <ele>970</ele>
        <time>2024-05-08T20:10:23Z</time>
      </trkpt>
      <trkpt lat="45.09498" lon="2.98685">
        <ele>970</ele>
        <time>2024-05-08T20:10:24Z</time>
      </trkpt>
      <trkpt lat="45.09444" lon="2.98686">
        <ele>971</ele>
        <time>2024-05-08T20:10:37Z</time>
      </trkpt>
      <trkpt lat="45.09422" lon="2.9869">
        <ele>971</ele>
        <time>2024-05-08T20:10:42Z</time>
      </trkpt>
      <trkpt lat="45.09417" lon="2.98696">
        <ele>971</ele>
        <time>2024-05-08T20:10:44Z</time>
      </trkpt>
      <trkpt lat="45.09416" lon="2.98701">
        <ele>971</ele>
        <time>2024-05-08T20:10:44Z</time>
      </trkpt>
      <trkpt lat="45.09422" lon="2.98732">
        <ele>971</ele>
        <time>2024-05-08T20:10:50Z</time>
      </trkpt>
      <trkpt lat="45.09421" lon="2.98754">
        <ele>971</ele>
        <time>2024-05-08T20:10:53Z</time>
      </trkpt>
      <trkpt lat="45.09423" lon="2.98768">
        <ele>970</ele>
        <time>2024-05-08T20:10:56Z</time>
      </trkpt>
      <trkpt lat="45.09421" lon="2.98778">
        <ele>970</ele>
        <time>2024-05-08T20:10:57Z</time>
      </trkpt>
      <trkpt lat="45.09415" lon="2.98784">
        <ele>969</ele>
        <time>2024-05-08T20:10:59Z</time>
      </trkpt>
      <trkpt lat="45.0941" lon="2.98782">
        <ele>969</ele>
        <time>2024-05-08T20:11:00Z</time>
      </trkpt>
      <trkpt lat="45.09408" lon="2.9877">
        <ele>970</ele>
        <time>2024-05-08T20:11:02Z</time>
      </trkpt>
      <trkpt lat="45.0941" lon="2.98784">
        <ele>969</ele>
        <time>2024-05-08T20:11:05Z</time>
      </trkpt>
      <trkpt lat="45.09414" lon="2.98788">
        <ele>969</ele>
        <time>2024-05-08T20:11:06Z</time>
      </trkpt>
      <trkpt lat="45.09422" lon="2.98786">
        <ele>969</ele>
        <time>2024-05-08T20:11:08Z</time>
      </trkpt>
      <trkpt lat="45.09444" lon="2.98789">
        <ele>969</ele>
        <time>2024-05-08T20:11:13Z</time>
      </trkpt>
      <trkpt lat="45.09444" lon="2.98792">
        <ele>969</ele>
        <time>2024-05-08T20:11:13Z</time>
      </trkpt>
    </trkseg>
  </trk>
</gpx>